<?xml version="1.0" encoding="UTF-8" standalone="no" ?>
<gpx xmlns="http://www.topografix.com/GPX/1/1" xmlns:xsi="http://www.w3.org/2001/XMLSchema-instance" xsi:schemaLocation="http://www.topografix.com/GPX/1/1 http://www.topografix.com/GPX/1/1/gpx.xsd" version="1.1" creator="VisuGPX - https://www.visugpx.com">
  <metadata>
    <name>Trek au Ladakh</name>
    <desc><![CDATA[Trek au Ladakh - Septembre 2015]]></desc>
  </metadata>
  <trk>
    <name><![CDATA[Chilling (3210m) - Village de Kaya (3380m)]]></name>
    <trkseg>
      <trkpt lat="34.03866" lon="77.20054">
        <ele>3229.4</ele>
        <time>2015-09-01T03:03:50Z</time>
      </trkpt>
      <trkpt lat="34.03865" lon="77.20055">
        <ele>3229.2</ele>
        <time>2015-09-01T03:03:51Z</time>
      </trkpt>
      <trkpt lat="34.03866" lon="77.20064">
        <ele>3228.8</ele>
        <time>2015-09-01T03:03:55Z</time>
      </trkpt>
      <trkpt lat="34.0386" lon="77.20068">
        <ele>3228.4</ele>
        <time>2015-09-01T03:04:01Z</time>
      </trkpt>
      <trkpt lat="34.03855" lon="77.20071">
        <ele>3227.2</ele>
        <time>2015-09-01T03:04:08Z</time>
      </trkpt>
      <trkpt lat="34.03839" lon="77.20081">
        <ele>3226.8</ele>
        <time>2015-09-01T03:04:23Z</time>
      </trkpt>
      <trkpt lat="34.03831" lon="77.20083">
        <ele>3226.2</ele>
        <time>2015-09-01T03:04:30Z</time>
      </trkpt>
      <trkpt lat="34.03815" lon="77.20096">
        <ele>3225.4</ele>
        <time>2015-09-01T03:04:46Z</time>
      </trkpt>
      <trkpt lat="34.03813" lon="77.201">
        <ele>3225.2</ele>
        <time>2015-09-01T03:04:50Z</time>
      </trkpt>
      <trkpt lat="34.03796" lon="77.2011">
        <ele>3224.4</ele>
        <time>2015-09-01T03:05:04Z</time>
      </trkpt>
      <trkpt lat="34.03779" lon="77.20111">
        <ele>3224.2</ele>
        <time>2015-09-01T03:05:16Z</time>
      </trkpt>
      <trkpt lat="34.03764" lon="77.20107">
        <ele>3223</ele>
        <time>2015-09-01T03:05:27Z</time>
      </trkpt>
      <trkpt lat="34.03754" lon="77.201">
        <ele>3222</ele>
        <time>2015-09-01T03:05:33Z</time>
      </trkpt>
      <trkpt lat="34.03751" lon="77.20098">
        <ele>3221.6</ele>
        <time>2015-09-01T03:05:35Z</time>
      </trkpt>
      <trkpt lat="34.03746" lon="77.20094">
        <ele>3221.4</ele>
        <time>2015-09-01T03:05:37Z</time>
      </trkpt>
      <trkpt lat="34.03743" lon="77.20091">
        <ele>3221</ele>
        <time>2015-09-01T03:05:40Z</time>
      </trkpt>
      <trkpt lat="34.03741" lon="77.20091">
        <ele>3220.8</ele>
        <time>2015-09-01T03:05:42Z</time>
      </trkpt>
      <trkpt lat="34.0374" lon="77.20089">
        <ele>3220.8</ele>
        <time>2015-09-01T03:05:46Z</time>
      </trkpt>
      <trkpt lat="34.0373" lon="77.2008">
        <ele>3220.4</ele>
        <time>2015-09-01T03:06:02Z</time>
      </trkpt>
      <trkpt lat="34.03728" lon="77.20078">
        <ele>3220.4</ele>
        <time>2015-09-01T03:06:03Z</time>
      </trkpt>
      <trkpt lat="34.03727" lon="77.20075">
        <ele>3220.2</ele>
        <time>2015-09-01T03:06:05Z</time>
      </trkpt>
      <trkpt lat="34.03727" lon="77.20074">
        <ele>3220.2</ele>
        <time>2015-09-01T03:06:07Z</time>
      </trkpt>
      <trkpt lat="34.03728" lon="77.20072">
        <ele>3219.8</ele>
        <time>2015-09-01T03:06:14Z</time>
      </trkpt>
      <trkpt lat="34.03729" lon="77.20061">
        <ele>3219.6</ele>
        <time>2015-09-01T03:06:27Z</time>
      </trkpt>
      <trkpt lat="34.03729" lon="77.20059">
        <ele>3219.6</ele>
        <time>2015-09-01T03:06:29Z</time>
      </trkpt>
      <trkpt lat="34.03729" lon="77.20057">
        <ele>3219.4</ele>
        <time>2015-09-01T03:06:31Z</time>
      </trkpt>
      <trkpt lat="34.03733" lon="77.20048">
        <ele>3218.8</ele>
        <time>2015-09-01T03:06:49Z</time>
      </trkpt>
      <trkpt lat="34.0373" lon="77.20029">
        <ele>3218.2</ele>
        <time>2015-09-01T03:07:04Z</time>
      </trkpt>
      <trkpt lat="34.03729" lon="77.20022">
        <ele>3217.8</ele>
        <time>2015-09-01T03:07:09Z</time>
      </trkpt>
      <trkpt lat="34.03729" lon="77.2002">
        <ele>3217.6</ele>
        <time>2015-09-01T03:07:11Z</time>
      </trkpt>
      <trkpt lat="34.03732" lon="77.20015">
        <ele>3217.4</ele>
        <time>2015-09-01T03:07:17Z</time>
      </trkpt>
      <trkpt lat="34.03737" lon="77.20012">
        <ele>3216.8</ele>
        <time>2015-09-01T03:07:28Z</time>
      </trkpt>
      <trkpt lat="34.03739" lon="77.20009">
        <ele>3216.6</ele>
        <time>2015-09-01T03:07:31Z</time>
      </trkpt>
      <trkpt lat="34.03747" lon="77.20012">
        <ele>3216.6</ele>
        <time>2015-09-01T03:07:39Z</time>
      </trkpt>
      <trkpt lat="34.03748" lon="77.2001">
        <ele>3216.8</ele>
        <time>2015-09-01T03:07:41Z</time>
      </trkpt>
      <trkpt lat="34.03746" lon="77.20005">
        <ele>3216.8</ele>
        <time>2015-09-01T03:07:43Z</time>
      </trkpt>
      <trkpt lat="34.03745" lon="77.19995">
        <ele>3216</ele>
        <time>2015-09-01T03:07:50Z</time>
      </trkpt>
      <trkpt lat="34.03744" lon="77.19985">
        <ele>3215.6</ele>
        <time>2015-09-01T03:07:55Z</time>
      </trkpt>
      <trkpt lat="34.03744" lon="77.19975">
        <ele>3215.8</ele>
        <time>2015-09-01T03:08:02Z</time>
      </trkpt>
      <trkpt lat="34.03747" lon="77.19954">
        <ele>3215.4</ele>
        <time>2015-09-01T03:08:18Z</time>
      </trkpt>
      <trkpt lat="34.0375" lon="77.1994">
        <ele>3215.4</ele>
        <time>2015-09-01T03:08:30Z</time>
      </trkpt>
      <trkpt lat="34.0375" lon="77.19936">
        <ele>3215.2</ele>
        <time>2015-09-01T03:08:34Z</time>
      </trkpt>
      <trkpt lat="34.03755" lon="77.19923">
        <ele>3215.2</ele>
        <time>2015-09-01T03:08:49Z</time>
      </trkpt>
      <trkpt lat="34.03754" lon="77.1992">
        <ele>3215.2</ele>
        <time>2015-09-01T03:08:51Z</time>
      </trkpt>
      <trkpt lat="34.03751" lon="77.199">
        <ele>3215</ele>
        <time>2015-09-01T03:09:11Z</time>
      </trkpt>
      <trkpt lat="34.03742" lon="77.19881">
        <ele>3214.6</ele>
        <time>2015-09-01T03:09:27Z</time>
      </trkpt>
      <trkpt lat="34.0374" lon="77.19881">
        <ele>3214.6</ele>
        <time>2015-09-01T03:09:29Z</time>
      </trkpt>
      <trkpt lat="34.0373" lon="77.19868">
        <ele>3214.8</ele>
        <time>2015-09-01T03:09:45Z</time>
      </trkpt>
      <trkpt lat="34.03729" lon="77.19865">
        <ele>3214.8</ele>
        <time>2015-09-01T03:09:48Z</time>
      </trkpt>
      <trkpt lat="34.03725" lon="77.19859">
        <ele>3214.6</ele>
        <time>2015-09-01T03:09:54Z</time>
      </trkpt>
      <trkpt lat="34.03709" lon="77.1985">
        <ele>3214.2</ele>
        <time>2015-09-01T03:10:10Z</time>
      </trkpt>
      <trkpt lat="34.03705" lon="77.19848">
        <ele>3214.2</ele>
        <time>2015-09-01T03:10:14Z</time>
      </trkpt>
      <trkpt lat="34.0369" lon="77.19839">
        <ele>3213.6</ele>
        <time>2015-09-01T03:10:39Z</time>
      </trkpt>
      <trkpt lat="34.0369" lon="77.19839">
        <ele>3213.6</ele>
        <time>2015-09-01T03:10:40Z</time>
      </trkpt>
      <trkpt lat="34.03687" lon="77.19835">
        <ele>3213.4</ele>
        <time>2015-09-01T03:10:44Z</time>
      </trkpt>
      <trkpt lat="34.03685" lon="77.19832">
        <ele>3213.4</ele>
        <time>2015-09-01T03:10:47Z</time>
      </trkpt>
      <trkpt lat="34.03684" lon="77.1983">
        <ele>3213.6</ele>
        <time>2015-09-01T03:10:50Z</time>
      </trkpt>
      <trkpt lat="34.03671" lon="77.1982">
        <ele>3212.8</ele>
        <time>2015-09-01T03:11:16Z</time>
      </trkpt>
      <trkpt lat="34.03669" lon="77.19819">
        <ele>3213</ele>
        <time>2015-09-01T03:11:18Z</time>
      </trkpt>
      <trkpt lat="34.03658" lon="77.19811">
        <ele>3212.6</ele>
        <time>2015-09-01T03:11:29Z</time>
      </trkpt>
      <trkpt lat="34.03641" lon="77.19802">
        <ele>3212.2</ele>
        <time>2015-09-01T03:11:44Z</time>
      </trkpt>
      <trkpt lat="34.03634" lon="77.19801">
        <ele>3211.8</ele>
        <time>2015-09-01T03:11:51Z</time>
      </trkpt>
      <trkpt lat="34.03631" lon="77.19806">
        <ele>3211.8</ele>
        <time>2015-09-01T03:11:56Z</time>
      </trkpt>
      <trkpt lat="34.0363" lon="77.19805">
        <ele>3211.2</ele>
        <time>2015-09-01T03:11:58Z</time>
      </trkpt>
      <trkpt lat="34.03628" lon="77.19799">
        <ele>3211.6</ele>
        <time>2015-09-01T03:12:09Z</time>
      </trkpt>
      <trkpt lat="34.03622" lon="77.19791">
        <ele>3211.6</ele>
        <time>2015-09-01T03:12:21Z</time>
      </trkpt>
      <trkpt lat="34.0362" lon="77.1979">
        <ele>3211.6</ele>
        <time>2015-09-01T03:12:23Z</time>
      </trkpt>
      <trkpt lat="34.03619" lon="77.19789">
        <ele>3211.4</ele>
        <time>2015-09-01T03:12:25Z</time>
      </trkpt>
      <trkpt lat="34.03617" lon="77.19789">
        <ele>3211.4</ele>
        <time>2015-09-01T03:12:28Z</time>
      </trkpt>
      <trkpt lat="34.03616" lon="77.19792">
        <ele>3211.2</ele>
        <time>2015-09-01T03:12:39Z</time>
      </trkpt>
      <trkpt lat="34.03609" lon="77.19791">
        <ele>3210.8</ele>
        <time>2015-09-01T03:12:49Z</time>
      </trkpt>
      <trkpt lat="34.03591" lon="77.19784">
        <ele>3211</ele>
        <time>2015-09-01T03:13:06Z</time>
      </trkpt>
      <trkpt lat="34.03589" lon="77.19785">
        <ele>3211</ele>
        <time>2015-09-01T03:13:07Z</time>
      </trkpt>
      <trkpt lat="34.03581" lon="77.19786">
        <ele>3210.8</ele>
        <time>2015-09-01T03:13:17Z</time>
      </trkpt>
      <trkpt lat="34.03579" lon="77.19788">
        <ele>3210.4</ele>
        <time>2015-09-01T03:14:22Z</time>
      </trkpt>
      <trkpt lat="34.03576" lon="77.1979">
        <ele>3210.2</ele>
        <time>2015-09-01T03:14:27Z</time>
      </trkpt>
      <trkpt lat="34.03574" lon="77.1979">
        <ele>3210.2</ele>
        <time>2015-09-01T03:14:31Z</time>
      </trkpt>
      <trkpt lat="34.03576" lon="77.19792">
        <ele>3209.8</ele>
        <time>2015-09-01T03:15:00Z</time>
      </trkpt>
      <trkpt lat="34.03581" lon="77.19781">
        <ele>3209.2</ele>
        <time>2015-09-01T03:15:30Z</time>
      </trkpt>
      <trkpt lat="34.03579" lon="77.19775">
        <ele>3209.4</ele>
        <time>2015-09-01T03:16:01Z</time>
      </trkpt>
      <trkpt lat="34.03575" lon="77.19777">
        <ele>3209.2</ele>
        <time>2015-09-01T03:16:13Z</time>
      </trkpt>
      <trkpt lat="34.03557" lon="77.19778">
        <ele>3208.6</ele>
        <time>2015-09-01T03:16:25Z</time>
      </trkpt>
      <trkpt lat="34.03539" lon="77.19774">
        <ele>3208.6</ele>
        <time>2015-09-01T03:16:41Z</time>
      </trkpt>
      <trkpt lat="34.03524" lon="77.19776">
        <ele>3208.8</ele>
        <time>2015-09-01T03:16:53Z</time>
      </trkpt>
      <trkpt lat="34.03518" lon="77.19773">
        <ele>3208.2</ele>
        <time>2015-09-01T03:16:58Z</time>
      </trkpt>
      <trkpt lat="34.03505" lon="77.19773">
        <ele>3208.2</ele>
        <time>2015-09-01T03:17:11Z</time>
      </trkpt>
      <trkpt lat="34.03498" lon="77.19774">
        <ele>3208.6</ele>
        <time>2015-09-01T03:17:20Z</time>
      </trkpt>
      <trkpt lat="34.03493" lon="77.19777">
        <ele>3208.4</ele>
        <time>2015-09-01T03:17:36Z</time>
      </trkpt>
      <trkpt lat="34.0349" lon="77.19774">
        <ele>3208.6</ele>
        <time>2015-09-01T03:17:38Z</time>
      </trkpt>
      <trkpt lat="34.03488" lon="77.1977">
        <ele>3208.8</ele>
        <time>2015-09-01T03:17:41Z</time>
      </trkpt>
      <trkpt lat="34.03475" lon="77.19769">
        <ele>3208.6</ele>
        <time>2015-09-01T03:17:49Z</time>
      </trkpt>
      <trkpt lat="34.03458" lon="77.19764">
        <ele>3208.6</ele>
        <time>2015-09-01T03:18:04Z</time>
      </trkpt>
      <trkpt lat="34.03457" lon="77.19763">
        <ele>3208.4</ele>
        <time>2015-09-01T03:18:05Z</time>
      </trkpt>
      <trkpt lat="34.03438" lon="77.19761">
        <ele>3208.6</ele>
        <time>2015-09-01T03:18:19Z</time>
      </trkpt>
      <trkpt lat="34.03426" lon="77.19754">
        <ele>3208.8</ele>
        <time>2015-09-01T03:18:31Z</time>
      </trkpt>
      <trkpt lat="34.03424" lon="77.19753">
        <ele>3209.2</ele>
        <time>2015-09-01T03:18:33Z</time>
      </trkpt>
      <trkpt lat="34.03405" lon="77.19747">
        <ele>3208.6</ele>
        <time>2015-09-01T03:18:48Z</time>
      </trkpt>
      <trkpt lat="34.0339" lon="77.19737">
        <ele>3208.2</ele>
        <time>2015-09-01T03:19:02Z</time>
      </trkpt>
      <trkpt lat="34.03374" lon="77.19727">
        <ele>3208.4</ele>
        <time>2015-09-01T03:19:16Z</time>
      </trkpt>
      <trkpt lat="34.03365" lon="77.19717">
        <ele>3208.2</ele>
        <time>2015-09-01T03:19:27Z</time>
      </trkpt>
      <trkpt lat="34.03363" lon="77.19716">
        <ele>3207.6</ele>
        <time>2015-09-01T03:19:31Z</time>
      </trkpt>
      <trkpt lat="34.03359" lon="77.19713">
        <ele>3207.4</ele>
        <time>2015-09-01T03:19:42Z</time>
      </trkpt>
      <trkpt lat="34.0335" lon="77.19705">
        <ele>3207.2</ele>
        <time>2015-09-01T03:19:49Z</time>
      </trkpt>
      <trkpt lat="34.03348" lon="77.19701">
        <ele>3207.2</ele>
        <time>2015-09-01T03:19:53Z</time>
      </trkpt>
      <trkpt lat="34.03337" lon="77.19684">
        <ele>3207.6</ele>
        <time>2015-09-01T03:20:09Z</time>
      </trkpt>
      <trkpt lat="34.03328" lon="77.19671">
        <ele>3208</ele>
        <time>2015-09-01T03:20:22Z</time>
      </trkpt>
      <trkpt lat="34.03316" lon="77.19653">
        <ele>3207.8</ele>
        <time>2015-09-01T03:20:39Z</time>
      </trkpt>
      <trkpt lat="34.03315" lon="77.19652">
        <ele>3207.8</ele>
        <time>2015-09-01T03:20:40Z</time>
      </trkpt>
      <trkpt lat="34.03304" lon="77.19634">
        <ele>3207.8</ele>
        <time>2015-09-01T03:20:57Z</time>
      </trkpt>
      <trkpt lat="34.03301" lon="77.19631">
        <ele>3208.2</ele>
        <time>2015-09-01T03:21:01Z</time>
      </trkpt>
      <trkpt lat="34.03293" lon="77.19621">
        <ele>3207.8</ele>
        <time>2015-09-01T03:21:12Z</time>
      </trkpt>
      <trkpt lat="34.03285" lon="77.19613">
        <ele>3208.8</ele>
        <time>2015-09-01T03:21:19Z</time>
      </trkpt>
      <trkpt lat="34.03278" lon="77.19607">
        <ele>3209.2</ele>
        <time>2015-09-01T03:21:29Z</time>
      </trkpt>
      <trkpt lat="34.03267" lon="77.19589">
        <ele>3209.8</ele>
        <time>2015-09-01T03:21:44Z</time>
      </trkpt>
      <trkpt lat="34.03262" lon="77.1958">
        <ele>3210.2</ele>
        <time>2015-09-01T03:21:51Z</time>
      </trkpt>
      <trkpt lat="34.03259" lon="77.19577">
        <ele>3210.4</ele>
        <time>2015-09-01T03:21:55Z</time>
      </trkpt>
      <trkpt lat="34.03245" lon="77.19562">
        <ele>3210.6</ele>
        <time>2015-09-01T03:22:10Z</time>
      </trkpt>
      <trkpt lat="34.03235" lon="77.19545">
        <ele>3209.8</ele>
        <time>2015-09-01T03:22:28Z</time>
      </trkpt>
      <trkpt lat="34.03223" lon="77.19529">
        <ele>3209.4</ele>
        <time>2015-09-01T03:22:41Z</time>
      </trkpt>
      <trkpt lat="34.0322" lon="77.19526">
        <ele>3209.2</ele>
        <time>2015-09-01T03:22:43Z</time>
      </trkpt>
      <trkpt lat="34.03211" lon="77.19521">
        <ele>3208</ele>
        <time>2015-09-01T03:22:58Z</time>
      </trkpt>
      <trkpt lat="34.03199" lon="77.19505">
        <ele>3208.2</ele>
        <time>2015-09-01T03:23:11Z</time>
      </trkpt>
      <trkpt lat="34.03187" lon="77.19487">
        <ele>3207.6</ele>
        <time>2015-09-01T03:23:25Z</time>
      </trkpt>
      <trkpt lat="34.03184" lon="77.19481">
        <ele>3207.4</ele>
        <time>2015-09-01T03:23:29Z</time>
      </trkpt>
      <trkpt lat="34.03175" lon="77.19461">
        <ele>3207.6</ele>
        <time>2015-09-01T03:23:41Z</time>
      </trkpt>
      <trkpt lat="34.03168" lon="77.19439">
        <ele>3207.6</ele>
        <time>2015-09-01T03:23:56Z</time>
      </trkpt>
      <trkpt lat="34.03154" lon="77.19424">
        <ele>3208</ele>
        <time>2015-09-01T03:24:14Z</time>
      </trkpt>
      <trkpt lat="34.03151" lon="77.1942">
        <ele>3208.4</ele>
        <time>2015-09-01T03:24:18Z</time>
      </trkpt>
      <trkpt lat="34.03148" lon="77.1942">
        <ele>3208.4</ele>
        <time>2015-09-01T03:24:20Z</time>
      </trkpt>
      <trkpt lat="34.03144" lon="77.19427">
        <ele>3207.8</ele>
        <time>2015-09-01T03:24:43Z</time>
      </trkpt>
      <trkpt lat="34.03144" lon="77.19422">
        <ele>3208.2</ele>
        <time>2015-09-01T03:24:47Z</time>
      </trkpt>
      <trkpt lat="34.03134" lon="77.19402">
        <ele>3208</ele>
        <time>2015-09-01T03:25:00Z</time>
      </trkpt>
      <trkpt lat="34.0312" lon="77.19385">
        <ele>3208</ele>
        <time>2015-09-01T03:25:17Z</time>
      </trkpt>
      <trkpt lat="34.03108" lon="77.19368">
        <ele>3208</ele>
        <time>2015-09-01T03:25:31Z</time>
      </trkpt>
      <trkpt lat="34.03101" lon="77.19357">
        <ele>3207.2</ele>
        <time>2015-09-01T03:25:44Z</time>
      </trkpt>
      <trkpt lat="34.03098" lon="77.19349">
        <ele>3207.6</ele>
        <time>2015-09-01T03:25:49Z</time>
      </trkpt>
      <trkpt lat="34.03096" lon="77.19348">
        <ele>3207.6</ele>
        <time>2015-09-01T03:25:51Z</time>
      </trkpt>
      <trkpt lat="34.03086" lon="77.19348">
        <ele>3207</ele>
        <time>2015-09-01T03:25:58Z</time>
      </trkpt>
      <trkpt lat="34.0308" lon="77.19345">
        <ele>3206.8</ele>
        <time>2015-09-01T03:26:03Z</time>
      </trkpt>
      <trkpt lat="34.03063" lon="77.19337">
        <ele>3206.4</ele>
        <time>2015-09-01T03:26:22Z</time>
      </trkpt>
      <trkpt lat="34.03051" lon="77.19337">
        <ele>3206.4</ele>
        <time>2015-09-01T03:26:33Z</time>
      </trkpt>
      <trkpt lat="34.03034" lon="77.19331">
        <ele>3206.6</ele>
        <time>2015-09-01T03:26:47Z</time>
      </trkpt>
      <trkpt lat="34.03025" lon="77.19329">
        <ele>3206.4</ele>
        <time>2015-09-01T03:26:54Z</time>
      </trkpt>
      <trkpt lat="34.03023" lon="77.1933">
        <ele>3206.4</ele>
        <time>2015-09-01T03:26:56Z</time>
      </trkpt>
      <trkpt lat="34.03009" lon="77.19333">
        <ele>3206.6</ele>
        <time>2015-09-01T03:27:10Z</time>
      </trkpt>
      <trkpt lat="34.02992" lon="77.1934">
        <ele>3207.2</ele>
        <time>2015-09-01T03:27:26Z</time>
      </trkpt>
      <trkpt lat="34.02988" lon="77.19341">
        <ele>3207.4</ele>
        <time>2015-09-01T03:27:30Z</time>
      </trkpt>
      <trkpt lat="34.0297" lon="77.19343">
        <ele>3208</ele>
        <time>2015-09-01T03:27:47Z</time>
      </trkpt>
      <trkpt lat="34.02969" lon="77.19343">
        <ele>3208</ele>
        <time>2015-09-01T03:27:48Z</time>
      </trkpt>
      <trkpt lat="34.02951" lon="77.1935">
        <ele>3208.2</ele>
        <time>2015-09-01T03:28:02Z</time>
      </trkpt>
      <trkpt lat="34.02937" lon="77.19349">
        <ele>3208</ele>
        <time>2015-09-01T03:28:14Z</time>
      </trkpt>
      <trkpt lat="34.0292" lon="77.19355">
        <ele>3208.2</ele>
        <time>2015-09-01T03:28:31Z</time>
      </trkpt>
      <trkpt lat="34.02917" lon="77.19356">
        <ele>3208.2</ele>
        <time>2015-09-01T03:28:33Z</time>
      </trkpt>
      <trkpt lat="34.02913" lon="77.19357">
        <ele>3208.2</ele>
        <time>2015-09-01T03:28:37Z</time>
      </trkpt>
      <trkpt lat="34.02905" lon="77.19363">
        <ele>3209</ele>
        <time>2015-09-01T03:28:43Z</time>
      </trkpt>
      <trkpt lat="34.02903" lon="77.19363">
        <ele>3209.2</ele>
        <time>2015-09-01T03:28:44Z</time>
      </trkpt>
      <trkpt lat="34.02887" lon="77.19371">
        <ele>3209.2</ele>
        <time>2015-09-01T03:28:59Z</time>
      </trkpt>
      <trkpt lat="34.02873" lon="77.19372">
        <ele>3208.8</ele>
        <time>2015-09-01T03:29:15Z</time>
      </trkpt>
      <trkpt lat="34.02855" lon="77.19375">
        <ele>3209.2</ele>
        <time>2015-09-01T03:29:30Z</time>
      </trkpt>
      <trkpt lat="34.02843" lon="77.19383">
        <ele>3210</ele>
        <time>2015-09-01T03:29:41Z</time>
      </trkpt>
      <trkpt lat="34.02832" lon="77.19394">
        <ele>3211.2</ele>
        <time>2015-09-01T03:29:52Z</time>
      </trkpt>
      <trkpt lat="34.0283" lon="77.19395">
        <ele>3211.4</ele>
        <time>2015-09-01T03:29:54Z</time>
      </trkpt>
      <trkpt lat="34.02826" lon="77.194">
        <ele>3212.2</ele>
        <time>2015-09-01T03:30:00Z</time>
      </trkpt>
      <trkpt lat="34.02814" lon="77.19404">
        <ele>3213.2</ele>
        <time>2015-09-01T03:30:16Z</time>
      </trkpt>
      <trkpt lat="34.02798" lon="77.19416">
        <ele>3213.8</ele>
        <time>2015-09-01T03:30:34Z</time>
      </trkpt>
      <trkpt lat="34.02793" lon="77.19421">
        <ele>3214.2</ele>
        <time>2015-09-01T03:30:39Z</time>
      </trkpt>
      <trkpt lat="34.02791" lon="77.19422">
        <ele>3214.2</ele>
        <time>2015-09-01T03:30:41Z</time>
      </trkpt>
      <trkpt lat="34.02774" lon="77.19433">
        <ele>3215.2</ele>
        <time>2015-09-01T03:30:56Z</time>
      </trkpt>
      <trkpt lat="34.02772" lon="77.19436">
        <ele>3215.2</ele>
        <time>2015-09-01T03:30:59Z</time>
      </trkpt>
      <trkpt lat="34.02764" lon="77.19443">
        <ele>3215.4</ele>
        <time>2015-09-01T03:31:10Z</time>
      </trkpt>
      <trkpt lat="34.02749" lon="77.19456">
        <ele>3215.6</ele>
        <time>2015-09-01T03:31:26Z</time>
      </trkpt>
      <trkpt lat="34.02733" lon="77.19467">
        <ele>3216.2</ele>
        <time>2015-09-01T03:31:46Z</time>
      </trkpt>
      <trkpt lat="34.02732" lon="77.19468">
        <ele>3216.2</ele>
        <time>2015-09-01T03:31:47Z</time>
      </trkpt>
      <trkpt lat="34.0273" lon="77.19474">
        <ele>3216</ele>
        <time>2015-09-01T03:31:52Z</time>
      </trkpt>
      <trkpt lat="34.0272" lon="77.19492">
        <ele>3216</ele>
        <time>2015-09-01T03:32:17Z</time>
      </trkpt>
      <trkpt lat="34.0272" lon="77.19496">
        <ele>3215.8</ele>
        <time>2015-09-01T03:32:21Z</time>
      </trkpt>
      <trkpt lat="34.02717" lon="77.19492">
        <ele>3215.6</ele>
        <time>2015-09-01T03:32:48Z</time>
      </trkpt>
      <trkpt lat="34.02716" lon="77.19492">
        <ele>3215.8</ele>
        <time>2015-09-01T03:32:51Z</time>
      </trkpt>
      <trkpt lat="34.02713" lon="77.19488">
        <ele>3216.2</ele>
        <time>2015-09-01T03:32:56Z</time>
      </trkpt>
      <trkpt lat="34.02709" lon="77.19491">
        <ele>3216</ele>
        <time>2015-09-01T03:32:59Z</time>
      </trkpt>
      <trkpt lat="34.02697" lon="77.19507">
        <ele>3215.4</ele>
        <time>2015-09-01T03:33:12Z</time>
      </trkpt>
      <trkpt lat="34.02681" lon="77.19521">
        <ele>3215.2</ele>
        <time>2015-09-01T03:33:31Z</time>
      </trkpt>
      <trkpt lat="34.02675" lon="77.19529">
        <ele>3214.8</ele>
        <time>2015-09-01T03:33:39Z</time>
      </trkpt>
      <trkpt lat="34.02672" lon="77.19534">
        <ele>3214.8</ele>
        <time>2015-09-01T03:33:43Z</time>
      </trkpt>
      <trkpt lat="34.02659" lon="77.1955">
        <ele>3215</ele>
        <time>2015-09-01T03:33:57Z</time>
      </trkpt>
      <trkpt lat="34.02649" lon="77.1957">
        <ele>3214.4</ele>
        <time>2015-09-01T03:34:12Z</time>
      </trkpt>
      <trkpt lat="34.02645" lon="77.19578">
        <ele>3214.2</ele>
        <time>2015-09-01T03:34:17Z</time>
      </trkpt>
      <trkpt lat="34.02636" lon="77.19596">
        <ele>3214</ele>
        <time>2015-09-01T03:34:36Z</time>
      </trkpt>
      <trkpt lat="34.02625" lon="77.19614">
        <ele>3213.6</ele>
        <time>2015-09-01T03:34:50Z</time>
      </trkpt>
      <trkpt lat="34.02613" lon="77.19625">
        <ele>3213.2</ele>
        <time>2015-09-01T03:35:04Z</time>
      </trkpt>
      <trkpt lat="34.02606" lon="77.19647">
        <ele>3212.8</ele>
        <time>2015-09-01T03:35:17Z</time>
      </trkpt>
      <trkpt lat="34.02595" lon="77.19659">
        <ele>3213.2</ele>
        <time>2015-09-01T03:35:30Z</time>
      </trkpt>
      <trkpt lat="34.02596" lon="77.19651">
        <ele>3213.4</ele>
        <time>2015-09-01T03:35:34Z</time>
      </trkpt>
      <trkpt lat="34.02599" lon="77.1964">
        <ele>3213.6</ele>
        <time>2015-09-01T03:35:36Z</time>
      </trkpt>
      <trkpt lat="34.02593" lon="77.19645">
        <ele>3213.6</ele>
        <time>2015-09-01T03:35:39Z</time>
      </trkpt>
      <trkpt lat="34.02589" lon="77.19653">
        <ele>3213.6</ele>
        <time>2015-09-01T03:35:41Z</time>
      </trkpt>
      <trkpt lat="34.02573" lon="77.19667">
        <ele>3213.2</ele>
        <time>2015-09-01T03:35:49Z</time>
      </trkpt>
      <trkpt lat="34.02556" lon="77.19676">
        <ele>3213.2</ele>
        <time>2015-09-01T03:36:00Z</time>
      </trkpt>
      <trkpt lat="34.02544" lon="77.19683">
        <ele>3212.2</ele>
        <time>2015-09-01T03:36:10Z</time>
      </trkpt>
      <trkpt lat="34.02531" lon="77.19693">
        <ele>3211.2</ele>
        <time>2015-09-01T03:36:23Z</time>
      </trkpt>
      <trkpt lat="34.02513" lon="77.19698">
        <ele>3210.2</ele>
        <time>2015-09-01T03:36:39Z</time>
      </trkpt>
      <trkpt lat="34.02495" lon="77.19705">
        <ele>3209.4</ele>
        <time>2015-09-01T03:36:53Z</time>
      </trkpt>
      <trkpt lat="34.0249" lon="77.19705">
        <ele>3209</ele>
        <time>2015-09-01T03:36:59Z</time>
      </trkpt>
      <trkpt lat="34.02489" lon="77.19706">
        <ele>3208.8</ele>
        <time>2015-09-01T03:37:00Z</time>
      </trkpt>
      <trkpt lat="34.02488" lon="77.19708">
        <ele>3208.6</ele>
        <time>2015-09-01T03:37:02Z</time>
      </trkpt>
      <trkpt lat="34.02487" lon="77.1971">
        <ele>3208.6</ele>
        <time>2015-09-01T03:37:04Z</time>
      </trkpt>
      <trkpt lat="34.02485" lon="77.19712">
        <ele>3208.8</ele>
        <time>2015-09-01T03:37:06Z</time>
      </trkpt>
      <trkpt lat="34.02482" lon="77.19717">
        <ele>3208.6</ele>
        <time>2015-09-01T03:37:14Z</time>
      </trkpt>
      <trkpt lat="34.02464" lon="77.19718">
        <ele>3208.8</ele>
        <time>2015-09-01T03:37:41Z</time>
      </trkpt>
      <trkpt lat="34.0245" lon="77.19725">
        <ele>3208.4</ele>
        <time>2015-09-01T03:37:53Z</time>
      </trkpt>
      <trkpt lat="34.02433" lon="77.19731">
        <ele>3208.2</ele>
        <time>2015-09-01T03:38:09Z</time>
      </trkpt>
      <trkpt lat="34.02414" lon="77.19737">
        <ele>3208.2</ele>
        <time>2015-09-01T03:38:25Z</time>
      </trkpt>
      <trkpt lat="34.02395" lon="77.19742">
        <ele>3208.2</ele>
        <time>2015-09-01T03:38:43Z</time>
      </trkpt>
      <trkpt lat="34.02379" lon="77.19753">
        <ele>3208.2</ele>
        <time>2015-09-01T03:38:57Z</time>
      </trkpt>
      <trkpt lat="34.02361" lon="77.19759">
        <ele>3208.4</ele>
        <time>2015-09-01T03:39:13Z</time>
      </trkpt>
      <trkpt lat="34.02345" lon="77.19755">
        <ele>3208.4</ele>
        <time>2015-09-01T03:39:26Z</time>
      </trkpt>
      <trkpt lat="34.02327" lon="77.19757">
        <ele>3208</ele>
        <time>2015-09-01T03:39:43Z</time>
      </trkpt>
      <trkpt lat="34.02324" lon="77.19756">
        <ele>3208</ele>
        <time>2015-09-01T03:39:45Z</time>
      </trkpt>
      <trkpt lat="34.02314" lon="77.19762">
        <ele>3207.4</ele>
        <time>2015-09-01T03:39:53Z</time>
      </trkpt>
      <trkpt lat="34.02297" lon="77.19767">
        <ele>3207.2</ele>
        <time>2015-09-01T03:40:07Z</time>
      </trkpt>
      <trkpt lat="34.02285" lon="77.19767">
        <ele>3206.8</ele>
        <time>2015-09-01T03:40:16Z</time>
      </trkpt>
      <trkpt lat="34.02268" lon="77.19772">
        <ele>3206.6</ele>
        <time>2015-09-01T03:40:31Z</time>
      </trkpt>
      <trkpt lat="34.02252" lon="77.19772">
        <ele>3205.8</ele>
        <time>2015-09-01T03:40:44Z</time>
      </trkpt>
      <trkpt lat="34.02234" lon="77.19775">
        <ele>3205.2</ele>
        <time>2015-09-01T03:41:00Z</time>
      </trkpt>
      <trkpt lat="34.02223" lon="77.19773">
        <ele>3204.8</ele>
        <time>2015-09-01T03:41:08Z</time>
      </trkpt>
      <trkpt lat="34.02206" lon="77.19781">
        <ele>3204</ele>
        <time>2015-09-01T03:41:21Z</time>
      </trkpt>
      <trkpt lat="34.02188" lon="77.19781">
        <ele>3203.8</ele>
        <time>2015-09-01T03:41:36Z</time>
      </trkpt>
      <trkpt lat="34.0217" lon="77.1979">
        <ele>3204.4</ele>
        <time>2015-09-01T03:41:53Z</time>
      </trkpt>
      <trkpt lat="34.02164" lon="77.19791">
        <ele>3204.8</ele>
        <time>2015-09-01T03:42:02Z</time>
      </trkpt>
      <trkpt lat="34.02164" lon="77.19792">
        <ele>3204.8</ele>
        <time>2015-09-01T03:42:37Z</time>
      </trkpt>
      <trkpt lat="34.0216" lon="77.19785">
        <ele>3204.8</ele>
        <time>2015-09-01T03:42:45Z</time>
      </trkpt>
      <trkpt lat="34.02147" lon="77.19785">
        <ele>3205</ele>
        <time>2015-09-01T03:42:57Z</time>
      </trkpt>
      <trkpt lat="34.02145" lon="77.19787">
        <ele>3205.2</ele>
        <time>2015-09-01T03:42:59Z</time>
      </trkpt>
      <trkpt lat="34.02129" lon="77.19798">
        <ele>3205.4</ele>
        <time>2015-09-01T03:43:12Z</time>
      </trkpt>
      <trkpt lat="34.02112" lon="77.19806">
        <ele>3205.8</ele>
        <time>2015-09-01T03:43:27Z</time>
      </trkpt>
      <trkpt lat="34.0211" lon="77.19805">
        <ele>3205.8</ele>
        <time>2015-09-01T03:43:29Z</time>
      </trkpt>
      <trkpt lat="34.02093" lon="77.19796">
        <ele>3206.4</ele>
        <time>2015-09-01T03:43:45Z</time>
      </trkpt>
      <trkpt lat="34.02075" lon="77.19804">
        <ele>3206.6</ele>
        <time>2015-09-01T03:44:02Z</time>
      </trkpt>
      <trkpt lat="34.02068" lon="77.19805">
        <ele>3206.8</ele>
        <time>2015-09-01T03:44:07Z</time>
      </trkpt>
      <trkpt lat="34.02061" lon="77.19806">
        <ele>3207</ele>
        <time>2015-09-01T03:44:13Z</time>
      </trkpt>
      <trkpt lat="34.02046" lon="77.19804">
        <ele>3207.2</ele>
        <time>2015-09-01T03:44:23Z</time>
      </trkpt>
      <trkpt lat="34.0203" lon="77.19815">
        <ele>3207.4</ele>
        <time>2015-09-01T03:44:36Z</time>
      </trkpt>
      <trkpt lat="34.02012" lon="77.19821">
        <ele>3207.2</ele>
        <time>2015-09-01T03:44:50Z</time>
      </trkpt>
      <trkpt lat="34.01993" lon="77.19816">
        <ele>3207.4</ele>
        <time>2015-09-01T03:45:09Z</time>
      </trkpt>
      <trkpt lat="34.01975" lon="77.19819">
        <ele>3207.6</ele>
        <time>2015-09-01T03:45:22Z</time>
      </trkpt>
      <trkpt lat="34.01957" lon="77.19824">
        <ele>3207.6</ele>
        <time>2015-09-01T03:45:35Z</time>
      </trkpt>
      <trkpt lat="34.01939" lon="77.19825">
        <ele>3207.4</ele>
        <time>2015-09-01T03:45:52Z</time>
      </trkpt>
      <trkpt lat="34.01921" lon="77.19827">
        <ele>3207.4</ele>
        <time>2015-09-01T03:46:10Z</time>
      </trkpt>
      <trkpt lat="34.01904" lon="77.19839">
        <ele>3207.2</ele>
        <time>2015-09-01T03:46:22Z</time>
      </trkpt>
      <trkpt lat="34.01888" lon="77.19848">
        <ele>3207.4</ele>
        <time>2015-09-01T03:46:35Z</time>
      </trkpt>
      <trkpt lat="34.01872" lon="77.19861">
        <ele>3207.2</ele>
        <time>2015-09-01T03:46:50Z</time>
      </trkpt>
      <trkpt lat="34.01866" lon="77.19867">
        <ele>3207.2</ele>
        <time>2015-09-01T03:46:56Z</time>
      </trkpt>
      <trkpt lat="34.0185" lon="77.19878">
        <ele>3207</ele>
        <time>2015-09-01T03:47:11Z</time>
      </trkpt>
      <trkpt lat="34.01833" lon="77.19888">
        <ele>3207.6</ele>
        <time>2015-09-01T03:47:27Z</time>
      </trkpt>
      <trkpt lat="34.01818" lon="77.19903">
        <ele>3207.6</ele>
        <time>2015-09-01T03:47:41Z</time>
      </trkpt>
      <trkpt lat="34.01805" lon="77.19919">
        <ele>3207.2</ele>
        <time>2015-09-01T03:47:55Z</time>
      </trkpt>
      <trkpt lat="34.01795" lon="77.19938">
        <ele>3207</ele>
        <time>2015-09-01T03:48:04Z</time>
      </trkpt>
      <trkpt lat="34.01783" lon="77.19955">
        <ele>3206.8</ele>
        <time>2015-09-01T03:48:15Z</time>
      </trkpt>
      <trkpt lat="34.01771" lon="77.19955">
        <ele>3206.8</ele>
        <time>2015-09-01T03:48:31Z</time>
      </trkpt>
      <trkpt lat="34.01759" lon="77.19971">
        <ele>3206.6</ele>
        <time>2015-09-01T03:48:43Z</time>
      </trkpt>
      <trkpt lat="34.01745" lon="77.19986">
        <ele>3206.8</ele>
        <time>2015-09-01T03:48:56Z</time>
      </trkpt>
      <trkpt lat="34.0173" lon="77.19999">
        <ele>3207</ele>
        <time>2015-09-01T03:49:11Z</time>
      </trkpt>
      <trkpt lat="34.01715" lon="77.20011">
        <ele>3206.6</ele>
        <time>2015-09-01T03:49:28Z</time>
      </trkpt>
      <trkpt lat="34.01701" lon="77.20024">
        <ele>3206.4</ele>
        <time>2015-09-01T03:49:43Z</time>
      </trkpt>
      <trkpt lat="34.01695" lon="77.20033">
        <ele>3205.8</ele>
        <time>2015-09-01T03:49:50Z</time>
      </trkpt>
      <trkpt lat="34.01682" lon="77.20048">
        <ele>3205.6</ele>
        <time>2015-09-01T03:50:05Z</time>
      </trkpt>
      <trkpt lat="34.01668" lon="77.20063">
        <ele>3206</ele>
        <time>2015-09-01T03:50:18Z</time>
      </trkpt>
      <trkpt lat="34.0165" lon="77.20072">
        <ele>3205.6</ele>
        <time>2015-09-01T03:50:40Z</time>
      </trkpt>
      <trkpt lat="34.01646" lon="77.20073">
        <ele>3205.4</ele>
        <time>2015-09-01T03:50:44Z</time>
      </trkpt>
      <trkpt lat="34.01632" lon="77.20087">
        <ele>3205.4</ele>
        <time>2015-09-01T03:50:59Z</time>
      </trkpt>
      <trkpt lat="34.01625" lon="77.20108">
        <ele>3205.4</ele>
        <time>2015-09-01T03:51:04Z</time>
      </trkpt>
      <trkpt lat="34.01615" lon="77.20127">
        <ele>3205.4</ele>
        <time>2015-09-01T03:51:12Z</time>
      </trkpt>
      <trkpt lat="34.01603" lon="77.20141">
        <ele>3205.4</ele>
        <time>2015-09-01T03:51:29Z</time>
      </trkpt>
      <trkpt lat="34.01592" lon="77.2015">
        <ele>3205.4</ele>
        <time>2015-09-01T03:51:43Z</time>
      </trkpt>
      <trkpt lat="34.01587" lon="77.20153">
        <ele>3205.4</ele>
        <time>2015-09-01T03:51:48Z</time>
      </trkpt>
      <trkpt lat="34.01569" lon="77.20162">
        <ele>3205.6</ele>
        <time>2015-09-01T03:52:06Z</time>
      </trkpt>
      <trkpt lat="34.01553" lon="77.20173">
        <ele>3205.8</ele>
        <time>2015-09-01T03:52:20Z</time>
      </trkpt>
      <trkpt lat="34.01544" lon="77.20172">
        <ele>3205.8</ele>
        <time>2015-09-01T03:52:30Z</time>
      </trkpt>
      <trkpt lat="34.01542" lon="77.20172">
        <ele>3205.8</ele>
        <time>2015-09-01T03:52:32Z</time>
      </trkpt>
      <trkpt lat="34.01533" lon="77.20173">
        <ele>3205.6</ele>
        <time>2015-09-01T03:52:39Z</time>
      </trkpt>
      <trkpt lat="34.0152" lon="77.20185">
        <ele>3205.4</ele>
        <time>2015-09-01T03:52:47Z</time>
      </trkpt>
      <trkpt lat="34.01502" lon="77.20192">
        <ele>3205.8</ele>
        <time>2015-09-01T03:53:02Z</time>
      </trkpt>
      <trkpt lat="34.01486" lon="77.20181">
        <ele>3205.2</ele>
        <time>2015-09-01T03:53:18Z</time>
      </trkpt>
      <trkpt lat="34.01474" lon="77.20164">
        <ele>3204.8</ele>
        <time>2015-09-01T03:53:30Z</time>
      </trkpt>
      <trkpt lat="34.01473" lon="77.20164">
        <ele>3204.6</ele>
        <time>2015-09-01T03:53:31Z</time>
      </trkpt>
      <trkpt lat="34.01451" lon="77.20163">
        <ele>3204.4</ele>
        <time>2015-09-01T03:53:44Z</time>
      </trkpt>
      <trkpt lat="34.01436" lon="77.20161">
        <ele>3204.8</ele>
        <time>2015-09-01T03:53:55Z</time>
      </trkpt>
      <trkpt lat="34.01417" lon="77.20167">
        <ele>3205.4</ele>
        <time>2015-09-01T03:54:09Z</time>
      </trkpt>
      <trkpt lat="34.01413" lon="77.2017">
        <ele>3205.8</ele>
        <time>2015-09-01T03:54:13Z</time>
      </trkpt>
      <trkpt lat="34.01397" lon="77.20182">
        <ele>3206.2</ele>
        <time>2015-09-01T03:54:25Z</time>
      </trkpt>
      <trkpt lat="34.01389" lon="77.20183">
        <ele>3206.8</ele>
        <time>2015-09-01T03:54:32Z</time>
      </trkpt>
      <trkpt lat="34.01382" lon="77.20181">
        <ele>3207</ele>
        <time>2015-09-01T03:54:38Z</time>
      </trkpt>
      <trkpt lat="34.01379" lon="77.20179">
        <ele>3207</ele>
        <time>2015-09-01T03:54:40Z</time>
      </trkpt>
      <trkpt lat="34.01363" lon="77.20165">
        <ele>3207</ele>
        <time>2015-09-01T03:54:54Z</time>
      </trkpt>
      <trkpt lat="34.01357" lon="77.20164">
        <ele>3207</ele>
        <time>2015-09-01T03:54:59Z</time>
      </trkpt>
      <trkpt lat="34.01355" lon="77.20164">
        <ele>3207</ele>
        <time>2015-09-01T03:55:01Z</time>
      </trkpt>
      <trkpt lat="34.01342" lon="77.2016">
        <ele>3207</ele>
        <time>2015-09-01T03:55:10Z</time>
      </trkpt>
      <trkpt lat="34.01325" lon="77.20172">
        <ele>3206.8</ele>
        <time>2015-09-01T03:55:24Z</time>
      </trkpt>
      <trkpt lat="34.01313" lon="77.20182">
        <ele>3206.8</ele>
        <time>2015-09-01T03:55:34Z</time>
      </trkpt>
      <trkpt lat="34.01298" lon="77.20199">
        <ele>3206.8</ele>
        <time>2015-09-01T03:55:48Z</time>
      </trkpt>
      <trkpt lat="34.0129" lon="77.2022">
        <ele>3206.8</ele>
        <time>2015-09-01T03:55:57Z</time>
      </trkpt>
      <trkpt lat="34.01272" lon="77.2023">
        <ele>3207</ele>
        <time>2015-09-01T03:56:15Z</time>
      </trkpt>
      <trkpt lat="34.01256" lon="77.20237">
        <ele>3206.8</ele>
        <time>2015-09-01T03:56:29Z</time>
      </trkpt>
      <trkpt lat="34.01247" lon="77.20242">
        <ele>3207</ele>
        <time>2015-09-01T03:56:36Z</time>
      </trkpt>
      <trkpt lat="34.01245" lon="77.20243">
        <ele>3207.2</ele>
        <time>2015-09-01T03:56:38Z</time>
      </trkpt>
      <trkpt lat="34.01239" lon="77.20246">
        <ele>3207.8</ele>
        <time>2015-09-01T03:56:43Z</time>
      </trkpt>
      <trkpt lat="34.0123" lon="77.20245">
        <ele>3208.2</ele>
        <time>2015-09-01T03:56:49Z</time>
      </trkpt>
      <trkpt lat="34.01226" lon="77.20245">
        <ele>3208.2</ele>
        <time>2015-09-01T03:56:53Z</time>
      </trkpt>
      <trkpt lat="34.01223" lon="77.20244">
        <ele>3208.4</ele>
        <time>2015-09-01T03:56:57Z</time>
      </trkpt>
      <trkpt lat="34.01213" lon="77.2025">
        <ele>3208.6</ele>
        <time>2015-09-01T03:57:04Z</time>
      </trkpt>
      <trkpt lat="34.0121" lon="77.20252">
        <ele>3208.8</ele>
        <time>2015-09-01T03:57:07Z</time>
      </trkpt>
      <trkpt lat="34.01205" lon="77.20256">
        <ele>3208.8</ele>
        <time>2015-09-01T03:57:11Z</time>
      </trkpt>
      <trkpt lat="34.01186" lon="77.20253">
        <ele>3209</ele>
        <time>2015-09-01T03:57:27Z</time>
      </trkpt>
      <trkpt lat="34.01179" lon="77.20252">
        <ele>3209.4</ele>
        <time>2015-09-01T03:57:35Z</time>
      </trkpt>
      <trkpt lat="34.01175" lon="77.20252">
        <ele>3209.2</ele>
        <time>2015-09-01T03:57:38Z</time>
      </trkpt>
      <trkpt lat="34.01171" lon="77.20251">
        <ele>3209</ele>
        <time>2015-09-01T03:57:41Z</time>
      </trkpt>
      <trkpt lat="34.01167" lon="77.20255">
        <ele>3209.2</ele>
        <time>2015-09-01T03:57:45Z</time>
      </trkpt>
      <trkpt lat="34.01162" lon="77.2026">
        <ele>3209.4</ele>
        <time>2015-09-01T03:57:49Z</time>
      </trkpt>
      <trkpt lat="34.01155" lon="77.20268">
        <ele>3209.6</ele>
        <time>2015-09-01T03:57:55Z</time>
      </trkpt>
      <trkpt lat="34.01141" lon="77.20286">
        <ele>3209.8</ele>
        <time>2015-09-01T03:58:06Z</time>
      </trkpt>
      <trkpt lat="34.01138" lon="77.20289">
        <ele>3209.8</ele>
        <time>2015-09-01T03:58:09Z</time>
      </trkpt>
      <trkpt lat="34.01126" lon="77.20293">
        <ele>3209.8</ele>
        <time>2015-09-01T03:58:26Z</time>
      </trkpt>
      <trkpt lat="34.01126" lon="77.20284">
        <ele>3209.8</ele>
        <time>2015-09-01T03:58:28Z</time>
      </trkpt>
      <trkpt lat="34.01117" lon="77.20308">
        <ele>3209.2</ele>
        <time>2015-09-01T03:58:44Z</time>
      </trkpt>
      <trkpt lat="34.01114" lon="77.20328">
        <ele>3209.4</ele>
        <time>2015-09-01T03:58:51Z</time>
      </trkpt>
      <trkpt lat="34.01108" lon="77.2035">
        <ele>3209.6</ele>
        <time>2015-09-01T03:58:59Z</time>
      </trkpt>
      <trkpt lat="34.01104" lon="77.20372">
        <ele>3209.6</ele>
        <time>2015-09-01T03:59:12Z</time>
      </trkpt>
      <trkpt lat="34.01102" lon="77.20379">
        <ele>3209.6</ele>
        <time>2015-09-01T03:59:18Z</time>
      </trkpt>
      <trkpt lat="34.011" lon="77.20401">
        <ele>3209</ele>
        <time>2015-09-01T03:59:34Z</time>
      </trkpt>
      <trkpt lat="34.01099" lon="77.20404">
        <ele>3209</ele>
        <time>2015-09-01T03:59:36Z</time>
      </trkpt>
      <trkpt lat="34.01098" lon="77.20407">
        <ele>3208.8</ele>
        <time>2015-09-01T03:59:38Z</time>
      </trkpt>
      <trkpt lat="34.0109" lon="77.20413">
        <ele>3208.2</ele>
        <time>2015-09-01T03:59:51Z</time>
      </trkpt>
      <trkpt lat="34.01087" lon="77.20419">
        <ele>3208</ele>
        <time>2015-09-01T03:59:55Z</time>
      </trkpt>
      <trkpt lat="34.01084" lon="77.20425">
        <ele>3207.6</ele>
        <time>2015-09-01T03:59:59Z</time>
      </trkpt>
      <trkpt lat="34.01073" lon="77.20444">
        <ele>3207.6</ele>
        <time>2015-09-01T04:00:13Z</time>
      </trkpt>
      <trkpt lat="34.01063" lon="77.20463">
        <ele>3207.2</ele>
        <time>2015-09-01T04:00:27Z</time>
      </trkpt>
      <trkpt lat="34.01052" lon="77.2048">
        <ele>3207.4</ele>
        <time>2015-09-01T04:00:42Z</time>
      </trkpt>
      <trkpt lat="34.01048" lon="77.20484">
        <ele>3206.8</ele>
        <time>2015-09-01T04:00:47Z</time>
      </trkpt>
      <trkpt lat="34.01047" lon="77.20484">
        <ele>3206.6</ele>
        <time>2015-09-01T04:00:48Z</time>
      </trkpt>
      <trkpt lat="34.01045" lon="77.20486">
        <ele>3206.8</ele>
        <time>2015-09-01T04:00:50Z</time>
      </trkpt>
      <trkpt lat="34.01041" lon="77.20487">
        <ele>3206.8</ele>
        <time>2015-09-01T04:00:55Z</time>
      </trkpt>
      <trkpt lat="34.01027" lon="77.20501">
        <ele>3206.2</ele>
        <time>2015-09-01T04:01:11Z</time>
      </trkpt>
      <trkpt lat="34.01012" lon="77.20515">
        <ele>3206.4</ele>
        <time>2015-09-01T04:01:26Z</time>
      </trkpt>
      <trkpt lat="34.0101" lon="77.20519">
        <ele>3206.4</ele>
        <time>2015-09-01T04:01:29Z</time>
      </trkpt>
      <trkpt lat="34.01006" lon="77.20525">
        <ele>3206.4</ele>
        <time>2015-09-01T04:01:35Z</time>
      </trkpt>
      <trkpt lat="34.00997" lon="77.20532">
        <ele>3206</ele>
        <time>2015-09-01T04:01:46Z</time>
      </trkpt>
      <trkpt lat="34.00984" lon="77.20549">
        <ele>3205.8</ele>
        <time>2015-09-01T04:02:02Z</time>
      </trkpt>
      <trkpt lat="34.00983" lon="77.2055">
        <ele>3205.6</ele>
        <time>2015-09-01T04:02:03Z</time>
      </trkpt>
      <trkpt lat="34.00977" lon="77.20568">
        <ele>3205.4</ele>
        <time>2015-09-01T04:02:15Z</time>
      </trkpt>
      <trkpt lat="34.00975" lon="77.2058">
        <ele>3205.4</ele>
        <time>2015-09-01T04:02:18Z</time>
      </trkpt>
      <trkpt lat="34.00966" lon="77.20599">
        <ele>3205.6</ele>
        <time>2015-09-01T04:02:28Z</time>
      </trkpt>
      <trkpt lat="34.00957" lon="77.20598">
        <ele>3206.2</ele>
        <time>2015-09-01T04:02:41Z</time>
      </trkpt>
      <trkpt lat="34.00955" lon="77.20599">
        <ele>3206</ele>
        <time>2015-09-01T04:02:46Z</time>
      </trkpt>
      <trkpt lat="34.00955" lon="77.20587">
        <ele>3206</ele>
        <time>2015-09-01T04:02:50Z</time>
      </trkpt>
      <trkpt lat="34.00959" lon="77.20585">
        <ele>3204.6</ele>
        <time>2015-09-01T04:03:05Z</time>
      </trkpt>
      <trkpt lat="34.00959" lon="77.20588">
        <ele>3204.4</ele>
        <time>2015-09-01T04:03:08Z</time>
      </trkpt>
      <trkpt lat="34.00958" lon="77.20591">
        <ele>3204.4</ele>
        <time>2015-09-01T04:03:09Z</time>
      </trkpt>
      <trkpt lat="34.00956" lon="77.206">
        <ele>3204.2</ele>
        <time>2015-09-01T04:03:12Z</time>
      </trkpt>
      <trkpt lat="34.00955" lon="77.20601">
        <ele>3204</ele>
        <time>2015-09-01T04:03:14Z</time>
      </trkpt>
      <trkpt lat="34.00955" lon="77.20602">
        <ele>3203.8</ele>
        <time>2015-09-01T04:03:16Z</time>
      </trkpt>
      <trkpt lat="34.00951" lon="77.20607">
        <ele>3203.6</ele>
        <time>2015-09-01T04:03:21Z</time>
      </trkpt>
      <trkpt lat="34.00948" lon="77.20621">
        <ele>3203.4</ele>
        <time>2015-09-01T04:03:24Z</time>
      </trkpt>
      <trkpt lat="34.00942" lon="77.20633">
        <ele>3203.2</ele>
        <time>2015-09-01T04:03:30Z</time>
      </trkpt>
      <trkpt lat="34.00938" lon="77.20636">
        <ele>3203</ele>
        <time>2015-09-01T04:03:33Z</time>
      </trkpt>
      <trkpt lat="34.0093" lon="77.20642">
        <ele>3203</ele>
        <time>2015-09-01T04:03:41Z</time>
      </trkpt>
      <trkpt lat="34.00927" lon="77.20645">
        <ele>3202.6</ele>
        <time>2015-09-01T04:03:45Z</time>
      </trkpt>
      <trkpt lat="34.00922" lon="77.20645">
        <ele>3201.4</ele>
        <time>2015-09-01T04:03:50Z</time>
      </trkpt>
      <trkpt lat="34.00907" lon="77.20661">
        <ele>3200.6</ele>
        <time>2015-09-01T04:04:04Z</time>
      </trkpt>
      <trkpt lat="34.00902" lon="77.20662">
        <ele>3200.4</ele>
        <time>2015-09-01T04:04:08Z</time>
      </trkpt>
      <trkpt lat="34.00889" lon="77.20666">
        <ele>3199.6</ele>
        <time>2015-09-01T04:04:24Z</time>
      </trkpt>
      <trkpt lat="34.00888" lon="77.20668">
        <ele>3199.2</ele>
        <time>2015-09-01T04:04:26Z</time>
      </trkpt>
      <trkpt lat="34.00882" lon="77.20668">
        <ele>3198</ele>
        <time>2015-09-01T04:04:34Z</time>
      </trkpt>
      <trkpt lat="34.0088" lon="77.20672">
        <ele>3198</ele>
        <time>2015-09-01T04:04:38Z</time>
      </trkpt>
      <trkpt lat="34.00876" lon="77.20659">
        <ele>3198.2</ele>
        <time>2015-09-01T04:04:44Z</time>
      </trkpt>
      <trkpt lat="34.00867" lon="77.20664">
        <ele>3198</ele>
        <time>2015-09-01T04:04:53Z</time>
      </trkpt>
      <trkpt lat="34.00865" lon="77.20658">
        <ele>3197.6</ele>
        <time>2015-09-01T04:05:01Z</time>
      </trkpt>
      <trkpt lat="34.00862" lon="77.20663">
        <ele>3197.4</ele>
        <time>2015-09-01T04:05:06Z</time>
      </trkpt>
      <trkpt lat="34.00858" lon="77.20673">
        <ele>3197.8</ele>
        <time>2015-09-01T04:05:14Z</time>
      </trkpt>
      <trkpt lat="34.00857" lon="77.20672">
        <ele>3198.2</ele>
        <time>2015-09-01T04:05:16Z</time>
      </trkpt>
      <trkpt lat="34.00856" lon="77.20678">
        <ele>3198.2</ele>
        <time>2015-09-01T04:05:20Z</time>
      </trkpt>
      <trkpt lat="34.00857" lon="77.20678">
        <ele>3198</ele>
        <time>2015-09-01T04:05:23Z</time>
      </trkpt>
      <trkpt lat="34.00857" lon="77.2068">
        <ele>3197.8</ele>
        <time>2015-09-01T04:05:24Z</time>
      </trkpt>
      <trkpt lat="34.00856" lon="77.20682">
        <ele>3197.6</ele>
        <time>2015-09-01T04:05:26Z</time>
      </trkpt>
      <trkpt lat="34.00855" lon="77.20684">
        <ele>3197.6</ele>
        <time>2015-09-01T04:05:28Z</time>
      </trkpt>
      <trkpt lat="34.00854" lon="77.20705">
        <ele>3197.8</ele>
        <time>2015-09-01T04:06:07Z</time>
      </trkpt>
      <trkpt lat="34.00855" lon="77.20693">
        <ele>3198.4</ele>
        <time>2015-09-01T04:07:05Z</time>
      </trkpt>
      <trkpt lat="34.00856" lon="77.20708">
        <ele>3198.8</ele>
        <time>2015-09-01T04:07:25Z</time>
      </trkpt>
      <trkpt lat="34.00854" lon="77.20703">
        <ele>3198.8</ele>
        <time>2015-09-01T04:07:39Z</time>
      </trkpt>
      <trkpt lat="34.00855" lon="77.20699">
        <ele>3199</ele>
        <time>2015-09-01T04:07:58Z</time>
      </trkpt>
      <trkpt lat="34.00858" lon="77.20684">
        <ele>3199.2</ele>
        <time>2015-09-01T04:08:23Z</time>
      </trkpt>
      <trkpt lat="34.0086" lon="77.20698">
        <ele>3199</ele>
        <time>2015-09-01T04:08:51Z</time>
      </trkpt>
      <trkpt lat="34.00857" lon="77.20708">
        <ele>3199.2</ele>
        <time>2015-09-01T04:09:06Z</time>
      </trkpt>
      <trkpt lat="34.00858" lon="77.20703">
        <ele>3199.2</ele>
        <time>2015-09-01T04:09:09Z</time>
      </trkpt>
      <trkpt lat="34.00861" lon="77.20691">
        <ele>3199.2</ele>
        <time>2015-09-01T04:09:17Z</time>
      </trkpt>
      <trkpt lat="34.00861" lon="77.20694">
        <ele>3199.2</ele>
        <time>2015-09-01T04:09:20Z</time>
      </trkpt>
      <trkpt lat="34.00857" lon="77.20703">
        <ele>3199.6</ele>
        <time>2015-09-01T04:10:03Z</time>
      </trkpt>
      <trkpt lat="34.0086" lon="77.2071">
        <ele>3199.6</ele>
        <time>2015-09-01T04:10:07Z</time>
      </trkpt>
      <trkpt lat="34.00857" lon="77.20712">
        <ele>3200.2</ele>
        <time>2015-09-01T04:10:20Z</time>
      </trkpt>
      <trkpt lat="34.00859" lon="77.20711">
        <ele>3200.2</ele>
        <time>2015-09-01T04:10:21Z</time>
      </trkpt>
      <trkpt lat="34.00859" lon="77.20696">
        <ele>3200.2</ele>
        <time>2015-09-01T04:10:23Z</time>
      </trkpt>
      <trkpt lat="34.00858" lon="77.20696">
        <ele>3200.4</ele>
        <time>2015-09-01T04:10:25Z</time>
      </trkpt>
      <trkpt lat="34.00856" lon="77.2069">
        <ele>3200.6</ele>
        <time>2015-09-01T04:10:30Z</time>
      </trkpt>
      <trkpt lat="34.00855" lon="77.20685">
        <ele>3200.8</ele>
        <time>2015-09-01T04:10:33Z</time>
      </trkpt>
      <trkpt lat="34.00854" lon="77.20683">
        <ele>3200.8</ele>
        <time>2015-09-01T04:10:35Z</time>
      </trkpt>
      <trkpt lat="34.00854" lon="77.20679">
        <ele>3201.4</ele>
        <time>2015-09-01T04:10:39Z</time>
      </trkpt>
      <trkpt lat="34.00852" lon="77.2069">
        <ele>3202.2</ele>
        <time>2015-09-01T04:11:22Z</time>
      </trkpt>
      <trkpt lat="34.00852" lon="77.20689">
        <ele>3202.4</ele>
        <time>2015-09-01T04:11:25Z</time>
      </trkpt>
      <trkpt lat="34.00857" lon="77.20681">
        <ele>3201.6</ele>
        <time>2015-09-01T04:11:35Z</time>
      </trkpt>
      <trkpt lat="34.00858" lon="77.20681">
        <ele>3201.6</ele>
        <time>2015-09-01T04:11:37Z</time>
      </trkpt>
      <trkpt lat="34.00856" lon="77.20683">
        <ele>3201.2</ele>
        <time>2015-09-01T04:12:02Z</time>
      </trkpt>
      <trkpt lat="34.00852" lon="77.2069">
        <ele>3201.8</ele>
        <time>2015-09-01T04:12:15Z</time>
      </trkpt>
      <trkpt lat="34.00848" lon="77.207">
        <ele>3201.2</ele>
        <time>2015-09-01T04:12:33Z</time>
      </trkpt>
      <trkpt lat="34.00849" lon="77.20695">
        <ele>3200.8</ele>
        <time>2015-09-01T04:12:36Z</time>
      </trkpt>
      <trkpt lat="34.00852" lon="77.20695">
        <ele>3200.2</ele>
        <time>2015-09-01T04:12:57Z</time>
      </trkpt>
      <trkpt lat="34.00859" lon="77.20687">
        <ele>3200.8</ele>
        <time>2015-09-01T04:13:14Z</time>
      </trkpt>
      <trkpt lat="34.00862" lon="77.20679">
        <ele>3200.4</ele>
        <time>2015-09-01T04:13:22Z</time>
      </trkpt>
      <trkpt lat="34.00857" lon="77.20682">
        <ele>3201</ele>
        <time>2015-09-01T04:13:26Z</time>
      </trkpt>
      <trkpt lat="34.00856" lon="77.20685">
        <ele>3201.2</ele>
        <time>2015-09-01T04:13:29Z</time>
      </trkpt>
      <trkpt lat="34.00855" lon="77.20685">
        <ele>3201.4</ele>
        <time>2015-09-01T04:13:30Z</time>
      </trkpt>
      <trkpt lat="34.00853" lon="77.20693">
        <ele>3202.4</ele>
        <time>2015-09-01T04:13:56Z</time>
      </trkpt>
      <trkpt lat="34.00855" lon="77.20696">
        <ele>3203</ele>
        <time>2015-09-01T04:14:34Z</time>
      </trkpt>
      <trkpt lat="34.00853" lon="77.20693">
        <ele>3203.2</ele>
        <time>2015-09-01T04:14:36Z</time>
      </trkpt>
      <trkpt lat="34.00849" lon="77.20693">
        <ele>3203.4</ele>
        <time>2015-09-01T04:15:19Z</time>
      </trkpt>
      <trkpt lat="34.00855" lon="77.20696">
        <ele>3203.4</ele>
        <time>2015-09-01T04:15:32Z</time>
      </trkpt>
      <trkpt lat="34.00853" lon="77.20694">
        <ele>3231</ele>
        <time>2015-09-01T04:15:54Z</time>
      </trkpt>
      <trkpt lat="34.00851" lon="77.20691">
        <ele>3203.2</ele>
        <time>2015-09-01T04:15:57Z</time>
      </trkpt>
      <trkpt lat="34.00852" lon="77.20692">
        <ele>3203.4</ele>
        <time>2015-09-01T04:16:09Z</time>
      </trkpt>
      <trkpt lat="34.0085" lon="77.20688">
        <ele>3203.8</ele>
        <time>2015-09-01T04:16:35Z</time>
      </trkpt>
      <trkpt lat="34.00851" lon="77.20686">
        <ele>3203.4</ele>
        <time>2015-09-01T04:17:20Z</time>
      </trkpt>
      <trkpt lat="34.0085" lon="77.20684">
        <ele>3204.2</ele>
        <time>2015-09-01T04:17:27Z</time>
      </trkpt>
      <trkpt lat="34.00852" lon="77.20704">
        <ele>3204.4</ele>
        <time>2015-09-01T04:17:47Z</time>
      </trkpt>
      <trkpt lat="34.00862" lon="77.20693">
        <ele>3203.8</ele>
        <time>2015-09-01T04:18:16Z</time>
      </trkpt>
      <trkpt lat="34.0085" lon="77.2069">
        <ele>3204.4</ele>
        <time>2015-09-01T04:18:35Z</time>
      </trkpt>
      <trkpt lat="34.00855" lon="77.20689">
        <ele>3204.4</ele>
        <time>2015-09-01T04:19:51Z</time>
      </trkpt>
      <trkpt lat="34.00856" lon="77.20692">
        <ele>3204.6</ele>
        <time>2015-09-01T04:20:05Z</time>
      </trkpt>
      <trkpt lat="34.00848" lon="77.20698">
        <ele>3204</ele>
        <time>2015-09-01T04:20:27Z</time>
      </trkpt>
      <trkpt lat="34.00847" lon="77.20699">
        <ele>3204</ele>
        <time>2015-09-01T04:20:29Z</time>
      </trkpt>
      <trkpt lat="34.00849" lon="77.20694">
        <ele>3203.6</ele>
        <time>2015-09-01T04:20:39Z</time>
      </trkpt>
      <trkpt lat="34.00849" lon="77.20693">
        <ele>3203.8</ele>
        <time>2015-09-01T04:20:53Z</time>
      </trkpt>
      <trkpt lat="34.0085" lon="77.20697">
        <ele>3203.8</ele>
        <time>2015-09-01T04:20:55Z</time>
      </trkpt>
      <trkpt lat="34.00849" lon="77.20696">
        <ele>3203.6</ele>
        <time>2015-09-01T04:20:58Z</time>
      </trkpt>
      <trkpt lat="34.00848" lon="77.207">
        <ele>3203.6</ele>
        <time>2015-09-01T04:21:00Z</time>
      </trkpt>
      <trkpt lat="34.00847" lon="77.20709">
        <ele>3203.8</ele>
        <time>2015-09-01T04:21:12Z</time>
      </trkpt>
      <trkpt lat="34.00846" lon="77.20705">
        <ele>3203.8</ele>
        <time>2015-09-01T04:21:15Z</time>
      </trkpt>
      <trkpt lat="34.0085" lon="77.20698">
        <ele>3203.2</ele>
        <time>2015-09-01T04:21:40Z</time>
      </trkpt>
      <trkpt lat="34.0086" lon="77.20687">
        <ele>3203.2</ele>
        <time>2015-09-01T04:22:03Z</time>
      </trkpt>
      <trkpt lat="34.00863" lon="77.207">
        <ele>3202.8</ele>
        <time>2015-09-01T04:22:30Z</time>
      </trkpt>
      <trkpt lat="34.00863" lon="77.20713">
        <ele>3202.8</ele>
        <time>2015-09-01T04:22:37Z</time>
      </trkpt>
      <trkpt lat="34.00865" lon="77.20711">
        <ele>3202.8</ele>
        <time>2015-09-01T04:22:39Z</time>
      </trkpt>
      <trkpt lat="34.00867" lon="77.20699">
        <ele>3202.6</ele>
        <time>2015-09-01T04:22:46Z</time>
      </trkpt>
      <trkpt lat="34.00866" lon="77.20699">
        <ele>3202.6</ele>
        <time>2015-09-01T04:22:48Z</time>
      </trkpt>
      <trkpt lat="34.00862" lon="77.20705">
        <ele>3202.8</ele>
        <time>2015-09-01T04:22:56Z</time>
      </trkpt>
      <trkpt lat="34.00859" lon="77.20714">
        <ele>3202.4</ele>
        <time>2015-09-01T04:23:04Z</time>
      </trkpt>
      <trkpt lat="34.00857" lon="77.20717">
        <ele>3202.6</ele>
        <time>2015-09-01T04:23:07Z</time>
      </trkpt>
      <trkpt lat="34.00859" lon="77.20713">
        <ele>3202.6</ele>
        <time>2015-09-01T04:23:12Z</time>
      </trkpt>
      <trkpt lat="34.00854" lon="77.20721">
        <ele>3203.2</ele>
        <time>2015-09-01T04:23:39Z</time>
      </trkpt>
      <trkpt lat="34.00852" lon="77.20716">
        <ele>3203.6</ele>
        <time>2015-09-01T04:23:48Z</time>
      </trkpt>
      <trkpt lat="34.00868" lon="77.20687">
        <ele>3203.4</ele>
        <time>2015-09-01T04:23:59Z</time>
      </trkpt>
      <trkpt lat="34.00868" lon="77.20693">
        <ele>3203.4</ele>
        <time>2015-09-01T04:24:01Z</time>
      </trkpt>
      <trkpt lat="34.00867" lon="77.20693">
        <ele>3203.2</ele>
        <time>2015-09-01T04:24:03Z</time>
      </trkpt>
      <trkpt lat="34.00868" lon="77.20696">
        <ele>3203.2</ele>
        <time>2015-09-01T04:24:12Z</time>
      </trkpt>
      <trkpt lat="34.00865" lon="77.20698">
        <ele>3203.2</ele>
        <time>2015-09-01T04:24:13Z</time>
      </trkpt>
      <trkpt lat="34.00842" lon="77.20724">
        <ele>3203.4</ele>
        <time>2015-09-01T04:24:27Z</time>
      </trkpt>
      <trkpt lat="34.00838" lon="77.20723">
        <ele>3203.6</ele>
        <time>2015-09-01T04:24:33Z</time>
      </trkpt>
      <trkpt lat="34.00848" lon="77.20699">
        <ele>3204.2</ele>
        <time>2015-09-01T04:25:01Z</time>
      </trkpt>
      <trkpt lat="34.0085" lon="77.20692">
        <ele>3204.2</ele>
        <time>2015-09-01T04:25:05Z</time>
      </trkpt>
      <trkpt lat="34.00857" lon="77.20686">
        <ele>3204.4</ele>
        <time>2015-09-01T04:25:28Z</time>
      </trkpt>
      <trkpt lat="34.00841" lon="77.20709">
        <ele>3204</ele>
        <time>2015-09-01T04:25:54Z</time>
      </trkpt>
      <trkpt lat="34.00844" lon="77.20702">
        <ele>3204.6</ele>
        <time>2015-09-01T04:26:39Z</time>
      </trkpt>
      <trkpt lat="34.00841" lon="77.20708">
        <ele>3205</ele>
        <time>2015-09-01T04:27:06Z</time>
      </trkpt>
      <trkpt lat="34.00832" lon="77.20716">
        <ele>3205.2</ele>
        <time>2015-09-01T04:27:20Z</time>
      </trkpt>
      <trkpt lat="34.00841" lon="77.20715">
        <ele>3205.6</ele>
        <time>2015-09-01T04:27:32Z</time>
      </trkpt>
      <trkpt lat="34.00844" lon="77.20717">
        <ele>3206.4</ele>
        <time>2015-09-01T04:27:39Z</time>
      </trkpt>
      <trkpt lat="34.00841" lon="77.20706">
        <ele>3206.8</ele>
        <time>2015-09-01T04:28:10Z</time>
      </trkpt>
      <trkpt lat="34.00846" lon="77.20711">
        <ele>3207</ele>
        <time>2015-09-01T04:28:18Z</time>
      </trkpt>
      <trkpt lat="34.00846" lon="77.20713">
        <ele>3207.4</ele>
        <time>2015-09-01T04:28:22Z</time>
      </trkpt>
      <trkpt lat="34.00842" lon="77.20707">
        <ele>3208</ele>
        <time>2015-09-01T04:28:45Z</time>
      </trkpt>
      <trkpt lat="34.00843" lon="77.20705">
        <ele>3208.4</ele>
        <time>2015-09-01T04:29:06Z</time>
      </trkpt>
      <trkpt lat="34.00842" lon="77.207">
        <ele>3208.6</ele>
        <time>2015-09-01T04:29:12Z</time>
      </trkpt>
      <trkpt lat="34.0084" lon="77.20697">
        <ele>3208.8</ele>
        <time>2015-09-01T04:29:15Z</time>
      </trkpt>
      <trkpt lat="34.00841" lon="77.20696">
        <ele>3209.2</ele>
        <time>2015-09-01T04:29:18Z</time>
      </trkpt>
      <trkpt lat="34.00843" lon="77.20702">
        <ele>3209</ele>
        <time>2015-09-01T04:29:22Z</time>
      </trkpt>
      <trkpt lat="34.00843" lon="77.20703">
        <ele>3208.8</ele>
        <time>2015-09-01T04:29:24Z</time>
      </trkpt>
      <trkpt lat="34.00854" lon="77.20702">
        <ele>3208.8</ele>
        <time>2015-09-01T04:30:18Z</time>
      </trkpt>
      <trkpt lat="34.00845" lon="77.20706">
        <ele>3209.2</ele>
        <time>2015-09-01T04:31:08Z</time>
      </trkpt>
      <trkpt lat="34.0084" lon="77.20707">
        <ele>3209.4</ele>
        <time>2015-09-01T04:31:40Z</time>
      </trkpt>
      <trkpt lat="34.00852" lon="77.207">
        <ele>3209.8</ele>
        <time>2015-09-01T04:31:56Z</time>
      </trkpt>
      <trkpt lat="34.00859" lon="77.20702">
        <ele>3209.8</ele>
        <time>2015-09-01T04:32:33Z</time>
      </trkpt>
      <trkpt lat="34.00848" lon="77.20707">
        <ele>3210</ele>
        <time>2015-09-01T04:33:01Z</time>
      </trkpt>
      <trkpt lat="34.0085" lon="77.20704">
        <ele>3210.4</ele>
        <time>2015-09-01T04:33:29Z</time>
      </trkpt>
      <trkpt lat="34.00846" lon="77.20704">
        <ele>3210.6</ele>
        <time>2015-09-01T04:33:33Z</time>
      </trkpt>
      <trkpt lat="34.00852" lon="77.20706">
        <ele>3211.2</ele>
        <time>2015-09-01T04:33:42Z</time>
      </trkpt>
      <trkpt lat="34.0085" lon="77.2071">
        <ele>3211.2</ele>
        <time>2015-09-01T04:33:46Z</time>
      </trkpt>
      <trkpt lat="34.00849" lon="77.20708">
        <ele>3211.4</ele>
        <time>2015-09-01T04:33:57Z</time>
      </trkpt>
      <trkpt lat="34.00849" lon="77.20706">
        <ele>3211.4</ele>
        <time>2015-09-01T04:34:00Z</time>
      </trkpt>
      <trkpt lat="34.00846" lon="77.20702">
        <ele>3211.6</ele>
        <time>2015-09-01T04:35:08Z</time>
      </trkpt>
      <trkpt lat="34.00845" lon="77.20705">
        <ele>3212.4</ele>
        <time>2015-09-01T04:36:03Z</time>
      </trkpt>
      <trkpt lat="34.00842" lon="77.20706">
        <ele>3212.4</ele>
        <time>2015-09-01T04:36:20Z</time>
      </trkpt>
      <trkpt lat="34.0085" lon="77.20706">
        <ele>3213</ele>
        <time>2015-09-01T04:36:26Z</time>
      </trkpt>
      <trkpt lat="34.0085" lon="77.20703">
        <ele>3213.4</ele>
        <time>2015-09-01T04:36:57Z</time>
      </trkpt>
      <trkpt lat="34.00844" lon="77.20701">
        <ele>3213.4</ele>
        <time>2015-09-01T04:37:08Z</time>
      </trkpt>
      <trkpt lat="34.00853" lon="77.20702">
        <ele>3214.4</ele>
        <time>2015-09-01T04:37:43Z</time>
      </trkpt>
      <trkpt lat="34.00856" lon="77.20701">
        <ele>3214.6</ele>
        <time>2015-09-01T04:37:47Z</time>
      </trkpt>
      <trkpt lat="34.00854" lon="77.20689">
        <ele>3215</ele>
        <time>2015-09-01T04:38:07Z</time>
      </trkpt>
      <trkpt lat="34.00851" lon="77.20697">
        <ele>3214.6</ele>
        <time>2015-09-01T04:39:08Z</time>
      </trkpt>
      <trkpt lat="34.00854" lon="77.20701">
        <ele>3214.4</ele>
        <time>2015-09-01T04:39:44Z</time>
      </trkpt>
      <trkpt lat="34.0086" lon="77.20693">
        <ele>3214.2</ele>
        <time>2015-09-01T04:39:52Z</time>
      </trkpt>
      <trkpt lat="34.00857" lon="77.20694">
        <ele>3213.8</ele>
        <time>2015-09-01T04:39:59Z</time>
      </trkpt>
      <trkpt lat="34.00852" lon="77.20698">
        <ele>3213.6</ele>
        <time>2015-09-01T04:40:56Z</time>
      </trkpt>
      <trkpt lat="34.00852" lon="77.207">
        <ele>3213.2</ele>
        <time>2015-09-01T04:41:32Z</time>
      </trkpt>
      <trkpt lat="34.00852" lon="77.20698">
        <ele>3213.2</ele>
        <time>2015-09-01T04:41:35Z</time>
      </trkpt>
      <trkpt lat="34.00851" lon="77.20687">
        <ele>3213.2</ele>
        <time>2015-09-01T04:42:16Z</time>
      </trkpt>
      <trkpt lat="34.00851" lon="77.20692">
        <ele>3213.4</ele>
        <time>2015-09-01T04:43:12Z</time>
      </trkpt>
      <trkpt lat="34.00853" lon="77.20697">
        <ele>3213.8</ele>
        <time>2015-09-01T04:44:12Z</time>
      </trkpt>
      <trkpt lat="34.00849" lon="77.20692">
        <ele>3214.2</ele>
        <time>2015-09-01T04:44:23Z</time>
      </trkpt>
      <trkpt lat="34.00849" lon="77.20688">
        <ele>3214.4</ele>
        <time>2015-09-01T04:44:26Z</time>
      </trkpt>
      <trkpt lat="34.00849" lon="77.20693">
        <ele>3214.6</ele>
        <time>2015-09-01T04:45:02Z</time>
      </trkpt>
      <trkpt lat="34.00858" lon="77.20704">
        <ele>3214.2</ele>
        <time>2015-09-01T04:45:27Z</time>
      </trkpt>
      <trkpt lat="34.00858" lon="77.20699">
        <ele>3214</ele>
        <time>2015-09-01T04:45:31Z</time>
      </trkpt>
      <trkpt lat="34.00857" lon="77.207">
        <ele>3214.2</ele>
        <time>2015-09-01T04:46:22Z</time>
      </trkpt>
      <trkpt lat="34.00855" lon="77.20697">
        <ele>3214.2</ele>
        <time>2015-09-01T04:46:27Z</time>
      </trkpt>
      <trkpt lat="34.00855" lon="77.20698">
        <ele>3214.2</ele>
        <time>2015-09-01T04:46:29Z</time>
      </trkpt>
      <trkpt lat="34.00852" lon="77.20696">
        <ele>3213.6</ele>
        <time>2015-09-01T04:46:49Z</time>
      </trkpt>
      <trkpt lat="34.00853" lon="77.20696">
        <ele>3213.4</ele>
        <time>2015-09-01T04:46:56Z</time>
      </trkpt>
      <trkpt lat="34.00852" lon="77.20696">
        <ele>3214</ele>
        <time>2015-09-01T04:47:18Z</time>
      </trkpt>
      <trkpt lat="34.0085" lon="77.2069">
        <ele>3214.6</ele>
        <time>2015-09-01T04:48:19Z</time>
      </trkpt>
      <trkpt lat="34.00849" lon="77.20698">
        <ele>3212.6</ele>
        <time>2015-09-01T04:48:50Z</time>
      </trkpt>
      <trkpt lat="34.00853" lon="77.2072">
        <ele>3212.2</ele>
        <time>2015-09-01T04:48:58Z</time>
      </trkpt>
      <trkpt lat="34.00855" lon="77.20736">
        <ele>3211.6</ele>
        <time>2015-09-01T04:49:08Z</time>
      </trkpt>
      <trkpt lat="34.00857" lon="77.20736">
        <ele>3211.6</ele>
        <time>2015-09-01T04:49:13Z</time>
      </trkpt>
      <trkpt lat="34.00861" lon="77.20742">
        <ele>3211.4</ele>
        <time>2015-09-01T04:49:24Z</time>
      </trkpt>
      <trkpt lat="34.00861" lon="77.20757">
        <ele>3211.6</ele>
        <time>2015-09-01T04:49:36Z</time>
      </trkpt>
      <trkpt lat="34.0087" lon="77.20771">
        <ele>3212.6</ele>
        <time>2015-09-01T04:50:08Z</time>
      </trkpt>
      <trkpt lat="34.00869" lon="77.20776">
        <ele>3213.6</ele>
        <time>2015-09-01T04:50:14Z</time>
      </trkpt>
      <trkpt lat="34.00868" lon="77.20777">
        <ele>3213.6</ele>
        <time>2015-09-01T04:50:15Z</time>
      </trkpt>
      <trkpt lat="34.00867" lon="77.20778">
        <ele>3213.6</ele>
        <time>2015-09-01T04:50:17Z</time>
      </trkpt>
      <trkpt lat="34.00863" lon="77.20783">
        <ele>3213.4</ele>
        <time>2015-09-01T04:50:44Z</time>
      </trkpt>
      <trkpt lat="34.00861" lon="77.20776">
        <ele>3214</ele>
        <time>2015-09-01T04:51:19Z</time>
      </trkpt>
      <trkpt lat="34.0086" lon="77.20776">
        <ele>3213.8</ele>
        <time>2015-09-01T04:51:22Z</time>
      </trkpt>
      <trkpt lat="34.0086" lon="77.2078">
        <ele>3213.8</ele>
        <time>2015-09-01T04:51:26Z</time>
      </trkpt>
      <trkpt lat="34.00857" lon="77.20786">
        <ele>3214.8</ele>
        <time>2015-09-01T04:51:39Z</time>
      </trkpt>
      <trkpt lat="34.00855" lon="77.20788">
        <ele>3215.2</ele>
        <time>2015-09-01T04:52:37Z</time>
      </trkpt>
      <trkpt lat="34.00861" lon="77.20787">
        <ele>3215</ele>
        <time>2015-09-01T04:52:50Z</time>
      </trkpt>
      <trkpt lat="34.00864" lon="77.20787">
        <ele>3215</ele>
        <time>2015-09-01T04:52:54Z</time>
      </trkpt>
      <trkpt lat="34.00862" lon="77.20795">
        <ele>3215.2</ele>
        <time>2015-09-01T04:53:10Z</time>
      </trkpt>
      <trkpt lat="34.0086" lon="77.20798">
        <ele>3215.2</ele>
        <time>2015-09-01T04:53:14Z</time>
      </trkpt>
      <trkpt lat="34.00866" lon="77.20788">
        <ele>3214.8</ele>
        <time>2015-09-01T04:53:48Z</time>
      </trkpt>
      <trkpt lat="34.00864" lon="77.20787">
        <ele>3214.4</ele>
        <time>2015-09-01T04:53:51Z</time>
      </trkpt>
      <trkpt lat="34.00863" lon="77.20786">
        <ele>3214.2</ele>
        <time>2015-09-01T04:54:07Z</time>
      </trkpt>
      <trkpt lat="34.00862" lon="77.2079">
        <ele>3213.6</ele>
        <time>2015-09-01T04:54:33Z</time>
      </trkpt>
      <trkpt lat="34.00853" lon="77.20773">
        <ele>3213.2</ele>
        <time>2015-09-01T04:55:07Z</time>
      </trkpt>
      <trkpt lat="34.00854" lon="77.20779">
        <ele>3213</ele>
        <time>2015-09-01T04:55:14Z</time>
      </trkpt>
      <trkpt lat="34.00856" lon="77.20776">
        <ele>3213</ele>
        <time>2015-09-01T04:55:17Z</time>
      </trkpt>
      <trkpt lat="34.00859" lon="77.20779">
        <ele>3213.4</ele>
        <time>2015-09-01T04:55:23Z</time>
      </trkpt>
      <trkpt lat="34.00861" lon="77.20788">
        <ele>3212.6</ele>
        <time>2015-09-01T04:55:34Z</time>
      </trkpt>
      <trkpt lat="34.00863" lon="77.2079">
        <ele>3212</ele>
        <time>2015-09-01T04:56:05Z</time>
      </trkpt>
      <trkpt lat="34.00863" lon="77.20789">
        <ele>3212</ele>
        <time>2015-09-01T04:56:07Z</time>
      </trkpt>
      <trkpt lat="34.00871" lon="77.20792">
        <ele>3212.4</ele>
        <time>2015-09-01T04:56:37Z</time>
      </trkpt>
      <trkpt lat="34.00866" lon="77.20793">
        <ele>3212</ele>
        <time>2015-09-01T04:57:03Z</time>
      </trkpt>
      <trkpt lat="34.00866" lon="77.20795">
        <ele>3212</ele>
        <time>2015-09-01T04:57:05Z</time>
      </trkpt>
      <trkpt lat="34.00865" lon="77.20793">
        <ele>3212.2</ele>
        <time>2015-09-01T04:57:13Z</time>
      </trkpt>
      <trkpt lat="34.00865" lon="77.20793">
        <ele>3212</ele>
        <time>2015-09-01T04:57:42Z</time>
      </trkpt>
      <trkpt lat="34.00866" lon="77.20795">
        <ele>3211.8</ele>
        <time>2015-09-01T04:57:51Z</time>
      </trkpt>
      <trkpt lat="34.00868" lon="77.20799">
        <ele>3211.6</ele>
        <time>2015-09-01T04:58:11Z</time>
      </trkpt>
      <trkpt lat="34.00864" lon="77.20791">
        <ele>3211.6</ele>
        <time>2015-09-01T04:58:30Z</time>
      </trkpt>
      <trkpt lat="34.00868" lon="77.20785">
        <ele>3211.8</ele>
        <time>2015-09-01T04:58:38Z</time>
      </trkpt>
      <trkpt lat="34.0087" lon="77.20785">
        <ele>3211.8</ele>
        <time>2015-09-01T04:58:40Z</time>
      </trkpt>
      <trkpt lat="34.00869" lon="77.20794">
        <ele>3211.8</ele>
        <time>2015-09-01T04:58:55Z</time>
      </trkpt>
      <trkpt lat="34.00869" lon="77.20798">
        <ele>3211.8</ele>
        <time>2015-09-01T04:58:57Z</time>
      </trkpt>
      <trkpt lat="34.00871" lon="77.20809">
        <ele>3211.6</ele>
        <time>2015-09-01T05:00:18Z</time>
      </trkpt>
      <trkpt lat="34.00867" lon="77.2082">
        <ele>3211.4</ele>
        <time>2015-09-01T05:00:34Z</time>
      </trkpt>
      <trkpt lat="34.00867" lon="77.20825">
        <ele>3211.4</ele>
        <time>2015-09-01T05:00:38Z</time>
      </trkpt>
      <trkpt lat="34.00866" lon="77.20831">
        <ele>3211.4</ele>
        <time>2015-09-01T05:00:42Z</time>
      </trkpt>
      <trkpt lat="34.00865" lon="77.20835">
        <ele>3211.2</ele>
        <time>2015-09-01T05:00:46Z</time>
      </trkpt>
      <trkpt lat="34.00865" lon="77.20819">
        <ele>3210.8</ele>
        <time>2015-09-01T05:01:03Z</time>
      </trkpt>
      <trkpt lat="34.00865" lon="77.20802">
        <ele>3211</ele>
        <time>2015-09-01T05:01:05Z</time>
      </trkpt>
      <trkpt lat="34.00865" lon="77.20796">
        <ele>3211</ele>
        <time>2015-09-01T05:01:07Z</time>
      </trkpt>
      <trkpt lat="34.00866" lon="77.20794">
        <ele>3211</ele>
        <time>2015-09-01T05:01:09Z</time>
      </trkpt>
      <trkpt lat="34.00865" lon="77.2079">
        <ele>3211</ele>
        <time>2015-09-01T05:01:12Z</time>
      </trkpt>
      <trkpt lat="34.00866" lon="77.2079">
        <ele>3211</ele>
        <time>2015-09-01T05:01:14Z</time>
      </trkpt>
      <trkpt lat="34.00863" lon="77.20789">
        <ele>3210.6</ele>
        <time>2015-09-01T05:02:03Z</time>
      </trkpt>
      <trkpt lat="34.00853" lon="77.20789">
        <ele>3211.2</ele>
        <time>2015-09-01T05:02:35Z</time>
      </trkpt>
      <trkpt lat="34.00857" lon="77.20789">
        <ele>3211.2</ele>
        <time>2015-09-01T05:02:39Z</time>
      </trkpt>
      <trkpt lat="34.00862" lon="77.20788">
        <ele>3211</ele>
        <time>2015-09-01T05:02:43Z</time>
      </trkpt>
      <trkpt lat="34.00864" lon="77.20788">
        <ele>3211</ele>
        <time>2015-09-01T05:02:46Z</time>
      </trkpt>
      <trkpt lat="34.00865" lon="77.20784">
        <ele>3211.6</ele>
        <time>2015-09-01T05:03:00Z</time>
      </trkpt>
      <trkpt lat="34.00869" lon="77.2079">
        <ele>3212</ele>
        <time>2015-09-01T05:03:11Z</time>
      </trkpt>
      <trkpt lat="34.00868" lon="77.20789">
        <ele>3211.2</ele>
        <time>2015-09-01T05:03:43Z</time>
      </trkpt>
      <trkpt lat="34.00866" lon="77.20786">
        <ele>3210.8</ele>
        <time>2015-09-01T05:04:04Z</time>
      </trkpt>
      <trkpt lat="34.00865" lon="77.20789">
        <ele>3211.6</ele>
        <time>2015-09-01T05:04:40Z</time>
      </trkpt>
      <trkpt lat="34.00864" lon="77.20793">
        <ele>3210.8</ele>
        <time>2015-09-01T05:05:26Z</time>
      </trkpt>
      <trkpt lat="34.0086" lon="77.20793">
        <ele>3211</ele>
        <time>2015-09-01T05:06:09Z</time>
      </trkpt>
      <trkpt lat="34.00865" lon="77.20791">
        <ele>3211.2</ele>
        <time>2015-09-01T05:06:16Z</time>
      </trkpt>
      <trkpt lat="34.00861" lon="77.20787">
        <ele>3211</ele>
        <time>2015-09-01T05:07:18Z</time>
      </trkpt>
      <trkpt lat="34.0086" lon="77.20768">
        <ele>3211.2</ele>
        <time>2015-09-01T05:07:27Z</time>
      </trkpt>
      <trkpt lat="34.0086" lon="77.20763">
        <ele>3211.4</ele>
        <time>2015-09-01T05:07:30Z</time>
      </trkpt>
      <trkpt lat="34.0086" lon="77.20768">
        <ele>3212</ele>
        <time>2015-09-01T05:07:33Z</time>
      </trkpt>
      <trkpt lat="34.0086" lon="77.20768">
        <ele>3212.2</ele>
        <time>2015-09-01T05:07:35Z</time>
      </trkpt>
      <trkpt lat="34.00858" lon="77.2078">
        <ele>3212.4</ele>
        <time>2015-09-01T05:07:40Z</time>
      </trkpt>
      <trkpt lat="34.0086" lon="77.20793">
        <ele>3212.2</ele>
        <time>2015-09-01T05:08:03Z</time>
      </trkpt>
      <trkpt lat="34.00863" lon="77.20792">
        <ele>3212.6</ele>
        <time>2015-09-01T05:08:07Z</time>
      </trkpt>
      <trkpt lat="34.00864" lon="77.20791">
        <ele>3212.6</ele>
        <time>2015-09-01T05:08:08Z</time>
      </trkpt>
      <trkpt lat="34.00868" lon="77.20794">
        <ele>3212</ele>
        <time>2015-09-01T05:08:33Z</time>
      </trkpt>
      <trkpt lat="34.00864" lon="77.20789">
        <ele>3212.2</ele>
        <time>2015-09-01T05:09:35Z</time>
      </trkpt>
      <trkpt lat="34.00865" lon="77.20798">
        <ele>3212.4</ele>
        <time>2015-09-01T05:10:13Z</time>
      </trkpt>
      <trkpt lat="34.00865" lon="77.20799">
        <ele>3212.4</ele>
        <time>2015-09-01T05:10:15Z</time>
      </trkpt>
      <trkpt lat="34.0086" lon="77.20792">
        <ele>3212</ele>
        <time>2015-09-01T05:10:38Z</time>
      </trkpt>
      <trkpt lat="34.00863" lon="77.20795">
        <ele>3212</ele>
        <time>2015-09-01T05:10:42Z</time>
      </trkpt>
      <trkpt lat="34.00869" lon="77.20806">
        <ele>3211.8</ele>
        <time>2015-09-01T05:11:23Z</time>
      </trkpt>
      <trkpt lat="34.00876" lon="77.20811">
        <ele>3211.8</ele>
        <time>2015-09-01T05:11:27Z</time>
      </trkpt>
      <trkpt lat="34.00875" lon="77.20811">
        <ele>3211.8</ele>
        <time>2015-09-01T05:11:29Z</time>
      </trkpt>
      <trkpt lat="34.00865" lon="77.20802">
        <ele>3211.4</ele>
        <time>2015-09-01T05:11:48Z</time>
      </trkpt>
      <trkpt lat="34.00867" lon="77.20798">
        <ele>3211.4</ele>
        <time>2015-09-01T05:11:53Z</time>
      </trkpt>
      <trkpt lat="34.00858" lon="77.20789">
        <ele>3210.6</ele>
        <time>2015-09-01T05:12:03Z</time>
      </trkpt>
      <trkpt lat="34.00849" lon="77.20771">
        <ele>3210.6</ele>
        <time>2015-09-01T05:12:17Z</time>
      </trkpt>
      <trkpt lat="34.00848" lon="77.20762">
        <ele>3210.6</ele>
        <time>2015-09-01T05:12:22Z</time>
      </trkpt>
      <trkpt lat="34.00849" lon="77.20762">
        <ele>3210.6</ele>
        <time>2015-09-01T05:12:23Z</time>
      </trkpt>
      <trkpt lat="34.00865" lon="77.20779">
        <ele>3210.2</ele>
        <time>2015-09-01T05:12:32Z</time>
      </trkpt>
      <trkpt lat="34.0085" lon="77.20777">
        <ele>3211.4</ele>
        <time>2015-09-01T05:13:03Z</time>
      </trkpt>
      <trkpt lat="34.00848" lon="77.20771">
        <ele>3211.4</ele>
        <time>2015-09-01T05:13:05Z</time>
      </trkpt>
      <trkpt lat="34.00859" lon="77.20784">
        <ele>3211.4</ele>
        <time>2015-09-01T05:13:10Z</time>
      </trkpt>
      <trkpt lat="34.00861" lon="77.20785">
        <ele>3211.2</ele>
        <time>2015-09-01T05:13:13Z</time>
      </trkpt>
      <trkpt lat="34.00864" lon="77.20786">
        <ele>3211</ele>
        <time>2015-09-01T05:13:15Z</time>
      </trkpt>
      <trkpt lat="34.00866" lon="77.20785">
        <ele>3210.8</ele>
        <time>2015-09-01T05:13:18Z</time>
      </trkpt>
      <trkpt lat="34.00865" lon="77.20791">
        <ele>3211.4</ele>
        <time>2015-09-01T05:13:32Z</time>
      </trkpt>
      <trkpt lat="34.00863" lon="77.2079">
        <ele>3211.2</ele>
        <time>2015-09-01T05:13:35Z</time>
      </trkpt>
      <trkpt lat="34.00877" lon="77.20802">
        <ele>3211</ele>
        <time>2015-09-01T05:14:16Z</time>
      </trkpt>
      <trkpt lat="34.00882" lon="77.20806">
        <ele>3211</ele>
        <time>2015-09-01T05:14:19Z</time>
      </trkpt>
      <trkpt lat="34.00867" lon="77.20791">
        <ele>3210.2</ele>
        <time>2015-09-01T05:14:47Z</time>
      </trkpt>
      <trkpt lat="34.00864" lon="77.2079">
        <ele>3211.2</ele>
        <time>2015-09-01T05:14:59Z</time>
      </trkpt>
      <trkpt lat="34.00863" lon="77.20798">
        <ele>3210.6</ele>
        <time>2015-09-01T05:15:49Z</time>
      </trkpt>
      <trkpt lat="34.00863" lon="77.20791">
        <ele>3210.2</ele>
        <time>2015-09-01T05:16:09Z</time>
      </trkpt>
      <trkpt lat="34.0086" lon="77.20788">
        <ele>3210.2</ele>
        <time>2015-09-01T05:16:13Z</time>
      </trkpt>
      <trkpt lat="34.00854" lon="77.2079">
        <ele>3210.6</ele>
        <time>2015-09-01T05:16:46Z</time>
      </trkpt>
      <trkpt lat="34.00852" lon="77.20789">
        <ele>3210.8</ele>
        <time>2015-09-01T05:16:48Z</time>
      </trkpt>
      <trkpt lat="34.00857" lon="77.20789">
        <ele>3210.8</ele>
        <time>2015-09-01T05:17:04Z</time>
      </trkpt>
      <trkpt lat="34.00855" lon="77.20797">
        <ele>3210.8</ele>
        <time>2015-09-01T05:17:20Z</time>
      </trkpt>
      <trkpt lat="34.0084" lon="77.20788">
        <ele>3210.6</ele>
        <time>2015-09-01T05:17:45Z</time>
      </trkpt>
      <trkpt lat="34.00827" lon="77.2078">
        <ele>3210</ele>
        <time>2015-09-01T05:18:06Z</time>
      </trkpt>
      <trkpt lat="34.00828" lon="77.20768">
        <ele>3209.6</ele>
        <time>2015-09-01T05:18:24Z</time>
      </trkpt>
      <trkpt lat="34.00844" lon="77.20781">
        <ele>3209.2</ele>
        <time>2015-09-01T05:18:42Z</time>
      </trkpt>
      <trkpt lat="34.00858" lon="77.20794">
        <ele>3209.4</ele>
        <time>2015-09-01T05:19:26Z</time>
      </trkpt>
      <trkpt lat="34.00864" lon="77.20793">
        <ele>3209.2</ele>
        <time>2015-09-01T05:19:34Z</time>
      </trkpt>
      <trkpt lat="34.00867" lon="77.20796">
        <ele>3209.6</ele>
        <time>2015-09-01T05:19:38Z</time>
      </trkpt>
      <trkpt lat="34.00867" lon="77.2079">
        <ele>3209.4</ele>
        <time>2015-09-01T05:19:53Z</time>
      </trkpt>
      <trkpt lat="34.00864" lon="77.20789">
        <ele>3209.4</ele>
        <time>2015-09-01T05:19:58Z</time>
      </trkpt>
      <trkpt lat="34.00864" lon="77.20787">
        <ele>3209.4</ele>
        <time>2015-09-01T05:20:00Z</time>
      </trkpt>
      <trkpt lat="34.00866" lon="77.20789">
        <ele>3209.4</ele>
        <time>2015-09-01T05:20:03Z</time>
      </trkpt>
      <trkpt lat="34.00866" lon="77.20797">
        <ele>3208.6</ele>
        <time>2015-09-01T05:20:21Z</time>
      </trkpt>
      <trkpt lat="34.00861" lon="77.20795">
        <ele>3208.6</ele>
        <time>2015-09-01T05:21:50Z</time>
      </trkpt>
      <trkpt lat="34.00858" lon="77.20791">
        <ele>3209</ele>
        <time>2015-09-01T05:21:54Z</time>
      </trkpt>
      <trkpt lat="34.00858" lon="77.2079">
        <ele>3209</ele>
        <time>2015-09-01T05:21:56Z</time>
      </trkpt>
      <trkpt lat="34.00863" lon="77.20792">
        <ele>3208.8</ele>
        <time>2015-09-01T05:22:29Z</time>
      </trkpt>
      <trkpt lat="34.00856" lon="77.20801">
        <ele>3208</ele>
        <time>2015-09-01T05:23:33Z</time>
      </trkpt>
      <trkpt lat="34.00856" lon="77.20802">
        <ele>3208</ele>
        <time>2015-09-01T05:23:34Z</time>
      </trkpt>
      <trkpt lat="34.00856" lon="77.20804">
        <ele>3208</ele>
        <time>2015-09-01T05:23:36Z</time>
      </trkpt>
      <trkpt lat="34.00856" lon="77.20817">
        <ele>3207.6</ele>
        <time>2015-09-01T05:23:55Z</time>
      </trkpt>
      <trkpt lat="34.00857" lon="77.20823">
        <ele>3207.2</ele>
        <time>2015-09-01T05:23:59Z</time>
      </trkpt>
      <trkpt lat="34.00856" lon="77.20829">
        <ele>3207</ele>
        <time>2015-09-01T05:24:12Z</time>
      </trkpt>
      <trkpt lat="34.00856" lon="77.20835">
        <ele>3206.6</ele>
        <time>2015-09-01T05:24:17Z</time>
      </trkpt>
      <trkpt lat="34.00857" lon="77.20835">
        <ele>3206.4</ele>
        <time>2015-09-01T05:24:20Z</time>
      </trkpt>
      <trkpt lat="34.00856" lon="77.20825">
        <ele>3206.2</ele>
        <time>2015-09-01T05:24:24Z</time>
      </trkpt>
      <trkpt lat="34.00856" lon="77.20824">
        <ele>3206.2</ele>
        <time>2015-09-01T05:24:26Z</time>
      </trkpt>
      <trkpt lat="34.00858" lon="77.20827">
        <ele>3205.6</ele>
        <time>2015-09-01T05:24:33Z</time>
      </trkpt>
      <trkpt lat="34.00859" lon="77.20824">
        <ele>3205.4</ele>
        <time>2015-09-01T05:24:35Z</time>
      </trkpt>
      <trkpt lat="34.00861" lon="77.20819">
        <ele>3205.4</ele>
        <time>2015-09-01T05:24:39Z</time>
      </trkpt>
      <trkpt lat="34.00861" lon="77.20814">
        <ele>3205.2</ele>
        <time>2015-09-01T05:24:41Z</time>
      </trkpt>
      <trkpt lat="34.0086" lon="77.208">
        <ele>3205.2</ele>
        <time>2015-09-01T05:24:46Z</time>
      </trkpt>
      <trkpt lat="34.00862" lon="77.20797">
        <ele>3205.2</ele>
        <time>2015-09-01T05:24:49Z</time>
      </trkpt>
      <trkpt lat="34.00862" lon="77.20793">
        <ele>3205.4</ele>
        <time>2015-09-01T05:24:54Z</time>
      </trkpt>
      <trkpt lat="34.00865" lon="77.20792">
        <ele>3205.4</ele>
        <time>2015-09-01T05:24:58Z</time>
      </trkpt>
      <trkpt lat="34.00866" lon="77.20793">
        <ele>3205.2</ele>
        <time>2015-09-01T05:25:01Z</time>
      </trkpt>
      <trkpt lat="34.00864" lon="77.20797">
        <ele>3205.2</ele>
        <time>2015-09-01T05:25:05Z</time>
      </trkpt>
      <trkpt lat="34.00861" lon="77.20793">
        <ele>3205.4</ele>
        <time>2015-09-01T05:25:13Z</time>
      </trkpt>
      <trkpt lat="34.0086" lon="77.20797">
        <ele>3205.4</ele>
        <time>2015-09-01T05:25:16Z</time>
      </trkpt>
      <trkpt lat="34.0086" lon="77.20788">
        <ele>3205.6</ele>
        <time>2015-09-01T05:25:45Z</time>
      </trkpt>
      <trkpt lat="34.00857" lon="77.20787">
        <ele>3205.4</ele>
        <time>2015-09-01T05:25:52Z</time>
      </trkpt>
      <trkpt lat="34.00855" lon="77.20786">
        <ele>3204.4</ele>
        <time>2015-09-01T05:26:16Z</time>
      </trkpt>
      <trkpt lat="34.00856" lon="77.20794">
        <ele>3204</ele>
        <time>2015-09-01T05:26:30Z</time>
      </trkpt>
      <trkpt lat="34.00862" lon="77.20794">
        <ele>3204</ele>
        <time>2015-09-01T05:27:24Z</time>
      </trkpt>
      <trkpt lat="34.00858" lon="77.20798">
        <ele>3203.4</ele>
        <time>2015-09-01T05:27:57Z</time>
      </trkpt>
      <trkpt lat="34.0085" lon="77.20797">
        <ele>3203.4</ele>
        <time>2015-09-01T05:28:07Z</time>
      </trkpt>
      <trkpt lat="34.00859" lon="77.20788">
        <ele>3203</ele>
        <time>2015-09-01T05:28:33Z</time>
      </trkpt>
      <trkpt lat="34.00852" lon="77.20793">
        <ele>3202.6</ele>
        <time>2015-09-01T05:28:45Z</time>
      </trkpt>
      <trkpt lat="34.00854" lon="77.20806">
        <ele>3202.6</ele>
        <time>2015-09-01T05:29:43Z</time>
      </trkpt>
      <trkpt lat="34.00857" lon="77.20804">
        <ele>3202.4</ele>
        <time>2015-09-01T05:29:51Z</time>
      </trkpt>
      <trkpt lat="34.0086" lon="77.208">
        <ele>3202.2</ele>
        <time>2015-09-01T05:30:05Z</time>
      </trkpt>
      <trkpt lat="34.00857" lon="77.20795">
        <ele>3202.2</ele>
        <time>2015-09-01T05:31:18Z</time>
      </trkpt>
      <trkpt lat="34.00854" lon="77.20807">
        <ele>3202</ele>
        <time>2015-09-01T05:31:54Z</time>
      </trkpt>
      <trkpt lat="34.0086" lon="77.20809">
        <ele>3201.4</ele>
        <time>2015-09-01T05:32:47Z</time>
      </trkpt>
      <trkpt lat="34.00858" lon="77.20803">
        <ele>3200.4</ele>
        <time>2015-09-01T05:33:38Z</time>
      </trkpt>
      <trkpt lat="34.0086" lon="77.20795">
        <ele>3199.8</ele>
        <time>2015-09-01T05:34:26Z</time>
      </trkpt>
      <trkpt lat="34.00867" lon="77.20795">
        <ele>3199.4</ele>
        <time>2015-09-01T05:35:21Z</time>
      </trkpt>
      <trkpt lat="34.00854" lon="77.20805">
        <ele>3199.4</ele>
        <time>2015-09-01T05:35:31Z</time>
      </trkpt>
      <trkpt lat="34.00855" lon="77.20796">
        <ele>3200.2</ele>
        <time>2015-09-01T05:36:08Z</time>
      </trkpt>
      <trkpt lat="34.00858" lon="77.20792">
        <ele>3198.8</ele>
        <time>2015-09-01T05:36:55Z</time>
      </trkpt>
      <trkpt lat="34.00856" lon="77.20791">
        <ele>3199.4</ele>
        <time>2015-09-01T05:37:45Z</time>
      </trkpt>
      <trkpt lat="34.00856" lon="77.20787">
        <ele>3199.2</ele>
        <time>2015-09-01T05:37:53Z</time>
      </trkpt>
      <trkpt lat="34.00852" lon="77.20788">
        <ele>3199</ele>
        <time>2015-09-01T05:38:56Z</time>
      </trkpt>
      <trkpt lat="34.00846" lon="77.20786">
        <ele>3198.6</ele>
        <time>2015-09-01T05:40:00Z</time>
      </trkpt>
      <trkpt lat="34.00849" lon="77.20784">
        <ele>3198.4</ele>
        <time>2015-09-01T05:40:26Z</time>
      </trkpt>
      <trkpt lat="34.00849" lon="77.20794">
        <ele>3199</ele>
        <time>2015-09-01T05:40:52Z</time>
      </trkpt>
      <trkpt lat="34.00849" lon="77.20796">
        <ele>3199</ele>
        <time>2015-09-01T05:40:54Z</time>
      </trkpt>
      <trkpt lat="34.00848" lon="77.20798">
        <ele>3199.2</ele>
        <time>2015-09-01T05:40:57Z</time>
      </trkpt>
      <trkpt lat="34.00854" lon="77.20799">
        <ele>3199.4</ele>
        <time>2015-09-01T05:41:00Z</time>
      </trkpt>
      <trkpt lat="34.00853" lon="77.20798">
        <ele>3199.4</ele>
        <time>2015-09-01T05:41:01Z</time>
      </trkpt>
      <trkpt lat="34.00848" lon="77.208">
        <ele>3199.4</ele>
        <time>2015-09-01T05:41:05Z</time>
      </trkpt>
      <trkpt lat="34.00844" lon="77.20797">
        <ele>3199.6</ele>
        <time>2015-09-01T05:41:09Z</time>
      </trkpt>
      <trkpt lat="34.00838" lon="77.2079">
        <ele>3199.4</ele>
        <time>2015-09-01T05:41:16Z</time>
      </trkpt>
      <trkpt lat="34.00834" lon="77.2079">
        <ele>3199.2</ele>
        <time>2015-09-01T05:41:20Z</time>
      </trkpt>
      <trkpt lat="34.00832" lon="77.20798">
        <ele>3199.2</ele>
        <time>2015-09-01T05:41:38Z</time>
      </trkpt>
      <trkpt lat="34.00832" lon="77.20797">
        <ele>3199.4</ele>
        <time>2015-09-01T05:41:40Z</time>
      </trkpt>
      <trkpt lat="34.00832" lon="77.20794">
        <ele>3199.6</ele>
        <time>2015-09-01T05:41:43Z</time>
      </trkpt>
      <trkpt lat="34.0083" lon="77.2079">
        <ele>3199.6</ele>
        <time>2015-09-01T05:41:46Z</time>
      </trkpt>
      <trkpt lat="34.00835" lon="77.20771">
        <ele>3199</ele>
        <time>2015-09-01T05:42:04Z</time>
      </trkpt>
      <trkpt lat="34.00834" lon="77.20786">
        <ele>3198.8</ele>
        <time>2015-09-01T05:42:13Z</time>
      </trkpt>
      <trkpt lat="34.00832" lon="77.20787">
        <ele>3199</ele>
        <time>2015-09-01T05:42:17Z</time>
      </trkpt>
      <trkpt lat="34.00826" lon="77.20777">
        <ele>3199.8</ele>
        <time>2015-09-01T05:42:27Z</time>
      </trkpt>
      <trkpt lat="34.00818" lon="77.20793">
        <ele>3199.8</ele>
        <time>2015-09-01T05:42:31Z</time>
      </trkpt>
      <trkpt lat="34.00813" lon="77.20794">
        <ele>3200.4</ele>
        <time>2015-09-01T05:42:38Z</time>
      </trkpt>
      <trkpt lat="34.00802" lon="77.20797">
        <ele>3200.8</ele>
        <time>2015-09-01T05:42:48Z</time>
      </trkpt>
      <trkpt lat="34.008" lon="77.20796">
        <ele>3200.6</ele>
        <time>2015-09-01T05:42:50Z</time>
      </trkpt>
      <trkpt lat="34.00792" lon="77.20796">
        <ele>3201</ele>
        <time>2015-09-01T05:42:59Z</time>
      </trkpt>
      <trkpt lat="34.00788" lon="77.20797">
        <ele>3201</ele>
        <time>2015-09-01T05:43:07Z</time>
      </trkpt>
      <trkpt lat="34.00775" lon="77.20799">
        <ele>3201.2</ele>
        <time>2015-09-01T05:43:16Z</time>
      </trkpt>
      <trkpt lat="34.00772" lon="77.208">
        <ele>3201.2</ele>
        <time>2015-09-01T05:43:20Z</time>
      </trkpt>
      <trkpt lat="34.00766" lon="77.20801">
        <ele>3201.4</ele>
        <time>2015-09-01T05:43:25Z</time>
      </trkpt>
      <trkpt lat="34.00755" lon="77.20805">
        <ele>3201.6</ele>
        <time>2015-09-01T05:43:34Z</time>
      </trkpt>
      <trkpt lat="34.0074" lon="77.20813">
        <ele>3202.4</ele>
        <time>2015-09-01T05:43:48Z</time>
      </trkpt>
      <trkpt lat="34.0073" lon="77.20822">
        <ele>3203</ele>
        <time>2015-09-01T05:44:00Z</time>
      </trkpt>
      <trkpt lat="34.00727" lon="77.20823">
        <ele>3203.2</ele>
        <time>2015-09-01T05:44:03Z</time>
      </trkpt>
      <trkpt lat="34.00722" lon="77.20826">
        <ele>3203.4</ele>
        <time>2015-09-01T05:44:08Z</time>
      </trkpt>
      <trkpt lat="34.00711" lon="77.20831">
        <ele>3203.6</ele>
        <time>2015-09-01T05:44:18Z</time>
      </trkpt>
      <trkpt lat="34.00709" lon="77.20832">
        <ele>3203.8</ele>
        <time>2015-09-01T05:44:21Z</time>
      </trkpt>
      <trkpt lat="34.00707" lon="77.20839">
        <ele>3203.8</ele>
        <time>2015-09-01T05:44:28Z</time>
      </trkpt>
      <trkpt lat="34.00706" lon="77.20838">
        <ele>3204.6</ele>
        <time>2015-09-01T05:44:33Z</time>
      </trkpt>
      <trkpt lat="34.00702" lon="77.2083">
        <ele>3204.8</ele>
        <time>2015-09-01T05:44:38Z</time>
      </trkpt>
      <trkpt lat="34.00703" lon="77.20834">
        <ele>3205</ele>
        <time>2015-09-01T05:44:43Z</time>
      </trkpt>
      <trkpt lat="34.00697" lon="77.20844">
        <ele>3205.6</ele>
        <time>2015-09-01T05:44:51Z</time>
      </trkpt>
      <trkpt lat="34.00693" lon="77.20847">
        <ele>3206</ele>
        <time>2015-09-01T05:44:55Z</time>
      </trkpt>
      <trkpt lat="34.00689" lon="77.20848">
        <ele>3206.4</ele>
        <time>2015-09-01T05:44:58Z</time>
      </trkpt>
      <trkpt lat="34.00686" lon="77.20849">
        <ele>3206.8</ele>
        <time>2015-09-01T05:45:01Z</time>
      </trkpt>
      <trkpt lat="34.00681" lon="77.20856">
        <ele>3207</ele>
        <time>2015-09-01T05:45:07Z</time>
      </trkpt>
      <trkpt lat="34.00665" lon="77.20866">
        <ele>3206.8</ele>
        <time>2015-09-01T05:45:24Z</time>
      </trkpt>
      <trkpt lat="34.00664" lon="77.20867">
        <ele>3207</ele>
        <time>2015-09-01T05:45:25Z</time>
      </trkpt>
      <trkpt lat="34.00662" lon="77.20889">
        <ele>3206.2</ele>
        <time>2015-09-01T05:45:39Z</time>
      </trkpt>
      <trkpt lat="34.00658" lon="77.20887">
        <ele>3206</ele>
        <time>2015-09-01T05:45:44Z</time>
      </trkpt>
      <trkpt lat="34.0064" lon="77.20885">
        <ele>3206.4</ele>
        <time>2015-09-01T05:46:01Z</time>
      </trkpt>
      <trkpt lat="34.00634" lon="77.20888">
        <ele>3205.8</ele>
        <time>2015-09-01T05:46:07Z</time>
      </trkpt>
      <trkpt lat="34.00627" lon="77.20895">
        <ele>3204.4</ele>
        <time>2015-09-01T05:46:14Z</time>
      </trkpt>
      <trkpt lat="34.00622" lon="77.20907">
        <ele>3205.4</ele>
        <time>2015-09-01T05:46:24Z</time>
      </trkpt>
      <trkpt lat="34.00622" lon="77.20917">
        <ele>3206.2</ele>
        <time>2015-09-01T05:46:31Z</time>
      </trkpt>
      <trkpt lat="34.00622" lon="77.20925">
        <ele>3206.6</ele>
        <time>2015-09-01T05:46:37Z</time>
      </trkpt>
      <trkpt lat="34.00622" lon="77.20931">
        <ele>3207.2</ele>
        <time>2015-09-01T05:46:43Z</time>
      </trkpt>
      <trkpt lat="34.00622" lon="77.20937">
        <ele>3207.6</ele>
        <time>2015-09-01T05:46:47Z</time>
      </trkpt>
      <trkpt lat="34.00618" lon="77.20944">
        <ele>3208.6</ele>
        <time>2015-09-01T05:46:55Z</time>
      </trkpt>
      <trkpt lat="34.00616" lon="77.20955">
        <ele>3209.8</ele>
        <time>2015-09-01T05:47:05Z</time>
      </trkpt>
      <trkpt lat="34.00615" lon="77.20966">
        <ele>3210.8</ele>
        <time>2015-09-01T05:47:19Z</time>
      </trkpt>
      <trkpt lat="34.00615" lon="77.2097">
        <ele>3212</ele>
        <time>2015-09-01T05:47:24Z</time>
      </trkpt>
      <trkpt lat="34.00616" lon="77.20973">
        <ele>3213.2</ele>
        <time>2015-09-01T05:47:28Z</time>
      </trkpt>
      <trkpt lat="34.00616" lon="77.20983">
        <ele>3214.4</ele>
        <time>2015-09-01T05:47:39Z</time>
      </trkpt>
      <trkpt lat="34.00616" lon="77.20988">
        <ele>3215.4</ele>
        <time>2015-09-01T05:47:49Z</time>
      </trkpt>
      <trkpt lat="34.0062" lon="77.21005">
        <ele>3216.8</ele>
        <time>2015-09-01T05:48:05Z</time>
      </trkpt>
      <trkpt lat="34.00621" lon="77.21007">
        <ele>3217.2</ele>
        <time>2015-09-01T05:48:07Z</time>
      </trkpt>
      <trkpt lat="34.00622" lon="77.21018">
        <ele>3217.8</ele>
        <time>2015-09-01T05:48:15Z</time>
      </trkpt>
      <trkpt lat="34.00625" lon="77.21026">
        <ele>3218.2</ele>
        <time>2015-09-01T05:48:22Z</time>
      </trkpt>
      <trkpt lat="34.00623" lon="77.2104">
        <ele>3218.8</ele>
        <time>2015-09-01T05:48:35Z</time>
      </trkpt>
      <trkpt lat="34.0062" lon="77.21044">
        <ele>3219.8</ele>
        <time>2015-09-01T05:48:40Z</time>
      </trkpt>
      <trkpt lat="34.00616" lon="77.21055">
        <ele>3221</ele>
        <time>2015-09-01T05:48:50Z</time>
      </trkpt>
      <trkpt lat="34.00613" lon="77.21059">
        <ele>3221.4</ele>
        <time>2015-09-01T05:48:54Z</time>
      </trkpt>
      <trkpt lat="34.0061" lon="77.21068">
        <ele>3222.2</ele>
        <time>2015-09-01T05:49:01Z</time>
      </trkpt>
      <trkpt lat="34.00609" lon="77.21072">
        <ele>3222.8</ele>
        <time>2015-09-01T05:49:04Z</time>
      </trkpt>
      <trkpt lat="34.00608" lon="77.21083">
        <ele>3223.2</ele>
        <time>2015-09-01T05:49:14Z</time>
      </trkpt>
      <trkpt lat="34.00602" lon="77.21095">
        <ele>3224.2</ele>
        <time>2015-09-01T05:49:25Z</time>
      </trkpt>
      <trkpt lat="34.00602" lon="77.21096">
        <ele>3224.4</ele>
        <time>2015-09-01T05:49:26Z</time>
      </trkpt>
      <trkpt lat="34.00601" lon="77.21106">
        <ele>3225.4</ele>
        <time>2015-09-01T05:49:39Z</time>
      </trkpt>
      <trkpt lat="34.00603" lon="77.21115">
        <ele>3226.4</ele>
        <time>2015-09-01T05:49:48Z</time>
      </trkpt>
      <trkpt lat="34.00602" lon="77.21117">
        <ele>3226.6</ele>
        <time>2015-09-01T05:49:50Z</time>
      </trkpt>
      <trkpt lat="34.00596" lon="77.21126">
        <ele>3226.8</ele>
        <time>2015-09-01T05:49:59Z</time>
      </trkpt>
      <trkpt lat="34.00595" lon="77.21133">
        <ele>3226.2</ele>
        <time>2015-09-01T05:50:10Z</time>
      </trkpt>
      <trkpt lat="34.00595" lon="77.21136">
        <ele>3225.4</ele>
        <time>2015-09-01T05:50:12Z</time>
      </trkpt>
      <trkpt lat="34.00598" lon="77.21148">
        <ele>3224.4</ele>
        <time>2015-09-01T05:50:19Z</time>
      </trkpt>
      <trkpt lat="34.00598" lon="77.21149">
        <ele>3224.2</ele>
        <time>2015-09-01T05:50:21Z</time>
      </trkpt>
      <trkpt lat="34.00599" lon="77.21157">
        <ele>3223.2</ele>
        <time>2015-09-01T05:50:27Z</time>
      </trkpt>
      <trkpt lat="34.006" lon="77.2116">
        <ele>3223</ele>
        <time>2015-09-01T05:50:31Z</time>
      </trkpt>
      <trkpt lat="34.00603" lon="77.21167">
        <ele>3224.2</ele>
        <time>2015-09-01T05:50:39Z</time>
      </trkpt>
      <trkpt lat="34.00603" lon="77.21168">
        <ele>3224.4</ele>
        <time>2015-09-01T05:50:40Z</time>
      </trkpt>
      <trkpt lat="34.00609" lon="77.21173">
        <ele>3225.4</ele>
        <time>2015-09-01T05:50:48Z</time>
      </trkpt>
      <trkpt lat="34.0061" lon="77.21183">
        <ele>3226.4</ele>
        <time>2015-09-01T05:51:02Z</time>
      </trkpt>
      <trkpt lat="34.00616" lon="77.21187">
        <ele>3227.6</ele>
        <time>2015-09-01T05:51:09Z</time>
      </trkpt>
      <trkpt lat="34.00617" lon="77.21188">
        <ele>3227.8</ele>
        <time>2015-09-01T05:51:11Z</time>
      </trkpt>
      <trkpt lat="34.00621" lon="77.21196">
        <ele>3228.8</ele>
        <time>2015-09-01T05:51:21Z</time>
      </trkpt>
      <trkpt lat="34.00623" lon="77.21202">
        <ele>3229.8</ele>
        <time>2015-09-01T05:51:28Z</time>
      </trkpt>
      <trkpt lat="34.00625" lon="77.21206">
        <ele>3230.8</ele>
        <time>2015-09-01T05:51:35Z</time>
      </trkpt>
      <trkpt lat="34.00628" lon="77.21214">
        <ele>3232</ele>
        <time>2015-09-01T05:51:44Z</time>
      </trkpt>
      <trkpt lat="34.00623" lon="77.21218">
        <ele>3233</ele>
        <time>2015-09-01T05:51:50Z</time>
      </trkpt>
      <trkpt lat="34.00622" lon="77.21218">
        <ele>3233.2</ele>
        <time>2015-09-01T05:51:51Z</time>
      </trkpt>
      <trkpt lat="34.00621" lon="77.21221">
        <ele>3233.8</ele>
        <time>2015-09-01T05:51:54Z</time>
      </trkpt>
      <trkpt lat="34.0062" lon="77.21223">
        <ele>3234</ele>
        <time>2015-09-01T05:51:56Z</time>
      </trkpt>
      <trkpt lat="34.00621" lon="77.21224">
        <ele>3234.4</ele>
        <time>2015-09-01T05:51:58Z</time>
      </trkpt>
      <trkpt lat="34.00621" lon="77.21228">
        <ele>3235</ele>
        <time>2015-09-01T05:52:04Z</time>
      </trkpt>
      <trkpt lat="34.00621" lon="77.2123">
        <ele>3235.2</ele>
        <time>2015-09-01T05:52:06Z</time>
      </trkpt>
      <trkpt lat="34.00626" lon="77.2124">
        <ele>3236.4</ele>
        <time>2015-09-01T05:52:13Z</time>
      </trkpt>
      <trkpt lat="34.00624" lon="77.2124">
        <ele>3237.2</ele>
        <time>2015-09-01T05:52:17Z</time>
      </trkpt>
      <trkpt lat="34.00623" lon="77.21239">
        <ele>3237.6</ele>
        <time>2015-09-01T05:52:19Z</time>
      </trkpt>
      <trkpt lat="34.00619" lon="77.2124">
        <ele>3238.8</ele>
        <time>2015-09-01T05:52:28Z</time>
      </trkpt>
      <trkpt lat="34.00618" lon="77.21241">
        <ele>3239.8</ele>
        <time>2015-09-01T05:52:35Z</time>
      </trkpt>
      <trkpt lat="34.00616" lon="77.21247">
        <ele>3241</ele>
        <time>2015-09-01T05:52:43Z</time>
      </trkpt>
      <trkpt lat="34.00612" lon="77.21252">
        <ele>3242</ele>
        <time>2015-09-01T05:52:52Z</time>
      </trkpt>
      <trkpt lat="34.00608" lon="77.21254">
        <ele>3243</ele>
        <time>2015-09-01T05:52:59Z</time>
      </trkpt>
      <trkpt lat="34.00612" lon="77.21257">
        <ele>3243.6</ele>
        <time>2015-09-01T05:53:10Z</time>
      </trkpt>
      <trkpt lat="34.00613" lon="77.21262">
        <ele>3244.2</ele>
        <time>2015-09-01T05:53:16Z</time>
      </trkpt>
      <trkpt lat="34.00612" lon="77.21261">
        <ele>3245.2</ele>
        <time>2015-09-01T05:53:24Z</time>
      </trkpt>
      <trkpt lat="34.00618" lon="77.21263">
        <ele>3246.4</ele>
        <time>2015-09-01T05:53:44Z</time>
      </trkpt>
      <trkpt lat="34.00622" lon="77.21267">
        <ele>3246.8</ele>
        <time>2015-09-01T05:53:49Z</time>
      </trkpt>
      <trkpt lat="34.00623" lon="77.21269">
        <ele>3246.8</ele>
        <time>2015-09-01T05:53:51Z</time>
      </trkpt>
      <trkpt lat="34.00624" lon="77.21271">
        <ele>3247.4</ele>
        <time>2015-09-01T05:53:54Z</time>
      </trkpt>
      <trkpt lat="34.00624" lon="77.21272">
        <ele>3247.6</ele>
        <time>2015-09-01T05:53:55Z</time>
      </trkpt>
      <trkpt lat="34.00627" lon="77.2128">
        <ele>3248.4</ele>
        <time>2015-09-01T05:54:05Z</time>
      </trkpt>
      <trkpt lat="34.00627" lon="77.21285">
        <ele>3249.4</ele>
        <time>2015-09-01T05:54:13Z</time>
      </trkpt>
      <trkpt lat="34.0063" lon="77.21295">
        <ele>3249.4</ele>
        <time>2015-09-01T05:54:24Z</time>
      </trkpt>
      <trkpt lat="34.00632" lon="77.21297">
        <ele>3249.6</ele>
        <time>2015-09-01T05:54:26Z</time>
      </trkpt>
      <trkpt lat="34.00632" lon="77.21298">
        <ele>3250</ele>
        <time>2015-09-01T05:54:28Z</time>
      </trkpt>
      <trkpt lat="34.00631" lon="77.21304">
        <ele>3250.4</ele>
        <time>2015-09-01T05:54:33Z</time>
      </trkpt>
      <trkpt lat="34.0063" lon="77.21305">
        <ele>3250.6</ele>
        <time>2015-09-01T05:54:34Z</time>
      </trkpt>
      <trkpt lat="34.00627" lon="77.21313">
        <ele>3251</ele>
        <time>2015-09-01T05:54:42Z</time>
      </trkpt>
      <trkpt lat="34.00623" lon="77.2132">
        <ele>3251.6</ele>
        <time>2015-09-01T05:54:50Z</time>
      </trkpt>
      <trkpt lat="34.0062" lon="77.21342">
        <ele>3252.6</ele>
        <time>2015-09-01T05:55:09Z</time>
      </trkpt>
      <trkpt lat="34.00619" lon="77.21346">
        <ele>3252.8</ele>
        <time>2015-09-01T05:55:13Z</time>
      </trkpt>
      <trkpt lat="34.00615" lon="77.21357">
        <ele>3253.6</ele>
        <time>2015-09-01T05:55:25Z</time>
      </trkpt>
      <trkpt lat="34.00614" lon="77.21359">
        <ele>3253.6</ele>
        <time>2015-09-01T05:55:27Z</time>
      </trkpt>
      <trkpt lat="34.00617" lon="77.21364">
        <ele>3253.6</ele>
        <time>2015-09-01T05:55:31Z</time>
      </trkpt>
      <trkpt lat="34.00617" lon="77.21366">
        <ele>3253.4</ele>
        <time>2015-09-01T05:55:34Z</time>
      </trkpt>
      <trkpt lat="34.00614" lon="77.21373">
        <ele>3254.6</ele>
        <time>2015-09-01T05:55:43Z</time>
      </trkpt>
      <trkpt lat="34.0061" lon="77.2138">
        <ele>3255.8</ele>
        <time>2015-09-01T05:55:53Z</time>
      </trkpt>
      <trkpt lat="34.00607" lon="77.21379">
        <ele>3256</ele>
        <time>2015-09-01T05:55:56Z</time>
      </trkpt>
      <trkpt lat="34.00609" lon="77.21375">
        <ele>3256.2</ele>
        <time>2015-09-01T05:56:02Z</time>
      </trkpt>
      <trkpt lat="34.00608" lon="77.21374">
        <ele>3257</ele>
        <time>2015-09-01T05:56:07Z</time>
      </trkpt>
      <trkpt lat="34.0061" lon="77.21371">
        <ele>3258</ele>
        <time>2015-09-01T05:56:17Z</time>
      </trkpt>
      <trkpt lat="34.00602" lon="77.21376">
        <ele>3259.2</ele>
        <time>2015-09-01T05:56:25Z</time>
      </trkpt>
      <trkpt lat="34.00601" lon="77.21377">
        <ele>3260.2</ele>
        <time>2015-09-01T05:56:32Z</time>
      </trkpt>
      <trkpt lat="34.00596" lon="77.21384">
        <ele>3261.2</ele>
        <time>2015-09-01T05:56:40Z</time>
      </trkpt>
      <trkpt lat="34.00595" lon="77.21385">
        <ele>3261.2</ele>
        <time>2015-09-01T05:56:41Z</time>
      </trkpt>
      <trkpt lat="34.00595" lon="77.21384">
        <ele>3262.4</ele>
        <time>2015-09-01T05:56:48Z</time>
      </trkpt>
      <trkpt lat="34.00594" lon="77.21385">
        <ele>3263.4</ele>
        <time>2015-09-01T05:56:56Z</time>
      </trkpt>
      <trkpt lat="34.00593" lon="77.21389">
        <ele>3264.4</ele>
        <time>2015-09-01T05:57:02Z</time>
      </trkpt>
      <trkpt lat="34.00592" lon="77.2139">
        <ele>3265.6</ele>
        <time>2015-09-01T05:57:09Z</time>
      </trkpt>
      <trkpt lat="34.00585" lon="77.21394">
        <ele>3266.8</ele>
        <time>2015-09-01T05:57:34Z</time>
      </trkpt>
      <trkpt lat="34.00583" lon="77.21393">
        <ele>3267.8</ele>
        <time>2015-09-01T05:57:40Z</time>
      </trkpt>
      <trkpt lat="34.0058" lon="77.21398">
        <ele>3269</ele>
        <time>2015-09-01T05:57:51Z</time>
      </trkpt>
      <trkpt lat="34.00576" lon="77.21398">
        <ele>3270</ele>
        <time>2015-09-01T05:58:00Z</time>
      </trkpt>
      <trkpt lat="34.00577" lon="77.21394">
        <ele>3271</ele>
        <time>2015-09-01T05:58:10Z</time>
      </trkpt>
      <trkpt lat="34.00578" lon="77.21398">
        <ele>3272</ele>
        <time>2015-09-01T05:58:20Z</time>
      </trkpt>
      <trkpt lat="34.00577" lon="77.21404">
        <ele>3273.2</ele>
        <time>2015-09-01T05:58:27Z</time>
      </trkpt>
      <trkpt lat="34.00575" lon="77.2141">
        <ele>3274.2</ele>
        <time>2015-09-01T05:58:36Z</time>
      </trkpt>
      <trkpt lat="34.00575" lon="77.21413">
        <ele>3275.2</ele>
        <time>2015-09-01T05:58:42Z</time>
      </trkpt>
      <trkpt lat="34.0056" lon="77.21417">
        <ele>3275.8</ele>
        <time>2015-09-01T05:59:08Z</time>
      </trkpt>
      <trkpt lat="34.00553" lon="77.21418">
        <ele>3276.2</ele>
        <time>2015-09-01T05:59:24Z</time>
      </trkpt>
      <trkpt lat="34.00553" lon="77.21419">
        <ele>3276.4</ele>
        <time>2015-09-01T05:59:30Z</time>
      </trkpt>
      <trkpt lat="34.00545" lon="77.21426">
        <ele>3277.4</ele>
        <time>2015-09-01T06:00:19Z</time>
      </trkpt>
      <trkpt lat="34.00543" lon="77.21425">
        <ele>3278.6</ele>
        <time>2015-09-01T06:00:26Z</time>
      </trkpt>
      <trkpt lat="34.0054" lon="77.21421">
        <ele>3279.6</ele>
        <time>2015-09-01T06:00:42Z</time>
      </trkpt>
      <trkpt lat="34.00533" lon="77.2143">
        <ele>3280.6</ele>
        <time>2015-09-01T06:01:04Z</time>
      </trkpt>
      <trkpt lat="34.00533" lon="77.21435">
        <ele>3281.8</ele>
        <time>2015-09-01T06:01:08Z</time>
      </trkpt>
      <trkpt lat="34.00533" lon="77.21436">
        <ele>3282.2</ele>
        <time>2015-09-01T06:01:10Z</time>
      </trkpt>
      <trkpt lat="34.00534" lon="77.21439">
        <ele>3282.8</ele>
        <time>2015-09-01T06:01:16Z</time>
      </trkpt>
      <trkpt lat="34.00534" lon="77.21438">
        <ele>3284</ele>
        <time>2015-09-01T06:01:25Z</time>
      </trkpt>
      <trkpt lat="34.00532" lon="77.2144">
        <ele>3285</ele>
        <time>2015-09-01T06:01:31Z</time>
      </trkpt>
      <trkpt lat="34.00532" lon="77.21441">
        <ele>3286</ele>
        <time>2015-09-01T06:01:39Z</time>
      </trkpt>
      <trkpt lat="34.00528" lon="77.21445">
        <ele>3287.2</ele>
        <time>2015-09-01T06:01:48Z</time>
      </trkpt>
      <trkpt lat="34.00526" lon="77.2145">
        <ele>3288.2</ele>
        <time>2015-09-01T06:01:58Z</time>
      </trkpt>
      <trkpt lat="34.00525" lon="77.21453">
        <ele>3289.2</ele>
        <time>2015-09-01T06:02:08Z</time>
      </trkpt>
      <trkpt lat="34.00525" lon="77.21452">
        <ele>3290.4</ele>
        <time>2015-09-01T06:02:23Z</time>
      </trkpt>
      <trkpt lat="34.00523" lon="77.21456">
        <ele>3291.4</ele>
        <time>2015-09-01T06:02:33Z</time>
      </trkpt>
      <trkpt lat="34.00514" lon="77.2146">
        <ele>3291.6</ele>
        <time>2015-09-01T06:02:40Z</time>
      </trkpt>
      <trkpt lat="34.0051" lon="77.21459">
        <ele>3291.8</ele>
        <time>2015-09-01T06:02:44Z</time>
      </trkpt>
      <trkpt lat="34.00511" lon="77.21464">
        <ele>3292.2</ele>
        <time>2015-09-01T06:03:19Z</time>
      </trkpt>
      <trkpt lat="34.00512" lon="77.21467">
        <ele>3292.2</ele>
        <time>2015-09-01T06:03:21Z</time>
      </trkpt>
      <trkpt lat="34.00509" lon="77.21472">
        <ele>3292.4</ele>
        <time>2015-09-01T06:03:27Z</time>
      </trkpt>
      <trkpt lat="34.00504" lon="77.21474">
        <ele>3293.4</ele>
        <time>2015-09-01T06:03:37Z</time>
      </trkpt>
      <trkpt lat="34.00495" lon="77.21484">
        <ele>3294.4</ele>
        <time>2015-09-01T06:03:49Z</time>
      </trkpt>
      <trkpt lat="34.00494" lon="77.21485">
        <ele>3294.4</ele>
        <time>2015-09-01T06:03:50Z</time>
      </trkpt>
      <trkpt lat="34.00484" lon="77.21494">
        <ele>3295.4</ele>
        <time>2015-09-01T06:04:02Z</time>
      </trkpt>
      <trkpt lat="34.00484" lon="77.21494">
        <ele>3295.6</ele>
        <time>2015-09-01T06:04:03Z</time>
      </trkpt>
      <trkpt lat="34.00481" lon="77.21496">
        <ele>3295.6</ele>
        <time>2015-09-01T06:04:06Z</time>
      </trkpt>
      <trkpt lat="34.00468" lon="77.21502">
        <ele>3296.2</ele>
        <time>2015-09-01T06:04:16Z</time>
      </trkpt>
      <trkpt lat="34.00463" lon="77.21502">
        <ele>3296.6</ele>
        <time>2015-09-01T06:04:21Z</time>
      </trkpt>
      <trkpt lat="34.00449" lon="77.21502">
        <ele>3297.6</ele>
        <time>2015-09-01T06:04:41Z</time>
      </trkpt>
      <trkpt lat="34.00433" lon="77.21502">
        <ele>3298.8</ele>
        <time>2015-09-01T06:04:57Z</time>
      </trkpt>
      <trkpt lat="34.00432" lon="77.21501">
        <ele>3299</ele>
        <time>2015-09-01T06:04:59Z</time>
      </trkpt>
      <trkpt lat="34.00424" lon="77.21502">
        <ele>3299.8</ele>
        <time>2015-09-01T06:05:08Z</time>
      </trkpt>
      <trkpt lat="34.00423" lon="77.21503">
        <ele>3299.8</ele>
        <time>2015-09-01T06:05:10Z</time>
      </trkpt>
      <trkpt lat="34.00413" lon="77.21518">
        <ele>3300.8</ele>
        <time>2015-09-01T06:05:28Z</time>
      </trkpt>
      <trkpt lat="34.00412" lon="77.21524">
        <ele>3301.2</ele>
        <time>2015-09-01T06:05:35Z</time>
      </trkpt>
      <trkpt lat="34.00411" lon="77.21527">
        <ele>3301.6</ele>
        <time>2015-09-01T06:05:38Z</time>
      </trkpt>
      <trkpt lat="34.0041" lon="77.21529">
        <ele>3301.8</ele>
        <time>2015-09-01T06:05:42Z</time>
      </trkpt>
      <trkpt lat="34.00412" lon="77.2154">
        <ele>3302.2</ele>
        <time>2015-09-01T06:05:53Z</time>
      </trkpt>
      <trkpt lat="34.00413" lon="77.2155">
        <ele>3302.8</ele>
        <time>2015-09-01T06:06:05Z</time>
      </trkpt>
      <trkpt lat="34.00412" lon="77.21567">
        <ele>3304</ele>
        <time>2015-09-01T06:06:22Z</time>
      </trkpt>
      <trkpt lat="34.00411" lon="77.21577">
        <ele>3305</ele>
        <time>2015-09-01T06:06:36Z</time>
      </trkpt>
      <trkpt lat="34.00413" lon="77.21589">
        <ele>3306</ele>
        <time>2015-09-01T06:06:50Z</time>
      </trkpt>
      <trkpt lat="34.00415" lon="77.21602">
        <ele>3307</ele>
        <time>2015-09-01T06:07:02Z</time>
      </trkpt>
      <trkpt lat="34.00415" lon="77.21613">
        <ele>3307.6</ele>
        <time>2015-09-01T06:07:13Z</time>
      </trkpt>
      <trkpt lat="34.00414" lon="77.21615">
        <ele>3307.8</ele>
        <time>2015-09-01T06:07:16Z</time>
      </trkpt>
      <trkpt lat="34.00413" lon="77.21618">
        <ele>3308</ele>
        <time>2015-09-01T06:07:20Z</time>
      </trkpt>
      <trkpt lat="34.00409" lon="77.21633">
        <ele>3309.2</ele>
        <time>2015-09-01T06:07:35Z</time>
      </trkpt>
      <trkpt lat="34.00409" lon="77.21637">
        <ele>3309.6</ele>
        <time>2015-09-01T06:07:38Z</time>
      </trkpt>
      <trkpt lat="34.00407" lon="77.21643">
        <ele>3310.4</ele>
        <time>2015-09-01T06:07:54Z</time>
      </trkpt>
      <trkpt lat="34.00404" lon="77.21645">
        <ele>3311.4</ele>
        <time>2015-09-01T06:08:02Z</time>
      </trkpt>
      <trkpt lat="34.00401" lon="77.2165">
        <ele>3312.6</ele>
        <time>2015-09-01T06:08:12Z</time>
      </trkpt>
      <trkpt lat="34.00395" lon="77.2165">
        <ele>3313.6</ele>
        <time>2015-09-01T06:08:23Z</time>
      </trkpt>
      <trkpt lat="34.00389" lon="77.21657">
        <ele>3314.6</ele>
        <time>2015-09-01T06:08:44Z</time>
      </trkpt>
      <trkpt lat="34.00383" lon="77.21665">
        <ele>3315.6</ele>
        <time>2015-09-01T06:09:00Z</time>
      </trkpt>
      <trkpt lat="34.00375" lon="77.21674">
        <ele>3316.8</ele>
        <time>2015-09-01T06:09:18Z</time>
      </trkpt>
      <trkpt lat="34.00371" lon="77.21673">
        <ele>3317.8</ele>
        <time>2015-09-01T06:09:31Z</time>
      </trkpt>
      <trkpt lat="34.00367" lon="77.21683">
        <ele>3318.8</ele>
        <time>2015-09-01T06:09:46Z</time>
      </trkpt>
      <trkpt lat="34.00368" lon="77.21686">
        <ele>3319.8</ele>
        <time>2015-09-01T06:09:55Z</time>
      </trkpt>
      <trkpt lat="34.00367" lon="77.2169">
        <ele>3320.8</ele>
        <time>2015-09-01T06:10:05Z</time>
      </trkpt>
      <trkpt lat="34.00364" lon="77.21697">
        <ele>3322</ele>
        <time>2015-09-01T06:10:17Z</time>
      </trkpt>
      <trkpt lat="34.00362" lon="77.217">
        <ele>3323</ele>
        <time>2015-09-01T06:10:28Z</time>
      </trkpt>
      <trkpt lat="34.0036" lon="77.21705">
        <ele>3324</ele>
        <time>2015-09-01T06:10:39Z</time>
      </trkpt>
      <trkpt lat="34.00358" lon="77.21705">
        <ele>3325.2</ele>
        <time>2015-09-01T06:10:49Z</time>
      </trkpt>
      <trkpt lat="34.00354" lon="77.21712">
        <ele>3326.2</ele>
        <time>2015-09-01T06:11:04Z</time>
      </trkpt>
      <trkpt lat="34.00352" lon="77.21715">
        <ele>3327.2</ele>
        <time>2015-09-01T06:11:12Z</time>
      </trkpt>
      <trkpt lat="34.0035" lon="77.21718">
        <ele>3328.4</ele>
        <time>2015-09-01T06:11:22Z</time>
      </trkpt>
      <trkpt lat="34.00345" lon="77.21723">
        <ele>3329.4</ele>
        <time>2015-09-01T06:11:35Z</time>
      </trkpt>
      <trkpt lat="34.00339" lon="77.21726">
        <ele>3330</ele>
        <time>2015-09-01T06:11:43Z</time>
      </trkpt>
      <trkpt lat="34.00337" lon="77.21727">
        <ele>3330.2</ele>
        <time>2015-09-01T06:11:46Z</time>
      </trkpt>
      <trkpt lat="34.00335" lon="77.21728">
        <ele>3330.4</ele>
        <time>2015-09-01T06:11:49Z</time>
      </trkpt>
      <trkpt lat="34.00332" lon="77.21737">
        <ele>3331.4</ele>
        <time>2015-09-01T06:12:04Z</time>
      </trkpt>
      <trkpt lat="34.00327" lon="77.21753">
        <ele>3332.2</ele>
        <time>2015-09-01T06:12:55Z</time>
      </trkpt>
      <trkpt lat="34.00327" lon="77.21755">
        <ele>3332.4</ele>
        <time>2015-09-01T06:12:58Z</time>
      </trkpt>
      <trkpt lat="34.00324" lon="77.21772">
        <ele>3333.6</ele>
        <time>2015-09-01T06:13:23Z</time>
      </trkpt>
      <trkpt lat="34.00324" lon="77.21775">
        <ele>3333.6</ele>
        <time>2015-09-01T06:13:25Z</time>
      </trkpt>
      <trkpt lat="34.00323" lon="77.21779">
        <ele>3333.6</ele>
        <time>2015-09-01T06:13:29Z</time>
      </trkpt>
      <trkpt lat="34.00323" lon="77.21781">
        <ele>3333.8</ele>
        <time>2015-09-01T06:13:31Z</time>
      </trkpt>
      <trkpt lat="34.00324" lon="77.21781">
        <ele>3334.6</ele>
        <time>2015-09-01T06:13:39Z</time>
      </trkpt>
      <trkpt lat="34.00323" lon="77.21783">
        <ele>3334.4</ele>
        <time>2015-09-01T06:14:25Z</time>
      </trkpt>
      <trkpt lat="34.00325" lon="77.21793">
        <ele>3334.4</ele>
        <time>2015-09-01T06:14:34Z</time>
      </trkpt>
      <trkpt lat="34.00326" lon="77.21796">
        <ele>3334.6</ele>
        <time>2015-09-01T06:14:36Z</time>
      </trkpt>
      <trkpt lat="34.00329" lon="77.21809">
        <ele>3335.6</ele>
        <time>2015-09-01T06:14:47Z</time>
      </trkpt>
      <trkpt lat="34.00328" lon="77.21828">
        <ele>3335.8</ele>
        <time>2015-09-01T06:14:58Z</time>
      </trkpt>
      <trkpt lat="34.00323" lon="77.21838">
        <ele>3336.6</ele>
        <time>2015-09-01T06:15:10Z</time>
      </trkpt>
      <trkpt lat="34.00321" lon="77.21842">
        <ele>3336.8</ele>
        <time>2015-09-01T06:15:15Z</time>
      </trkpt>
      <trkpt lat="34.00315" lon="77.21852">
        <ele>3337</ele>
        <time>2015-09-01T06:15:24Z</time>
      </trkpt>
      <trkpt lat="34.00311" lon="77.21873">
        <ele>3337.8</ele>
        <time>2015-09-01T06:15:42Z</time>
      </trkpt>
      <trkpt lat="34.00311" lon="77.21875">
        <ele>3337.8</ele>
        <time>2015-09-01T06:15:43Z</time>
      </trkpt>
      <trkpt lat="34.00307" lon="77.21882">
        <ele>3337.8</ele>
        <time>2015-09-01T06:15:50Z</time>
      </trkpt>
      <trkpt lat="34.00305" lon="77.21886">
        <ele>3338</ele>
        <time>2015-09-01T06:15:54Z</time>
      </trkpt>
      <trkpt lat="34.003" lon="77.21907">
        <ele>3338.4</ele>
        <time>2015-09-01T06:16:13Z</time>
      </trkpt>
      <trkpt lat="34.00299" lon="77.21909">
        <ele>3338.4</ele>
        <time>2015-09-01T06:16:15Z</time>
      </trkpt>
      <trkpt lat="34.00299" lon="77.21911">
        <ele>3338.4</ele>
        <time>2015-09-01T06:16:17Z</time>
      </trkpt>
      <trkpt lat="34.00297" lon="77.21915">
        <ele>3338.6</ele>
        <time>2015-09-01T06:16:22Z</time>
      </trkpt>
      <trkpt lat="34.00297" lon="77.21916">
        <ele>3338.8</ele>
        <time>2015-09-01T06:16:30Z</time>
      </trkpt>
      <trkpt lat="34.00295" lon="77.21935">
        <ele>3339.6</ele>
        <time>2015-09-01T06:16:44Z</time>
      </trkpt>
      <trkpt lat="34.00295" lon="77.21942">
        <ele>3339.2</ele>
        <time>2015-09-01T06:16:49Z</time>
      </trkpt>
      <trkpt lat="34.00294" lon="77.21962">
        <ele>3339.8</ele>
        <time>2015-09-01T06:17:05Z</time>
      </trkpt>
      <trkpt lat="34.00294" lon="77.2197">
        <ele>3340.2</ele>
        <time>2015-09-01T06:17:10Z</time>
      </trkpt>
      <trkpt lat="34.0029" lon="77.21981">
        <ele>3340.6</ele>
        <time>2015-09-01T06:17:20Z</time>
      </trkpt>
      <trkpt lat="34.0029" lon="77.21984">
        <ele>3340.6</ele>
        <time>2015-09-01T06:17:23Z</time>
      </trkpt>
      <trkpt lat="34.0029" lon="77.21986">
        <ele>3340.8</ele>
        <time>2015-09-01T06:17:25Z</time>
      </trkpt>
      <trkpt lat="34.0029" lon="77.21988">
        <ele>3341</ele>
        <time>2015-09-01T06:17:27Z</time>
      </trkpt>
      <trkpt lat="34.0029" lon="77.21991">
        <ele>3341</ele>
        <time>2015-09-01T06:17:30Z</time>
      </trkpt>
      <trkpt lat="34.00291" lon="77.21994">
        <ele>3341.6</ele>
        <time>2015-09-01T06:17:33Z</time>
      </trkpt>
      <trkpt lat="34.0029" lon="77.21999">
        <ele>3341.8</ele>
        <time>2015-09-01T06:17:36Z</time>
      </trkpt>
      <trkpt lat="34.00289" lon="77.22004">
        <ele>3342</ele>
        <time>2015-09-01T06:17:41Z</time>
      </trkpt>
      <trkpt lat="34.00288" lon="77.22014">
        <ele>3342.8</ele>
        <time>2015-09-01T06:18:03Z</time>
      </trkpt>
      <trkpt lat="34.00289" lon="77.22016">
        <ele>3343</ele>
        <time>2015-09-01T06:18:09Z</time>
      </trkpt>
      <trkpt lat="34.00288" lon="77.22016">
        <ele>3343.4</ele>
        <time>2015-09-01T06:18:12Z</time>
      </trkpt>
      <trkpt lat="34.00286" lon="77.22038">
        <ele>3343.4</ele>
        <time>2015-09-01T06:18:26Z</time>
      </trkpt>
      <trkpt lat="34.00285" lon="77.22048">
        <ele>3343.2</ele>
        <time>2015-09-01T06:18:33Z</time>
      </trkpt>
      <trkpt lat="34.00283" lon="77.22069">
        <ele>3344</ele>
        <time>2015-09-01T06:18:49Z</time>
      </trkpt>
      <trkpt lat="34.00279" lon="77.22084">
        <ele>3345.2</ele>
        <time>2015-09-01T06:19:04Z</time>
      </trkpt>
      <trkpt lat="34.00277" lon="77.2209">
        <ele>3346.4</ele>
        <time>2015-09-01T06:19:09Z</time>
      </trkpt>
      <trkpt lat="34.00268" lon="77.2211">
        <ele>3345.4</ele>
        <time>2015-09-01T06:19:24Z</time>
      </trkpt>
      <trkpt lat="34.00263" lon="77.22132">
        <ele>3345.6</ele>
        <time>2015-09-01T06:19:44Z</time>
      </trkpt>
      <trkpt lat="34.00261" lon="77.22151">
        <ele>3346.2</ele>
        <time>2015-09-01T06:19:56Z</time>
      </trkpt>
      <trkpt lat="34.00259" lon="77.22154">
        <ele>3346.2</ele>
        <time>2015-09-01T06:19:58Z</time>
      </trkpt>
      <trkpt lat="34.00253" lon="77.22174">
        <ele>3345.6</ele>
        <time>2015-09-01T06:20:21Z</time>
      </trkpt>
      <trkpt lat="34.00251" lon="77.22176">
        <ele>3345.6</ele>
        <time>2015-09-01T06:20:24Z</time>
      </trkpt>
      <trkpt lat="34.00249" lon="77.22178">
        <ele>3345.8</ele>
        <time>2015-09-01T06:20:26Z</time>
      </trkpt>
      <trkpt lat="34.00243" lon="77.22199">
        <ele>3345.4</ele>
        <time>2015-09-01T06:20:44Z</time>
      </trkpt>
      <trkpt lat="34.00241" lon="77.22206">
        <ele>3345.4</ele>
        <time>2015-09-01T06:20:49Z</time>
      </trkpt>
      <trkpt lat="34.00239" lon="77.2221">
        <ele>3345.2</ele>
        <time>2015-09-01T06:20:53Z</time>
      </trkpt>
      <trkpt lat="34.00236" lon="77.22215">
        <ele>3345.2</ele>
        <time>2015-09-01T06:20:58Z</time>
      </trkpt>
      <trkpt lat="34.00235" lon="77.22217">
        <ele>3345.2</ele>
        <time>2015-09-01T06:21:00Z</time>
      </trkpt>
      <trkpt lat="34.00234" lon="77.2222">
        <ele>3345.6</ele>
        <time>2015-09-01T06:21:03Z</time>
      </trkpt>
      <trkpt lat="34.0023" lon="77.22227">
        <ele>3346.2</ele>
        <time>2015-09-01T06:21:11Z</time>
      </trkpt>
      <trkpt lat="34.0023" lon="77.22231">
        <ele>3346.4</ele>
        <time>2015-09-01T06:21:14Z</time>
      </trkpt>
      <trkpt lat="34.00229" lon="77.22233">
        <ele>3346.4</ele>
        <time>2015-09-01T06:21:16Z</time>
      </trkpt>
      <trkpt lat="34.00229" lon="77.22235">
        <ele>3346.6</ele>
        <time>2015-09-01T06:21:18Z</time>
      </trkpt>
      <trkpt lat="34.00228" lon="77.22239">
        <ele>3346.8</ele>
        <time>2015-09-01T06:21:22Z</time>
      </trkpt>
      <trkpt lat="34.00227" lon="77.22243">
        <ele>3346.8</ele>
        <time>2015-09-01T06:21:25Z</time>
      </trkpt>
      <trkpt lat="34.00225" lon="77.22247">
        <ele>3347.2</ele>
        <time>2015-09-01T06:21:30Z</time>
      </trkpt>
      <trkpt lat="34.00218" lon="77.22253">
        <ele>3347.4</ele>
        <time>2015-09-01T06:21:38Z</time>
      </trkpt>
      <trkpt lat="34.00207" lon="77.22269">
        <ele>3347.4</ele>
        <time>2015-09-01T06:21:53Z</time>
      </trkpt>
      <trkpt lat="34.00197" lon="77.22282">
        <ele>3348.4</ele>
        <time>2015-09-01T06:22:10Z</time>
      </trkpt>
      <trkpt lat="34.00188" lon="77.22286">
        <ele>3349.4</ele>
        <time>2015-09-01T06:22:20Z</time>
      </trkpt>
      <trkpt lat="34.00179" lon="77.22308">
        <ele>3349.6</ele>
        <time>2015-09-01T06:22:32Z</time>
      </trkpt>
      <trkpt lat="34.00177" lon="77.22312">
        <ele>3349.6</ele>
        <time>2015-09-01T06:22:34Z</time>
      </trkpt>
      <trkpt lat="34.00166" lon="77.22324">
        <ele>3348.8</ele>
        <time>2015-09-01T06:22:47Z</time>
      </trkpt>
      <trkpt lat="34.00164" lon="77.22326">
        <ele>3348.4</ele>
        <time>2015-09-01T06:22:50Z</time>
      </trkpt>
      <trkpt lat="34.00161" lon="77.22331">
        <ele>3347.4</ele>
        <time>2015-09-01T06:22:57Z</time>
      </trkpt>
      <trkpt lat="34.00157" lon="77.22338">
        <ele>3346.2</ele>
        <time>2015-09-01T06:23:06Z</time>
      </trkpt>
      <trkpt lat="34.00156" lon="77.22343">
        <ele>3346</ele>
        <time>2015-09-01T06:23:10Z</time>
      </trkpt>
      <trkpt lat="34.00155" lon="77.22349">
        <ele>3345.2</ele>
        <time>2015-09-01T06:23:15Z</time>
      </trkpt>
      <trkpt lat="34.00152" lon="77.22358">
        <ele>3344.2</ele>
        <time>2015-09-01T06:23:21Z</time>
      </trkpt>
      <trkpt lat="34.00152" lon="77.22368">
        <ele>3343.2</ele>
        <time>2015-09-01T06:23:28Z</time>
      </trkpt>
      <trkpt lat="34.00152" lon="77.2237">
        <ele>3343.2</ele>
        <time>2015-09-01T06:23:29Z</time>
      </trkpt>
      <trkpt lat="34.00153" lon="77.22391">
        <ele>3342.2</ele>
        <time>2015-09-01T06:23:45Z</time>
      </trkpt>
      <trkpt lat="34.00157" lon="77.22412">
        <ele>3341.4</ele>
        <time>2015-09-01T06:23:59Z</time>
      </trkpt>
      <trkpt lat="34.00155" lon="77.2242">
        <ele>3341.2</ele>
        <time>2015-09-01T06:24:04Z</time>
      </trkpt>
      <trkpt lat="34.00148" lon="77.2244">
        <ele>3340.6</ele>
        <time>2015-09-01T06:24:20Z</time>
      </trkpt>
      <trkpt lat="34.00147" lon="77.22443">
        <ele>3340.4</ele>
        <time>2015-09-01T06:24:22Z</time>
      </trkpt>
      <trkpt lat="34.00148" lon="77.22445">
        <ele>3340</ele>
        <time>2015-09-01T06:24:24Z</time>
      </trkpt>
      <trkpt lat="34.00144" lon="77.22468">
        <ele>3339.8</ele>
        <time>2015-09-01T06:24:40Z</time>
      </trkpt>
      <trkpt lat="34.00142" lon="77.2249">
        <ele>3339.4</ele>
        <time>2015-09-01T06:24:58Z</time>
      </trkpt>
      <trkpt lat="34.00141" lon="77.225">
        <ele>3339.6</ele>
        <time>2015-09-01T06:25:05Z</time>
      </trkpt>
      <trkpt lat="34.00136" lon="77.22521">
        <ele>3339.2</ele>
        <time>2015-09-01T06:25:20Z</time>
      </trkpt>
      <trkpt lat="34.00135" lon="77.22522">
        <ele>3339.2</ele>
        <time>2015-09-01T06:25:21Z</time>
      </trkpt>
      <trkpt lat="34.00133" lon="77.22524">
        <ele>3339</ele>
        <time>2015-09-01T06:25:24Z</time>
      </trkpt>
      <trkpt lat="34.00127" lon="77.22528">
        <ele>3338</ele>
        <time>2015-09-01T06:25:30Z</time>
      </trkpt>
      <trkpt lat="34.00112" lon="77.22542">
        <ele>3337.6</ele>
        <time>2015-09-01T06:25:47Z</time>
      </trkpt>
      <trkpt lat="34.00106" lon="77.22548">
        <ele>3336.8</ele>
        <time>2015-09-01T06:25:54Z</time>
      </trkpt>
      <trkpt lat="34.00101" lon="77.22553">
        <ele>3336.6</ele>
        <time>2015-09-01T06:25:59Z</time>
      </trkpt>
      <trkpt lat="34.00088" lon="77.22568">
        <ele>3336.4</ele>
        <time>2015-09-01T06:26:13Z</time>
      </trkpt>
      <trkpt lat="34.00084" lon="77.22571">
        <ele>3335.8</ele>
        <time>2015-09-01T06:26:17Z</time>
      </trkpt>
      <trkpt lat="34.00082" lon="77.22573">
        <ele>3335.8</ele>
        <time>2015-09-01T06:26:20Z</time>
      </trkpt>
      <trkpt lat="34.0008" lon="77.22575">
        <ele>3335.6</ele>
        <time>2015-09-01T06:26:22Z</time>
      </trkpt>
      <trkpt lat="34.00069" lon="77.22589">
        <ele>3335</ele>
        <time>2015-09-01T06:26:36Z</time>
      </trkpt>
      <trkpt lat="34.00066" lon="77.22592">
        <ele>3334.8</ele>
        <time>2015-09-01T06:26:40Z</time>
      </trkpt>
      <trkpt lat="34.00054" lon="77.22601">
        <ele>3333.8</ele>
        <time>2015-09-01T06:26:52Z</time>
      </trkpt>
      <trkpt lat="34.00048" lon="77.22607">
        <ele>3333.2</ele>
        <time>2015-09-01T06:26:59Z</time>
      </trkpt>
      <trkpt lat="34.00041" lon="77.22618">
        <ele>3332.6</ele>
        <time>2015-09-01T06:27:09Z</time>
      </trkpt>
      <trkpt lat="34.0004" lon="77.22619">
        <ele>3332.6</ele>
        <time>2015-09-01T06:27:10Z</time>
      </trkpt>
      <trkpt lat="34.00037" lon="77.22623">
        <ele>3332.2</ele>
        <time>2015-09-01T06:27:15Z</time>
      </trkpt>
      <trkpt lat="34.00036" lon="77.22625">
        <ele>3332.2</ele>
        <time>2015-09-01T06:27:17Z</time>
      </trkpt>
      <trkpt lat="34.00034" lon="77.22634">
        <ele>3331.6</ele>
        <time>2015-09-01T06:27:24Z</time>
      </trkpt>
      <trkpt lat="34.00036" lon="77.22638">
        <ele>3331.4</ele>
        <time>2015-09-01T06:27:27Z</time>
      </trkpt>
      <trkpt lat="34.00034" lon="77.22649">
        <ele>3331</ele>
        <time>2015-09-01T06:27:36Z</time>
      </trkpt>
      <trkpt lat="34.00039" lon="77.22658">
        <ele>3330.4</ele>
        <time>2015-09-01T06:27:41Z</time>
      </trkpt>
      <trkpt lat="34.00045" lon="77.2267">
        <ele>3329.4</ele>
        <time>2015-09-01T06:27:49Z</time>
      </trkpt>
      <trkpt lat="34.00046" lon="77.22681">
        <ele>3328.4</ele>
        <time>2015-09-01T06:28:00Z</time>
      </trkpt>
      <trkpt lat="34.00042" lon="77.22694">
        <ele>3327.2</ele>
        <time>2015-09-01T06:28:10Z</time>
      </trkpt>
      <trkpt lat="34.0004" lon="77.227">
        <ele>3326.6</ele>
        <time>2015-09-01T06:28:15Z</time>
      </trkpt>
      <trkpt lat="34.00039" lon="77.22703">
        <ele>3326.2</ele>
        <time>2015-09-01T06:28:18Z</time>
      </trkpt>
      <trkpt lat="34.00033" lon="77.22711">
        <ele>3325.2</ele>
        <time>2015-09-01T06:28:26Z</time>
      </trkpt>
      <trkpt lat="34.00032" lon="77.22712">
        <ele>3325</ele>
        <time>2015-09-01T06:28:27Z</time>
      </trkpt>
      <trkpt lat="34.00022" lon="77.22718">
        <ele>3324</ele>
        <time>2015-09-01T06:28:39Z</time>
      </trkpt>
      <trkpt lat="34.00003" lon="77.2272">
        <ele>3323.2</ele>
        <time>2015-09-01T06:28:52Z</time>
      </trkpt>
      <trkpt lat="34.00002" lon="77.22722">
        <ele>3322.8</ele>
        <time>2015-09-01T06:28:54Z</time>
      </trkpt>
      <trkpt lat="33.99994" lon="77.22734">
        <ele>3321.8</ele>
        <time>2015-09-01T06:29:04Z</time>
      </trkpt>
      <trkpt lat="33.99977" lon="77.22734">
        <ele>3321.4</ele>
        <time>2015-09-01T06:29:17Z</time>
      </trkpt>
      <trkpt lat="33.99967" lon="77.22736">
        <ele>3321</ele>
        <time>2015-09-01T06:29:23Z</time>
      </trkpt>
      <trkpt lat="33.99967" lon="77.22738">
        <ele>3320.8</ele>
        <time>2015-09-01T06:29:24Z</time>
      </trkpt>
      <trkpt lat="33.99964" lon="77.22757">
        <ele>3320</ele>
        <time>2015-09-01T06:29:35Z</time>
      </trkpt>
      <trkpt lat="33.99963" lon="77.22762">
        <ele>3319.8</ele>
        <time>2015-09-01T06:29:39Z</time>
      </trkpt>
      <trkpt lat="33.99957" lon="77.22771">
        <ele>3318.8</ele>
        <time>2015-09-01T06:29:48Z</time>
      </trkpt>
      <trkpt lat="33.99957" lon="77.22771">
        <ele>3318.6</ele>
        <time>2015-09-01T06:29:49Z</time>
      </trkpt>
      <trkpt lat="33.99946" lon="77.22776">
        <ele>3317.6</ele>
        <time>2015-09-01T06:30:00Z</time>
      </trkpt>
      <trkpt lat="33.99928" lon="77.22786">
        <ele>3316.8</ele>
        <time>2015-09-01T06:30:13Z</time>
      </trkpt>
      <trkpt lat="33.99926" lon="77.2279">
        <ele>3316.6</ele>
        <time>2015-09-01T06:30:16Z</time>
      </trkpt>
      <trkpt lat="33.99917" lon="77.22796">
        <ele>3316.4</ele>
        <time>2015-09-01T06:30:25Z</time>
      </trkpt>
      <trkpt lat="33.99914" lon="77.22796">
        <ele>3316.2</ele>
        <time>2015-09-01T06:30:27Z</time>
      </trkpt>
      <trkpt lat="33.9991" lon="77.22798">
        <ele>3316.2</ele>
        <time>2015-09-01T06:30:32Z</time>
      </trkpt>
      <trkpt lat="33.99904" lon="77.22804">
        <ele>3315.6</ele>
        <time>2015-09-01T06:30:40Z</time>
      </trkpt>
      <trkpt lat="33.99895" lon="77.22815">
        <ele>3314.6</ele>
        <time>2015-09-01T06:30:51Z</time>
      </trkpt>
      <trkpt lat="33.99893" lon="77.22817">
        <ele>3314.2</ele>
        <time>2015-09-01T06:30:54Z</time>
      </trkpt>
      <trkpt lat="33.99882" lon="77.22828">
        <ele>3313.6</ele>
        <time>2015-09-01T06:31:05Z</time>
      </trkpt>
      <trkpt lat="33.99877" lon="77.22837">
        <ele>3312.6</ele>
        <time>2015-09-01T06:31:14Z</time>
      </trkpt>
      <trkpt lat="33.99864" lon="77.22852">
        <ele>3312</ele>
        <time>2015-09-01T06:31:27Z</time>
      </trkpt>
      <trkpt lat="33.99854" lon="77.22872">
        <ele>3311.6</ele>
        <time>2015-09-01T06:31:40Z</time>
      </trkpt>
      <trkpt lat="33.99851" lon="77.22878">
        <ele>3311.6</ele>
        <time>2015-09-01T06:31:45Z</time>
      </trkpt>
      <trkpt lat="33.99849" lon="77.22887">
        <ele>3311.4</ele>
        <time>2015-09-01T06:31:53Z</time>
      </trkpt>
      <trkpt lat="33.99839" lon="77.22908">
        <ele>3311.4</ele>
        <time>2015-09-01T06:32:11Z</time>
      </trkpt>
      <trkpt lat="33.99825" lon="77.22923">
        <ele>3310.8</ele>
        <time>2015-09-01T06:32:25Z</time>
      </trkpt>
      <trkpt lat="33.99821" lon="77.22928">
        <ele>3310.4</ele>
        <time>2015-09-01T06:32:31Z</time>
      </trkpt>
      <trkpt lat="33.99815" lon="77.22946">
        <ele>3310.4</ele>
        <time>2015-09-01T06:32:44Z</time>
      </trkpt>
      <trkpt lat="33.99809" lon="77.22962">
        <ele>3309.4</ele>
        <time>2015-09-01T06:32:56Z</time>
      </trkpt>
      <trkpt lat="33.99805" lon="77.22979">
        <ele>3308.4</ele>
        <time>2015-09-01T06:33:10Z</time>
      </trkpt>
      <trkpt lat="33.99801" lon="77.22987">
        <ele>3308.2</ele>
        <time>2015-09-01T06:33:17Z</time>
      </trkpt>
      <trkpt lat="33.99799" lon="77.2299">
        <ele>3307.8</ele>
        <time>2015-09-01T06:33:21Z</time>
      </trkpt>
      <trkpt lat="33.99797" lon="77.22993">
        <ele>3307.6</ele>
        <time>2015-09-01T06:33:23Z</time>
      </trkpt>
      <trkpt lat="33.99796" lon="77.22995">
        <ele>3307.6</ele>
        <time>2015-09-01T06:33:26Z</time>
      </trkpt>
      <trkpt lat="33.99798" lon="77.23">
        <ele>3307.8</ele>
        <time>2015-09-01T06:33:33Z</time>
      </trkpt>
      <trkpt lat="33.99799" lon="77.23001">
        <ele>3307.6</ele>
        <time>2015-09-01T06:33:35Z</time>
      </trkpt>
      <trkpt lat="33.99801" lon="77.23002">
        <ele>3307.4</ele>
        <time>2015-09-01T06:33:37Z</time>
      </trkpt>
      <trkpt lat="33.99796" lon="77.23001">
        <ele>3307.4</ele>
        <time>2015-09-01T06:33:45Z</time>
      </trkpt>
      <trkpt lat="33.99793" lon="77.23">
        <ele>3307.6</ele>
        <time>2015-09-01T06:33:47Z</time>
      </trkpt>
      <trkpt lat="33.99787" lon="77.23008">
        <ele>3307.6</ele>
        <time>2015-09-01T06:33:57Z</time>
      </trkpt>
      <trkpt lat="33.99777" lon="77.23027">
        <ele>3308</ele>
        <time>2015-09-01T06:34:13Z</time>
      </trkpt>
      <trkpt lat="33.99767" lon="77.23047">
        <ele>3308.4</ele>
        <time>2015-09-01T06:34:29Z</time>
      </trkpt>
      <trkpt lat="33.99763" lon="77.23055">
        <ele>3308.4</ele>
        <time>2015-09-01T06:34:36Z</time>
      </trkpt>
      <trkpt lat="33.99762" lon="77.23056">
        <ele>3308.4</ele>
        <time>2015-09-01T06:34:37Z</time>
      </trkpt>
      <trkpt lat="33.99755" lon="77.23076">
        <ele>3308.4</ele>
        <time>2015-09-01T06:34:54Z</time>
      </trkpt>
      <trkpt lat="33.9975" lon="77.23097">
        <ele>3308.8</ele>
        <time>2015-09-01T06:35:09Z</time>
      </trkpt>
      <trkpt lat="33.99751" lon="77.23112">
        <ele>3308.8</ele>
        <time>2015-09-01T06:35:19Z</time>
      </trkpt>
      <trkpt lat="33.99745" lon="77.23133">
        <ele>3308.4</ele>
        <time>2015-09-01T06:35:35Z</time>
      </trkpt>
      <trkpt lat="33.99739" lon="77.23154">
        <ele>3308.4</ele>
        <time>2015-09-01T06:35:50Z</time>
      </trkpt>
      <trkpt lat="33.99733" lon="77.23174">
        <ele>3308.8</ele>
        <time>2015-09-01T06:36:07Z</time>
      </trkpt>
      <trkpt lat="33.9973" lon="77.23196">
        <ele>3308.2</ele>
        <time>2015-09-01T06:36:22Z</time>
      </trkpt>
      <trkpt lat="33.99729" lon="77.23203">
        <ele>3308.2</ele>
        <time>2015-09-01T06:36:27Z</time>
      </trkpt>
      <trkpt lat="33.9972" lon="77.23223">
        <ele>3308.6</ele>
        <time>2015-09-01T06:36:41Z</time>
      </trkpt>
      <trkpt lat="33.99714" lon="77.23232">
        <ele>3308.8</ele>
        <time>2015-09-01T06:36:49Z</time>
      </trkpt>
      <trkpt lat="33.99714" lon="77.23251">
        <ele>3309.6</ele>
        <time>2015-09-01T06:37:03Z</time>
      </trkpt>
      <trkpt lat="33.99712" lon="77.23262">
        <ele>3309.8</ele>
        <time>2015-09-01T06:37:12Z</time>
      </trkpt>
      <trkpt lat="33.99711" lon="77.23276">
        <ele>3310.2</ele>
        <time>2015-09-01T06:37:22Z</time>
      </trkpt>
      <trkpt lat="33.99709" lon="77.23295">
        <ele>3310</ele>
        <time>2015-09-01T06:37:35Z</time>
      </trkpt>
      <trkpt lat="33.99706" lon="77.2331">
        <ele>3309.8</ele>
        <time>2015-09-01T06:37:45Z</time>
      </trkpt>
      <trkpt lat="33.99689" lon="77.23319">
        <ele>3310</ele>
        <time>2015-09-01T06:37:57Z</time>
      </trkpt>
      <trkpt lat="33.99687" lon="77.23319">
        <ele>3309.8</ele>
        <time>2015-09-01T06:37:59Z</time>
      </trkpt>
      <trkpt lat="33.99681" lon="77.23322">
        <ele>3310</ele>
        <time>2015-09-01T06:38:08Z</time>
      </trkpt>
      <trkpt lat="33.99677" lon="77.23322">
        <ele>3310</ele>
        <time>2015-09-01T06:38:10Z</time>
      </trkpt>
      <trkpt lat="33.99673" lon="77.2333">
        <ele>3309.8</ele>
        <time>2015-09-01T06:38:16Z</time>
      </trkpt>
      <trkpt lat="33.99665" lon="77.23348">
        <ele>3309.8</ele>
        <time>2015-09-01T06:38:32Z</time>
      </trkpt>
      <trkpt lat="33.99662" lon="77.23353">
        <ele>3309.8</ele>
        <time>2015-09-01T06:38:36Z</time>
      </trkpt>
      <trkpt lat="33.99646" lon="77.23365">
        <ele>3309.6</ele>
        <time>2015-09-01T06:38:49Z</time>
      </trkpt>
      <trkpt lat="33.99626" lon="77.23366">
        <ele>3309.4</ele>
        <time>2015-09-01T06:38:59Z</time>
      </trkpt>
      <trkpt lat="33.99631" lon="77.23372">
        <ele>3309.4</ele>
        <time>2015-09-01T06:39:08Z</time>
      </trkpt>
      <trkpt lat="33.99628" lon="77.23373">
        <ele>3309.6</ele>
        <time>2015-09-01T06:39:11Z</time>
      </trkpt>
      <trkpt lat="33.99625" lon="77.23377">
        <ele>3309.6</ele>
        <time>2015-09-01T06:39:15Z</time>
      </trkpt>
      <trkpt lat="33.99623" lon="77.23378">
        <ele>3309.6</ele>
        <time>2015-09-01T06:39:18Z</time>
      </trkpt>
      <trkpt lat="33.99619" lon="77.23381">
        <ele>3309.6</ele>
        <time>2015-09-01T06:39:22Z</time>
      </trkpt>
      <trkpt lat="33.99609" lon="77.23387">
        <ele>3309.4</ele>
        <time>2015-09-01T06:39:30Z</time>
      </trkpt>
      <trkpt lat="33.99594" lon="77.23402">
        <ele>3309</ele>
        <time>2015-09-01T06:39:45Z</time>
      </trkpt>
      <trkpt lat="33.99583" lon="77.23416">
        <ele>3309.4</ele>
        <time>2015-09-01T06:40:00Z</time>
      </trkpt>
      <trkpt lat="33.99564" lon="77.23416">
        <ele>3309.6</ele>
        <time>2015-09-01T06:40:14Z</time>
      </trkpt>
      <trkpt lat="33.99545" lon="77.23413">
        <ele>3310.4</ele>
        <time>2015-09-01T06:40:30Z</time>
      </trkpt>
      <trkpt lat="33.99544" lon="77.23411">
        <ele>3310.6</ele>
        <time>2015-09-01T06:40:32Z</time>
      </trkpt>
      <trkpt lat="33.99526" lon="77.23411">
        <ele>3311.2</ele>
        <time>2015-09-01T06:40:45Z</time>
      </trkpt>
      <trkpt lat="33.99518" lon="77.23425">
        <ele>3311.6</ele>
        <time>2015-09-01T06:40:57Z</time>
      </trkpt>
      <trkpt lat="33.99513" lon="77.23444">
        <ele>3312</ele>
        <time>2015-09-01T06:41:10Z</time>
      </trkpt>
      <trkpt lat="33.99511" lon="77.23446">
        <ele>3312.2</ele>
        <time>2015-09-01T06:41:12Z</time>
      </trkpt>
      <trkpt lat="33.99509" lon="77.23448">
        <ele>3312.2</ele>
        <time>2015-09-01T06:41:15Z</time>
      </trkpt>
      <trkpt lat="33.99507" lon="77.23452">
        <ele>3312.4</ele>
        <time>2015-09-01T06:41:21Z</time>
      </trkpt>
      <trkpt lat="33.99506" lon="77.23453">
        <ele>3312.6</ele>
        <time>2015-09-01T06:41:22Z</time>
      </trkpt>
      <trkpt lat="33.99505" lon="77.23454">
        <ele>3312.8</ele>
        <time>2015-09-01T06:41:23Z</time>
      </trkpt>
      <trkpt lat="33.99504" lon="77.23456">
        <ele>3313.2</ele>
        <time>2015-09-01T06:41:26Z</time>
      </trkpt>
      <trkpt lat="33.99504" lon="77.23457">
        <ele>3313.4</ele>
        <time>2015-09-01T06:41:28Z</time>
      </trkpt>
      <trkpt lat="33.99504" lon="77.23458">
        <ele>3313.2</ele>
        <time>2015-09-01T06:41:43Z</time>
      </trkpt>
      <trkpt lat="33.99504" lon="77.2346">
        <ele>3313</ele>
        <time>2015-09-01T06:41:45Z</time>
      </trkpt>
      <trkpt lat="33.99503" lon="77.23464">
        <ele>3312.8</ele>
        <time>2015-09-01T06:41:47Z</time>
      </trkpt>
      <trkpt lat="33.99496" lon="77.2348">
        <ele>3312.4</ele>
        <time>2015-09-01T06:42:01Z</time>
      </trkpt>
      <trkpt lat="33.99495" lon="77.23485">
        <ele>3312.4</ele>
        <time>2015-09-01T06:42:07Z</time>
      </trkpt>
      <trkpt lat="33.99492" lon="77.23496">
        <ele>3313.4</ele>
        <time>2015-09-01T06:43:14Z</time>
      </trkpt>
      <trkpt lat="33.99488" lon="77.23493">
        <ele>3313.2</ele>
        <time>2015-09-01T06:43:23Z</time>
      </trkpt>
      <trkpt lat="33.99485" lon="77.2349">
        <ele>3312.4</ele>
        <time>2015-09-01T06:43:51Z</time>
      </trkpt>
      <trkpt lat="33.99478" lon="77.235">
        <ele>3312.2</ele>
        <time>2015-09-01T06:44:01Z</time>
      </trkpt>
      <trkpt lat="33.99477" lon="77.23501">
        <ele>3312</ele>
        <time>2015-09-01T06:44:05Z</time>
      </trkpt>
      <trkpt lat="33.99477" lon="77.23504">
        <ele>3312</ele>
        <time>2015-09-01T06:44:07Z</time>
      </trkpt>
      <trkpt lat="33.99475" lon="77.23524">
        <ele>3311.6</ele>
        <time>2015-09-01T06:44:21Z</time>
      </trkpt>
      <trkpt lat="33.99475" lon="77.23525">
        <ele>3311.6</ele>
        <time>2015-09-01T06:44:22Z</time>
      </trkpt>
      <trkpt lat="33.99472" lon="77.23535">
        <ele>3311.4</ele>
        <time>2015-09-01T06:44:30Z</time>
      </trkpt>
      <trkpt lat="33.99473" lon="77.23536">
        <ele>3311.2</ele>
        <time>2015-09-01T06:44:33Z</time>
      </trkpt>
      <trkpt lat="33.99472" lon="77.23541">
        <ele>3311.2</ele>
        <time>2015-09-01T06:44:39Z</time>
      </trkpt>
      <trkpt lat="33.99472" lon="77.23546">
        <ele>3311.2</ele>
        <time>2015-09-01T06:44:42Z</time>
      </trkpt>
      <trkpt lat="33.99474" lon="77.23556">
        <ele>3311.4</ele>
        <time>2015-09-01T06:44:49Z</time>
      </trkpt>
      <trkpt lat="33.99472" lon="77.23576">
        <ele>3310.8</ele>
        <time>2015-09-01T06:45:07Z</time>
      </trkpt>
      <trkpt lat="33.99473" lon="77.23582">
        <ele>3310.4</ele>
        <time>2015-09-01T06:45:12Z</time>
      </trkpt>
      <trkpt lat="33.99477" lon="77.23587">
        <ele>3310.4</ele>
        <time>2015-09-01T06:45:16Z</time>
      </trkpt>
      <trkpt lat="33.99477" lon="77.23593">
        <ele>3309.4</ele>
        <time>2015-09-01T06:45:24Z</time>
      </trkpt>
      <trkpt lat="33.99477" lon="77.23594">
        <ele>3309.4</ele>
        <time>2015-09-01T06:45:25Z</time>
      </trkpt>
      <trkpt lat="33.99476" lon="77.23596">
        <ele>3309.2</ele>
        <time>2015-09-01T06:45:27Z</time>
      </trkpt>
      <trkpt lat="33.99474" lon="77.23604">
        <ele>3309.2</ele>
        <time>2015-09-01T06:45:34Z</time>
      </trkpt>
      <trkpt lat="33.99472" lon="77.23604">
        <ele>3309.2</ele>
        <time>2015-09-01T06:45:36Z</time>
      </trkpt>
      <trkpt lat="33.99471" lon="77.23605">
        <ele>3309.8</ele>
        <time>2015-09-01T06:46:35Z</time>
      </trkpt>
      <trkpt lat="33.99474" lon="77.23608">
        <ele>3309.6</ele>
        <time>2015-09-01T06:46:38Z</time>
      </trkpt>
      <trkpt lat="33.99474" lon="77.23612">
        <ele>3309.2</ele>
        <time>2015-09-01T06:46:41Z</time>
      </trkpt>
      <trkpt lat="33.99474" lon="77.23629">
        <ele>3308.4</ele>
        <time>2015-09-01T06:46:52Z</time>
      </trkpt>
      <trkpt lat="33.99474" lon="77.23637">
        <ele>3308</ele>
        <time>2015-09-01T06:46:58Z</time>
      </trkpt>
      <trkpt lat="33.99472" lon="77.23659">
        <ele>3307.8</ele>
        <time>2015-09-01T06:47:14Z</time>
      </trkpt>
      <trkpt lat="33.99472" lon="77.23662">
        <ele>3307.2</ele>
        <time>2015-09-01T06:47:16Z</time>
      </trkpt>
      <trkpt lat="33.9947" lon="77.23684">
        <ele>3306.6</ele>
        <time>2015-09-01T06:47:32Z</time>
      </trkpt>
      <trkpt lat="33.9947" lon="77.23707">
        <ele>3306.4</ele>
        <time>2015-09-01T06:47:47Z</time>
      </trkpt>
      <trkpt lat="33.99469" lon="77.2373">
        <ele>3307</ele>
        <time>2015-09-01T06:48:03Z</time>
      </trkpt>
      <trkpt lat="33.99472" lon="77.23748">
        <ele>3307.2</ele>
        <time>2015-09-01T06:48:13Z</time>
      </trkpt>
      <trkpt lat="33.99469" lon="77.23758">
        <ele>3307.6</ele>
        <time>2015-09-01T06:48:20Z</time>
      </trkpt>
      <trkpt lat="33.99467" lon="77.23763">
        <ele>3307.6</ele>
        <time>2015-09-01T06:48:23Z</time>
      </trkpt>
      <trkpt lat="33.99467" lon="77.23768">
        <ele>3307.6</ele>
        <time>2015-09-01T06:48:26Z</time>
      </trkpt>
      <trkpt lat="33.99463" lon="77.23775">
        <ele>3307.6</ele>
        <time>2015-09-01T06:48:33Z</time>
      </trkpt>
      <trkpt lat="33.99463" lon="77.23779">
        <ele>3307.6</ele>
        <time>2015-09-01T06:48:36Z</time>
      </trkpt>
      <trkpt lat="33.99459" lon="77.23791">
        <ele>3307.8</ele>
        <time>2015-09-01T06:48:46Z</time>
      </trkpt>
      <trkpt lat="33.99459" lon="77.23795">
        <ele>3307.6</ele>
        <time>2015-09-01T06:48:49Z</time>
      </trkpt>
      <trkpt lat="33.99457" lon="77.23798">
        <ele>3307.6</ele>
        <time>2015-09-01T06:48:52Z</time>
      </trkpt>
      <trkpt lat="33.99449" lon="77.23808">
        <ele>3308</ele>
        <time>2015-09-01T06:49:05Z</time>
      </trkpt>
      <trkpt lat="33.99451" lon="77.23819">
        <ele>3308.4</ele>
        <time>2015-09-01T06:49:10Z</time>
      </trkpt>
      <trkpt lat="33.99451" lon="77.23825">
        <ele>3308.6</ele>
        <time>2015-09-01T06:49:14Z</time>
      </trkpt>
      <trkpt lat="33.99444" lon="77.23841">
        <ele>3309.4</ele>
        <time>2015-09-01T06:49:25Z</time>
      </trkpt>
      <trkpt lat="33.99443" lon="77.23842">
        <ele>3309.4</ele>
        <time>2015-09-01T06:49:26Z</time>
      </trkpt>
      <trkpt lat="33.99441" lon="77.23845">
        <ele>3309.4</ele>
        <time>2015-09-01T06:49:28Z</time>
      </trkpt>
      <trkpt lat="33.9944" lon="77.23849">
        <ele>3309.2</ele>
        <time>2015-09-01T06:49:32Z</time>
      </trkpt>
      <trkpt lat="33.99437" lon="77.23852">
        <ele>3309.2</ele>
        <time>2015-09-01T06:49:34Z</time>
      </trkpt>
      <trkpt lat="33.99434" lon="77.2386">
        <ele>3309.8</ele>
        <time>2015-09-01T06:49:41Z</time>
      </trkpt>
      <trkpt lat="33.99432" lon="77.23861">
        <ele>3309.8</ele>
        <time>2015-09-01T06:49:44Z</time>
      </trkpt>
      <trkpt lat="33.9943" lon="77.23868">
        <ele>3309.8</ele>
        <time>2015-09-01T06:49:53Z</time>
      </trkpt>
      <trkpt lat="33.99428" lon="77.23872">
        <ele>3309.8</ele>
        <time>2015-09-01T06:49:56Z</time>
      </trkpt>
      <trkpt lat="33.99426" lon="77.23874">
        <ele>3309.8</ele>
        <time>2015-09-01T06:49:58Z</time>
      </trkpt>
      <trkpt lat="33.9942" lon="77.23884">
        <ele>3310</ele>
        <time>2015-09-01T06:50:04Z</time>
      </trkpt>
      <trkpt lat="33.99413" lon="77.23899">
        <ele>3310</ele>
        <time>2015-09-01T06:50:23Z</time>
      </trkpt>
      <trkpt lat="33.99411" lon="77.23899">
        <ele>3310</ele>
        <time>2015-09-01T06:50:25Z</time>
      </trkpt>
      <trkpt lat="33.99408" lon="77.239">
        <ele>3310</ele>
        <time>2015-09-01T06:50:27Z</time>
      </trkpt>
      <trkpt lat="33.99407" lon="77.23907">
        <ele>3310</ele>
        <time>2015-09-01T06:50:32Z</time>
      </trkpt>
      <trkpt lat="33.99406" lon="77.23911">
        <ele>3310.2</ele>
        <time>2015-09-01T06:50:35Z</time>
      </trkpt>
      <trkpt lat="33.99406" lon="77.23914">
        <ele>3310.4</ele>
        <time>2015-09-01T06:50:37Z</time>
      </trkpt>
      <trkpt lat="33.99403" lon="77.23923">
        <ele>3310.6</ele>
        <time>2015-09-01T06:50:45Z</time>
      </trkpt>
      <trkpt lat="33.99402" lon="77.23925">
        <ele>3310.6</ele>
        <time>2015-09-01T06:50:47Z</time>
      </trkpt>
      <trkpt lat="33.99401" lon="77.23928">
        <ele>3310.6</ele>
        <time>2015-09-01T06:50:49Z</time>
      </trkpt>
      <trkpt lat="33.99401" lon="77.2393">
        <ele>3310.6</ele>
        <time>2015-09-01T06:50:51Z</time>
      </trkpt>
      <trkpt lat="33.99398" lon="77.23937">
        <ele>3310.4</ele>
        <time>2015-09-01T06:50:58Z</time>
      </trkpt>
      <trkpt lat="33.99397" lon="77.23941">
        <ele>3310.4</ele>
        <time>2015-09-01T06:51:01Z</time>
      </trkpt>
      <trkpt lat="33.99396" lon="77.23948">
        <ele>3310.4</ele>
        <time>2015-09-01T06:51:06Z</time>
      </trkpt>
      <trkpt lat="33.99392" lon="77.23953">
        <ele>3310.4</ele>
        <time>2015-09-01T06:51:11Z</time>
      </trkpt>
      <trkpt lat="33.99388" lon="77.23957">
        <ele>3310.4</ele>
        <time>2015-09-01T06:51:15Z</time>
      </trkpt>
      <trkpt lat="33.9938" lon="77.23966">
        <ele>3310.6</ele>
        <time>2015-09-01T06:51:23Z</time>
      </trkpt>
      <trkpt lat="33.99369" lon="77.23985">
        <ele>3311</ele>
        <time>2015-09-01T06:51:39Z</time>
      </trkpt>
      <trkpt lat="33.99354" lon="77.23999">
        <ele>3311.2</ele>
        <time>2015-09-01T06:51:56Z</time>
      </trkpt>
      <trkpt lat="33.99353" lon="77.24001">
        <ele>3311.2</ele>
        <time>2015-09-01T06:51:58Z</time>
      </trkpt>
      <trkpt lat="33.9935" lon="77.24017">
        <ele>3311.4</ele>
        <time>2015-09-01T06:52:10Z</time>
      </trkpt>
      <trkpt lat="33.99348" lon="77.24021">
        <ele>3311.2</ele>
        <time>2015-09-01T06:52:13Z</time>
      </trkpt>
      <trkpt lat="33.99341" lon="77.24033">
        <ele>3311.4</ele>
        <time>2015-09-01T06:52:23Z</time>
      </trkpt>
      <trkpt lat="33.9934" lon="77.24036">
        <ele>3311.2</ele>
        <time>2015-09-01T06:52:26Z</time>
      </trkpt>
      <trkpt lat="33.99334" lon="77.24044">
        <ele>3311</ele>
        <time>2015-09-01T06:52:32Z</time>
      </trkpt>
      <trkpt lat="33.99333" lon="77.24047">
        <ele>3311</ele>
        <time>2015-09-01T06:52:35Z</time>
      </trkpt>
      <trkpt lat="33.9933" lon="77.24054">
        <ele>3311.2</ele>
        <time>2015-09-01T06:52:42Z</time>
      </trkpt>
      <trkpt lat="33.99322" lon="77.24059">
        <ele>3311.4</ele>
        <time>2015-09-01T06:52:48Z</time>
      </trkpt>
      <trkpt lat="33.99315" lon="77.24065">
        <ele>3311.2</ele>
        <time>2015-09-01T06:52:54Z</time>
      </trkpt>
      <trkpt lat="33.99316" lon="77.24067">
        <ele>3311</ele>
        <time>2015-09-01T06:52:56Z</time>
      </trkpt>
      <trkpt lat="33.99306" lon="77.2408">
        <ele>3310.8</ele>
        <time>2015-09-01T06:53:07Z</time>
      </trkpt>
      <trkpt lat="33.99305" lon="77.24086">
        <ele>3310.8</ele>
        <time>2015-09-01T06:53:14Z</time>
      </trkpt>
      <trkpt lat="33.99292" lon="77.24099">
        <ele>3310.8</ele>
        <time>2015-09-01T06:53:29Z</time>
      </trkpt>
      <trkpt lat="33.99289" lon="77.24108">
        <ele>3311</ele>
        <time>2015-09-01T06:53:38Z</time>
      </trkpt>
      <trkpt lat="33.99278" lon="77.24126">
        <ele>3310.8</ele>
        <time>2015-09-01T06:53:54Z</time>
      </trkpt>
      <trkpt lat="33.99267" lon="77.24145">
        <ele>3310.4</ele>
        <time>2015-09-01T06:54:09Z</time>
      </trkpt>
      <trkpt lat="33.99261" lon="77.2415">
        <ele>3310.2</ele>
        <time>2015-09-01T06:54:14Z</time>
      </trkpt>
      <trkpt lat="33.99256" lon="77.24152">
        <ele>3310.2</ele>
        <time>2015-09-01T06:54:17Z</time>
      </trkpt>
      <trkpt lat="33.99244" lon="77.24166">
        <ele>3310.4</ele>
        <time>2015-09-01T06:54:31Z</time>
      </trkpt>
      <trkpt lat="33.99243" lon="77.24171">
        <ele>3310.6</ele>
        <time>2015-09-01T06:54:36Z</time>
      </trkpt>
      <trkpt lat="33.9924" lon="77.24174">
        <ele>3310.4</ele>
        <time>2015-09-01T06:54:40Z</time>
      </trkpt>
      <trkpt lat="33.99235" lon="77.24181">
        <ele>3310.4</ele>
        <time>2015-09-01T06:54:47Z</time>
      </trkpt>
      <trkpt lat="33.99225" lon="77.24196">
        <ele>3310.2</ele>
        <time>2015-09-01T06:55:03Z</time>
      </trkpt>
      <trkpt lat="33.99223" lon="77.24197">
        <ele>3310.2</ele>
        <time>2015-09-01T06:55:05Z</time>
      </trkpt>
      <trkpt lat="33.99222" lon="77.24202">
        <ele>3310.6</ele>
        <time>2015-09-01T06:55:14Z</time>
      </trkpt>
      <trkpt lat="33.99217" lon="77.24204">
        <ele>3310.8</ele>
        <time>2015-09-01T06:55:17Z</time>
      </trkpt>
      <trkpt lat="33.99206" lon="77.24217">
        <ele>3311.4</ele>
        <time>2015-09-01T06:55:37Z</time>
      </trkpt>
      <trkpt lat="33.99202" lon="77.24223">
        <ele>3312.2</ele>
        <time>2015-09-01T06:55:47Z</time>
      </trkpt>
      <trkpt lat="33.99203" lon="77.24225">
        <ele>3312.4</ele>
        <time>2015-09-01T06:55:49Z</time>
      </trkpt>
      <trkpt lat="33.99203" lon="77.24226">
        <ele>3312.4</ele>
        <time>2015-09-01T06:55:50Z</time>
      </trkpt>
      <trkpt lat="33.99199" lon="77.24229">
        <ele>3312.6</ele>
        <time>2015-09-01T06:55:53Z</time>
      </trkpt>
      <trkpt lat="33.99196" lon="77.24232">
        <ele>3312.8</ele>
        <time>2015-09-01T06:55:57Z</time>
      </trkpt>
      <trkpt lat="33.9918" lon="77.24243">
        <ele>3313.2</ele>
        <time>2015-09-01T06:56:07Z</time>
      </trkpt>
      <trkpt lat="33.99178" lon="77.24246">
        <ele>3313.2</ele>
        <time>2015-09-01T06:56:09Z</time>
      </trkpt>
      <trkpt lat="33.99179" lon="77.24251">
        <ele>3313.6</ele>
        <time>2015-09-01T06:56:13Z</time>
      </trkpt>
      <trkpt lat="33.99178" lon="77.24259">
        <ele>3314</ele>
        <time>2015-09-01T06:56:19Z</time>
      </trkpt>
      <trkpt lat="33.99175" lon="77.24262">
        <ele>3314.2</ele>
        <time>2015-09-01T06:56:23Z</time>
      </trkpt>
      <trkpt lat="33.99169" lon="77.24267">
        <ele>3314.6</ele>
        <time>2015-09-01T06:56:30Z</time>
      </trkpt>
      <trkpt lat="33.99167" lon="77.24268">
        <ele>3314.8</ele>
        <time>2015-09-01T06:56:33Z</time>
      </trkpt>
      <trkpt lat="33.99167" lon="77.24271">
        <ele>3314.8</ele>
        <time>2015-09-01T06:56:36Z</time>
      </trkpt>
      <trkpt lat="33.99164" lon="77.24284">
        <ele>3315</ele>
        <time>2015-09-01T06:56:40Z</time>
      </trkpt>
      <trkpt lat="33.99149" lon="77.24297">
        <ele>3315.4</ele>
        <time>2015-09-01T06:56:50Z</time>
      </trkpt>
      <trkpt lat="33.99147" lon="77.24301">
        <ele>3315.6</ele>
        <time>2015-09-01T06:56:53Z</time>
      </trkpt>
      <trkpt lat="33.99142" lon="77.2431">
        <ele>3315.8</ele>
        <time>2015-09-01T06:57:00Z</time>
      </trkpt>
      <trkpt lat="33.99139" lon="77.24313">
        <ele>3316</ele>
        <time>2015-09-01T06:57:05Z</time>
      </trkpt>
      <trkpt lat="33.99141" lon="77.24319">
        <ele>3316</ele>
        <time>2015-09-01T06:57:10Z</time>
      </trkpt>
      <trkpt lat="33.99131" lon="77.24326">
        <ele>3316</ele>
        <time>2015-09-01T06:57:19Z</time>
      </trkpt>
      <trkpt lat="33.99117" lon="77.24338">
        <ele>3316.4</ele>
        <time>2015-09-01T06:57:29Z</time>
      </trkpt>
      <trkpt lat="33.99116" lon="77.24339">
        <ele>3316.6</ele>
        <time>2015-09-01T06:57:31Z</time>
      </trkpt>
      <trkpt lat="33.99111" lon="77.24345">
        <ele>3316.6</ele>
        <time>2015-09-01T06:57:37Z</time>
      </trkpt>
      <trkpt lat="33.99101" lon="77.24347">
        <ele>3317.2</ele>
        <time>2015-09-01T06:57:51Z</time>
      </trkpt>
      <trkpt lat="33.99098" lon="77.24353">
        <ele>3317.4</ele>
        <time>2015-09-01T06:57:58Z</time>
      </trkpt>
      <trkpt lat="33.9909" lon="77.24357">
        <ele>3317.6</ele>
        <time>2015-09-01T06:58:05Z</time>
      </trkpt>
      <trkpt lat="33.99083" lon="77.24359">
        <ele>3318.6</ele>
        <time>2015-09-01T06:58:16Z</time>
      </trkpt>
      <trkpt lat="33.99081" lon="77.24361">
        <ele>3318.6</ele>
        <time>2015-09-01T06:58:18Z</time>
      </trkpt>
      <trkpt lat="33.99078" lon="77.24367">
        <ele>3319.2</ele>
        <time>2015-09-01T06:58:22Z</time>
      </trkpt>
      <trkpt lat="33.99077" lon="77.24371">
        <ele>3319.4</ele>
        <time>2015-09-01T06:58:24Z</time>
      </trkpt>
      <trkpt lat="33.99074" lon="77.24373">
        <ele>3319.6</ele>
        <time>2015-09-01T06:58:27Z</time>
      </trkpt>
      <trkpt lat="33.99069" lon="77.24387">
        <ele>3320.8</ele>
        <time>2015-09-01T06:58:37Z</time>
      </trkpt>
      <trkpt lat="33.99063" lon="77.24393">
        <ele>3321.4</ele>
        <time>2015-09-01T06:58:46Z</time>
      </trkpt>
      <trkpt lat="33.99058" lon="77.24396">
        <ele>3321.6</ele>
        <time>2015-09-01T06:58:52Z</time>
      </trkpt>
      <trkpt lat="33.99059" lon="77.24396">
        <ele>3321.8</ele>
        <time>2015-09-01T06:58:53Z</time>
      </trkpt>
      <trkpt lat="33.99036" lon="77.24433">
        <ele>3322.8</ele>
        <time>2015-09-01T06:59:12Z</time>
      </trkpt>
      <trkpt lat="33.99033" lon="77.24436">
        <ele>3322.8</ele>
        <time>2015-09-01T06:59:13Z</time>
      </trkpt>
      <trkpt lat="33.99032" lon="77.24438">
        <ele>3322.8</ele>
        <time>2015-09-01T06:59:14Z</time>
      </trkpt>
      <trkpt lat="33.99019" lon="77.24455">
        <ele>3323.2</ele>
        <time>2015-09-01T06:59:26Z</time>
      </trkpt>
      <trkpt lat="33.99008" lon="77.2447">
        <ele>3324</ele>
        <time>2015-09-01T06:59:34Z</time>
      </trkpt>
      <trkpt lat="33.99011" lon="77.24477">
        <ele>3324.4</ele>
        <time>2015-09-01T06:59:47Z</time>
      </trkpt>
      <trkpt lat="33.99011" lon="77.24477">
        <ele>3324.6</ele>
        <time>2015-09-01T06:59:49Z</time>
      </trkpt>
      <trkpt lat="33.99015" lon="77.24472">
        <ele>3325</ele>
        <time>2015-09-01T06:59:55Z</time>
      </trkpt>
      <trkpt lat="33.99005" lon="77.24475">
        <ele>3325.8</ele>
        <time>2015-09-01T07:00:08Z</time>
      </trkpt>
      <trkpt lat="33.99006" lon="77.24475">
        <ele>3326.2</ele>
        <time>2015-09-01T07:00:10Z</time>
      </trkpt>
      <trkpt lat="33.99002" lon="77.24478">
        <ele>3327</ele>
        <time>2015-09-01T07:00:18Z</time>
      </trkpt>
      <trkpt lat="33.99001" lon="77.24479">
        <ele>3327.2</ele>
        <time>2015-09-01T07:00:20Z</time>
      </trkpt>
      <trkpt lat="33.99" lon="77.24481">
        <ele>3327.4</ele>
        <time>2015-09-01T07:00:21Z</time>
      </trkpt>
      <trkpt lat="33.98989" lon="77.24507">
        <ele>3327.4</ele>
        <time>2015-09-01T07:00:22Z</time>
      </trkpt>
      <trkpt lat="33.9898" lon="77.24516">
        <ele>3328.2</ele>
        <time>2015-09-01T07:00:28Z</time>
      </trkpt>
      <trkpt lat="33.98978" lon="77.24518">
        <ele>3328.4</ele>
        <time>2015-09-01T07:00:31Z</time>
      </trkpt>
      <trkpt lat="33.98975" lon="77.24519">
        <ele>3328.4</ele>
        <time>2015-09-01T07:00:34Z</time>
      </trkpt>
      <trkpt lat="33.98975" lon="77.24526">
        <ele>3328.8</ele>
        <time>2015-09-01T07:00:41Z</time>
      </trkpt>
      <trkpt lat="33.9898" lon="77.24531">
        <ele>3329.2</ele>
        <time>2015-09-01T07:00:45Z</time>
      </trkpt>
      <trkpt lat="33.98978" lon="77.24544">
        <ele>3330.2</ele>
        <time>2015-09-01T07:00:58Z</time>
      </trkpt>
      <trkpt lat="33.98977" lon="77.24545">
        <ele>3330.2</ele>
        <time>2015-09-01T07:00:59Z</time>
      </trkpt>
      <trkpt lat="33.98964" lon="77.2456">
        <ele>3331.2</ele>
        <time>2015-09-01T07:01:16Z</time>
      </trkpt>
      <trkpt lat="33.98964" lon="77.24566">
        <ele>3331.2</ele>
        <time>2015-09-01T07:01:21Z</time>
      </trkpt>
      <trkpt lat="33.98964" lon="77.24567">
        <ele>3331.2</ele>
        <time>2015-09-01T07:01:22Z</time>
      </trkpt>
      <trkpt lat="33.98968" lon="77.24582">
        <ele>3331.8</ele>
        <time>2015-09-01T07:01:35Z</time>
      </trkpt>
      <trkpt lat="33.9897" lon="77.24588">
        <ele>3332.4</ele>
        <time>2015-09-01T07:01:42Z</time>
      </trkpt>
      <trkpt lat="33.98978" lon="77.24591">
        <ele>3332.8</ele>
        <time>2015-09-01T07:01:54Z</time>
      </trkpt>
      <trkpt lat="33.98982" lon="77.24594">
        <ele>3332.8</ele>
        <time>2015-09-01T07:01:59Z</time>
      </trkpt>
      <trkpt lat="33.98977" lon="77.24593">
        <ele>3332.6</ele>
        <time>2015-09-01T07:02:02Z</time>
      </trkpt>
      <trkpt lat="33.98977" lon="77.24593">
        <ele>3332.8</ele>
        <time>2015-09-01T07:02:07Z</time>
      </trkpt>
      <trkpt lat="33.98979" lon="77.24594">
        <ele>3332.8</ele>
        <time>2015-09-01T07:02:11Z</time>
      </trkpt>
      <trkpt lat="33.98981" lon="77.24595">
        <ele>3333</ele>
        <time>2015-09-01T07:02:13Z</time>
      </trkpt>
      <trkpt lat="33.98989" lon="77.24597">
        <ele>3332.6</ele>
        <time>2015-09-01T07:02:26Z</time>
      </trkpt>
      <trkpt lat="33.98993" lon="77.246">
        <ele>3332.2</ele>
        <time>2015-09-01T07:02:31Z</time>
      </trkpt>
      <trkpt lat="33.98979" lon="77.24612">
        <ele>3333.2</ele>
        <time>2015-09-01T07:02:47Z</time>
      </trkpt>
      <trkpt lat="33.98974" lon="77.24613">
        <ele>3333.4</ele>
        <time>2015-09-01T07:02:50Z</time>
      </trkpt>
      <trkpt lat="33.98967" lon="77.24612">
        <ele>3334.2</ele>
        <time>2015-09-01T07:02:57Z</time>
      </trkpt>
      <trkpt lat="33.98962" lon="77.24611">
        <ele>3334</ele>
        <time>2015-09-01T07:03:04Z</time>
      </trkpt>
      <trkpt lat="33.98962" lon="77.2462">
        <ele>3333.6</ele>
        <time>2015-09-01T07:03:15Z</time>
      </trkpt>
      <trkpt lat="33.98959" lon="77.24631">
        <ele>3332.8</ele>
        <time>2015-09-01T07:03:21Z</time>
      </trkpt>
      <trkpt lat="33.98958" lon="77.24641">
        <ele>3332.4</ele>
        <time>2015-09-01T07:03:26Z</time>
      </trkpt>
      <trkpt lat="33.98954" lon="77.24654">
        <ele>3332.2</ele>
        <time>2015-09-01T07:03:31Z</time>
      </trkpt>
      <trkpt lat="33.98939" lon="77.24666">
        <ele>3331.4</ele>
        <time>2015-09-01T07:03:41Z</time>
      </trkpt>
      <trkpt lat="33.98938" lon="77.24669">
        <ele>3331.4</ele>
        <time>2015-09-01T07:03:44Z</time>
      </trkpt>
      <trkpt lat="33.98935" lon="77.24689">
        <ele>3331</ele>
        <time>2015-09-01T07:04:08Z</time>
      </trkpt>
      <trkpt lat="33.98934" lon="77.2469">
        <ele>3331</ele>
        <time>2015-09-01T07:04:09Z</time>
      </trkpt>
      <trkpt lat="33.98933" lon="77.24694">
        <ele>3331</ele>
        <time>2015-09-01T07:04:13Z</time>
      </trkpt>
      <trkpt lat="33.98927" lon="77.247">
        <ele>3330.8</ele>
        <time>2015-09-01T07:04:20Z</time>
      </trkpt>
      <trkpt lat="33.98921" lon="77.24708">
        <ele>3330.6</ele>
        <time>2015-09-01T07:04:28Z</time>
      </trkpt>
      <trkpt lat="33.98912" lon="77.24729">
        <ele>3330.4</ele>
        <time>2015-09-01T07:04:40Z</time>
      </trkpt>
      <trkpt lat="33.98912" lon="77.24747">
        <ele>3330.4</ele>
        <time>2015-09-01T07:04:53Z</time>
      </trkpt>
      <trkpt lat="33.98911" lon="77.24757">
        <ele>3330.4</ele>
        <time>2015-09-01T07:05:02Z</time>
      </trkpt>
      <trkpt lat="33.98908" lon="77.24762">
        <ele>3330.4</ele>
        <time>2015-09-01T07:05:05Z</time>
      </trkpt>
      <trkpt lat="33.98906" lon="77.24764">
        <ele>3330.2</ele>
        <time>2015-09-01T07:05:06Z</time>
      </trkpt>
      <trkpt lat="33.98902" lon="77.24774">
        <ele>3330</ele>
        <time>2015-09-01T07:05:12Z</time>
      </trkpt>
      <trkpt lat="33.98898" lon="77.24795">
        <ele>3330.2</ele>
        <time>2015-09-01T07:05:29Z</time>
      </trkpt>
      <trkpt lat="33.98892" lon="77.24809">
        <ele>3330.4</ele>
        <time>2015-09-01T07:05:38Z</time>
      </trkpt>
      <trkpt lat="33.98891" lon="77.24816">
        <ele>3330.2</ele>
        <time>2015-09-01T07:05:45Z</time>
      </trkpt>
      <trkpt lat="33.98889" lon="77.2482">
        <ele>3330.2</ele>
        <time>2015-09-01T07:05:48Z</time>
      </trkpt>
      <trkpt lat="33.98888" lon="77.2483">
        <ele>3330.4</ele>
        <time>2015-09-01T07:05:55Z</time>
      </trkpt>
      <trkpt lat="33.98888" lon="77.24834">
        <ele>3330.8</ele>
        <time>2015-09-01T07:05:59Z</time>
      </trkpt>
      <trkpt lat="33.98891" lon="77.24834">
        <ele>3331</ele>
        <time>2015-09-01T07:06:01Z</time>
      </trkpt>
      <trkpt lat="33.98893" lon="77.24834">
        <ele>3331.4</ele>
        <time>2015-09-01T07:06:03Z</time>
      </trkpt>
      <trkpt lat="33.98895" lon="77.24832">
        <ele>3332</ele>
        <time>2015-09-01T07:06:06Z</time>
      </trkpt>
      <trkpt lat="33.98895" lon="77.24835">
        <ele>3332.2</ele>
        <time>2015-09-01T07:06:09Z</time>
      </trkpt>
      <trkpt lat="33.98894" lon="77.24837">
        <ele>3332.2</ele>
        <time>2015-09-01T07:06:11Z</time>
      </trkpt>
      <trkpt lat="33.98893" lon="77.24839">
        <ele>3332.2</ele>
        <time>2015-09-01T07:06:14Z</time>
      </trkpt>
      <trkpt lat="33.98892" lon="77.24843">
        <ele>3332.6</ele>
        <time>2015-09-01T07:06:16Z</time>
      </trkpt>
      <trkpt lat="33.98892" lon="77.24844">
        <ele>3332.6</ele>
        <time>2015-09-01T07:06:17Z</time>
      </trkpt>
      <trkpt lat="33.98881" lon="77.24861">
        <ele>3332.6</ele>
        <time>2015-09-01T07:06:25Z</time>
      </trkpt>
      <trkpt lat="33.9888" lon="77.24867">
        <ele>3332.8</ele>
        <time>2015-09-01T07:06:29Z</time>
      </trkpt>
      <trkpt lat="33.98879" lon="77.2487">
        <ele>3332.6</ele>
        <time>2015-09-01T07:06:33Z</time>
      </trkpt>
      <trkpt lat="33.98878" lon="77.24868">
        <ele>3332.2</ele>
        <time>2015-09-01T07:06:36Z</time>
      </trkpt>
      <trkpt lat="33.98873" lon="77.24871">
        <ele>3332.2</ele>
        <time>2015-09-01T07:06:41Z</time>
      </trkpt>
      <trkpt lat="33.9887" lon="77.24874">
        <ele>3332.2</ele>
        <time>2015-09-01T07:06:44Z</time>
      </trkpt>
      <trkpt lat="33.98869" lon="77.24886">
        <ele>3332.8</ele>
        <time>2015-09-01T07:07:12Z</time>
      </trkpt>
      <trkpt lat="33.98869" lon="77.24893">
        <ele>3333.2</ele>
        <time>2015-09-01T07:07:23Z</time>
      </trkpt>
      <trkpt lat="33.98869" lon="77.24896">
        <ele>3333.2</ele>
        <time>2015-09-01T07:07:25Z</time>
      </trkpt>
      <trkpt lat="33.98866" lon="77.24901">
        <ele>3333.6</ele>
        <time>2015-09-01T07:07:29Z</time>
      </trkpt>
      <trkpt lat="33.98865" lon="77.2491">
        <ele>3333.8</ele>
        <time>2015-09-01T07:07:35Z</time>
      </trkpt>
      <trkpt lat="33.98865" lon="77.24916">
        <ele>3333.8</ele>
        <time>2015-09-01T07:07:40Z</time>
      </trkpt>
      <trkpt lat="33.98861" lon="77.24919">
        <ele>3333.8</ele>
        <time>2015-09-01T07:07:42Z</time>
      </trkpt>
      <trkpt lat="33.98849" lon="77.24936">
        <ele>3334.2</ele>
        <time>2015-09-01T07:07:56Z</time>
      </trkpt>
      <trkpt lat="33.98841" lon="77.24951">
        <ele>3334.4</ele>
        <time>2015-09-01T07:08:14Z</time>
      </trkpt>
      <trkpt lat="33.98837" lon="77.24953">
        <ele>3334.4</ele>
        <time>2015-09-01T07:08:19Z</time>
      </trkpt>
      <trkpt lat="33.98833" lon="77.24957">
        <ele>3334</ele>
        <time>2015-09-01T07:08:25Z</time>
      </trkpt>
      <trkpt lat="33.9882" lon="77.24972">
        <ele>3333.6</ele>
        <time>2015-09-01T07:08:38Z</time>
      </trkpt>
      <trkpt lat="33.98814" lon="77.24981">
        <ele>3334</ele>
        <time>2015-09-01T07:08:48Z</time>
      </trkpt>
      <trkpt lat="33.98807" lon="77.25002">
        <ele>3334</ele>
        <time>2015-09-01T07:08:53Z</time>
      </trkpt>
      <trkpt lat="33.98801" lon="77.2501">
        <ele>3334</ele>
        <time>2015-09-01T07:08:57Z</time>
      </trkpt>
      <trkpt lat="33.988" lon="77.25013">
        <ele>3334.4</ele>
        <time>2015-09-01T07:08:59Z</time>
      </trkpt>
      <trkpt lat="33.98802" lon="77.25017">
        <ele>3334.6</ele>
        <time>2015-09-01T07:09:01Z</time>
      </trkpt>
      <trkpt lat="33.98799" lon="77.25024">
        <ele>3334.8</ele>
        <time>2015-09-01T07:09:07Z</time>
      </trkpt>
      <trkpt lat="33.98815" lon="77.25037">
        <ele>3335.6</ele>
        <time>2015-09-01T07:09:22Z</time>
      </trkpt>
      <trkpt lat="33.98811" lon="77.25041">
        <ele>3335.6</ele>
        <time>2015-09-01T07:09:23Z</time>
      </trkpt>
      <trkpt lat="33.98802" lon="77.2505">
        <ele>3335.6</ele>
        <time>2015-09-01T07:09:25Z</time>
      </trkpt>
      <trkpt lat="33.98795" lon="77.25061">
        <ele>3335.8</ele>
        <time>2015-09-01T07:09:32Z</time>
      </trkpt>
      <trkpt lat="33.9881" lon="77.25066">
        <ele>3336.6</ele>
        <time>2015-09-01T07:09:46Z</time>
      </trkpt>
      <trkpt lat="33.988" lon="77.25085">
        <ele>3337.2</ele>
        <time>2015-09-01T07:09:56Z</time>
      </trkpt>
      <trkpt lat="33.98804" lon="77.25091">
        <ele>3337.6</ele>
        <time>2015-09-01T07:10:04Z</time>
      </trkpt>
      <trkpt lat="33.98801" lon="77.25092">
        <ele>3337.6</ele>
        <time>2015-09-01T07:10:06Z</time>
      </trkpt>
      <trkpt lat="33.988" lon="77.25092">
        <ele>3337.6</ele>
        <time>2015-09-01T07:10:07Z</time>
      </trkpt>
      <trkpt lat="33.98798" lon="77.25095">
        <ele>3337.6</ele>
        <time>2015-09-01T07:10:12Z</time>
      </trkpt>
      <trkpt lat="33.98792" lon="77.25107">
        <ele>3338.2</ele>
        <time>2015-09-01T07:10:24Z</time>
      </trkpt>
      <trkpt lat="33.98794" lon="77.25116">
        <ele>3338.2</ele>
        <time>2015-09-01T07:10:34Z</time>
      </trkpt>
      <trkpt lat="33.98792" lon="77.25121">
        <ele>3338.8</ele>
        <time>2015-09-01T07:10:39Z</time>
      </trkpt>
      <trkpt lat="33.98791" lon="77.25122">
        <ele>3338.8</ele>
        <time>2015-09-01T07:10:41Z</time>
      </trkpt>
      <trkpt lat="33.98776" lon="77.25118">
        <ele>3338.4</ele>
        <time>2015-09-01T07:10:49Z</time>
      </trkpt>
      <trkpt lat="33.98777" lon="77.25112">
        <ele>3338.4</ele>
        <time>2015-09-01T07:10:52Z</time>
      </trkpt>
      <trkpt lat="33.98773" lon="77.25114">
        <ele>3338.4</ele>
        <time>2015-09-01T07:10:55Z</time>
      </trkpt>
      <trkpt lat="33.98765" lon="77.25122">
        <ele>3339</ele>
        <time>2015-09-01T07:11:27Z</time>
      </trkpt>
      <trkpt lat="33.9877" lon="77.25113">
        <ele>3339</ele>
        <time>2015-09-01T07:11:34Z</time>
      </trkpt>
      <trkpt lat="33.98771" lon="77.25119">
        <ele>3339</ele>
        <time>2015-09-01T07:11:37Z</time>
      </trkpt>
      <trkpt lat="33.98771" lon="77.25127">
        <ele>3338.8</ele>
        <time>2015-09-01T07:11:39Z</time>
      </trkpt>
      <trkpt lat="33.98766" lon="77.25127">
        <ele>3337.6</ele>
        <time>2015-09-01T07:11:46Z</time>
      </trkpt>
      <trkpt lat="33.98766" lon="77.25127">
        <ele>3337.6</ele>
        <time>2015-09-01T07:11:47Z</time>
      </trkpt>
      <trkpt lat="33.98762" lon="77.25129">
        <ele>3337.4</ele>
        <time>2015-09-01T07:11:49Z</time>
      </trkpt>
      <trkpt lat="33.98761" lon="77.25133">
        <ele>3337.6</ele>
        <time>2015-09-01T07:11:53Z</time>
      </trkpt>
      <trkpt lat="33.98767" lon="77.25129">
        <ele>3337.4</ele>
        <time>2015-09-01T07:12:06Z</time>
      </trkpt>
      <trkpt lat="33.98766" lon="77.25131">
        <ele>3337</ele>
        <time>2015-09-01T07:12:09Z</time>
      </trkpt>
      <trkpt lat="33.98758" lon="77.2513">
        <ele>3337</ele>
        <time>2015-09-01T07:12:12Z</time>
      </trkpt>
      <trkpt lat="33.98765" lon="77.2513">
        <ele>3337.6</ele>
        <time>2015-09-01T07:12:19Z</time>
      </trkpt>
      <trkpt lat="33.98766" lon="77.2514">
        <ele>3337.4</ele>
        <time>2015-09-01T07:12:56Z</time>
      </trkpt>
      <trkpt lat="33.98779" lon="77.25126">
        <ele>3337.2</ele>
        <time>2015-09-01T07:12:59Z</time>
      </trkpt>
      <trkpt lat="33.98774" lon="77.25116">
        <ele>3336.8</ele>
        <time>2015-09-01T07:13:05Z</time>
      </trkpt>
      <trkpt lat="33.98773" lon="77.25115">
        <ele>3336.6</ele>
        <time>2015-09-01T07:13:07Z</time>
      </trkpt>
      <trkpt lat="33.98775" lon="77.25111">
        <ele>3336.6</ele>
        <time>2015-09-01T07:13:10Z</time>
      </trkpt>
      <trkpt lat="33.98779" lon="77.25109">
        <ele>3336.4</ele>
        <time>2015-09-01T07:13:13Z</time>
      </trkpt>
      <trkpt lat="33.98776" lon="77.25108">
        <ele>3336.4</ele>
        <time>2015-09-01T07:13:15Z</time>
      </trkpt>
      <trkpt lat="33.98782" lon="77.25107">
        <ele>3337</ele>
        <time>2015-09-01T07:13:46Z</time>
      </trkpt>
      <trkpt lat="33.98785" lon="77.25105">
        <ele>3337.4</ele>
        <time>2015-09-01T07:13:49Z</time>
      </trkpt>
      <trkpt lat="33.98762" lon="77.25109">
        <ele>3338.8</ele>
        <time>2015-09-01T07:16:43Z</time>
      </trkpt>
      <trkpt lat="33.98757" lon="77.25099">
        <ele>3338.8</ele>
        <time>2015-09-01T07:16:47Z</time>
      </trkpt>
      <trkpt lat="33.9877" lon="77.25082">
        <ele>3337.6</ele>
        <time>2015-09-01T07:17:04Z</time>
      </trkpt>
      <trkpt lat="33.98745" lon="77.25073">
        <ele>3336.4</ele>
        <time>2015-09-01T07:17:13Z</time>
      </trkpt>
      <trkpt lat="33.98795" lon="77.2512">
        <ele>3337.6</ele>
        <time>2015-09-01T07:17:45Z</time>
      </trkpt>
      <trkpt lat="33.98795" lon="77.25121">
        <ele>3337.6</ele>
        <time>2015-09-01T07:17:47Z</time>
      </trkpt>
      <trkpt lat="33.98793" lon="77.2512">
        <ele>3337.6</ele>
        <time>2015-09-01T07:17:51Z</time>
      </trkpt>
      <trkpt lat="33.98778" lon="77.25118">
        <ele>3337.8</ele>
        <time>2015-09-01T07:17:54Z</time>
      </trkpt>
      <trkpt lat="33.98775" lon="77.2511">
        <ele>3337.6</ele>
        <time>2015-09-01T07:17:58Z</time>
      </trkpt>
      <trkpt lat="33.98772" lon="77.25105">
        <ele>3337.4</ele>
        <time>2015-09-01T07:18:01Z</time>
      </trkpt>
      <trkpt lat="33.9877" lon="77.25097">
        <ele>3338</ele>
        <time>2015-09-01T07:18:06Z</time>
      </trkpt>
      <trkpt lat="33.98782" lon="77.25094">
        <ele>3337.2</ele>
        <time>2015-09-01T07:18:11Z</time>
      </trkpt>
      <trkpt lat="33.98778" lon="77.25099">
        <ele>3337</ele>
        <time>2015-09-01T07:18:15Z</time>
      </trkpt>
      <trkpt lat="33.98774" lon="77.25103">
        <ele>3337.2</ele>
        <time>2015-09-01T07:18:24Z</time>
      </trkpt>
      <trkpt lat="33.98763" lon="77.25096">
        <ele>3336.8</ele>
        <time>2015-09-01T07:18:43Z</time>
      </trkpt>
      <trkpt lat="33.98757" lon="77.25097">
        <ele>3336.8</ele>
        <time>2015-09-01T07:18:48Z</time>
      </trkpt>
      <trkpt lat="33.98758" lon="77.25107">
        <ele>3337</ele>
        <time>2015-09-01T07:19:04Z</time>
      </trkpt>
      <trkpt lat="33.98764" lon="77.25106">
        <ele>3336.6</ele>
        <time>2015-09-01T07:19:10Z</time>
      </trkpt>
      <trkpt lat="33.98771" lon="77.25101">
        <ele>3336.6</ele>
        <time>2015-09-01T07:19:14Z</time>
      </trkpt>
      <trkpt lat="33.98778" lon="77.25109">
        <ele>3336.4</ele>
        <time>2015-09-01T07:19:18Z</time>
      </trkpt>
      <trkpt lat="33.98783" lon="77.25101">
        <ele>3336.2</ele>
        <time>2015-09-01T07:19:26Z</time>
      </trkpt>
      <trkpt lat="33.98783" lon="77.25094">
        <ele>3336.4</ele>
        <time>2015-09-01T07:19:28Z</time>
      </trkpt>
      <trkpt lat="33.98788" lon="77.2509">
        <ele>3336.4</ele>
        <time>2015-09-01T07:19:31Z</time>
      </trkpt>
      <trkpt lat="33.98791" lon="77.25092">
        <ele>3336.2</ele>
        <time>2015-09-01T07:19:34Z</time>
      </trkpt>
      <trkpt lat="33.98795" lon="77.25093">
        <ele>3336</ele>
        <time>2015-09-01T07:19:38Z</time>
      </trkpt>
      <trkpt lat="33.98796" lon="77.25092">
        <ele>3335.8</ele>
        <time>2015-09-01T07:19:41Z</time>
      </trkpt>
      <trkpt lat="33.98788" lon="77.25103">
        <ele>3335.4</ele>
        <time>2015-09-01T07:20:01Z</time>
      </trkpt>
      <trkpt lat="33.98784" lon="77.25098">
        <ele>3336</ele>
        <time>2015-09-01T07:20:28Z</time>
      </trkpt>
      <trkpt lat="33.98785" lon="77.25094">
        <ele>3336.4</ele>
        <time>2015-09-01T07:20:31Z</time>
      </trkpt>
      <trkpt lat="33.98793" lon="77.25092">
        <ele>3336.2</ele>
        <time>2015-09-01T07:20:36Z</time>
      </trkpt>
      <trkpt lat="33.98795" lon="77.251">
        <ele>3335.8</ele>
        <time>2015-09-01T07:20:51Z</time>
      </trkpt>
      <trkpt lat="33.98792" lon="77.25104">
        <ele>3336</ele>
        <time>2015-09-01T07:20:55Z</time>
      </trkpt>
      <trkpt lat="33.98782" lon="77.25111">
        <ele>3336</ele>
        <time>2015-09-01T07:21:05Z</time>
      </trkpt>
      <trkpt lat="33.9878" lon="77.25115">
        <ele>3336</ele>
        <time>2015-09-01T07:21:08Z</time>
      </trkpt>
      <trkpt lat="33.9878" lon="77.25117">
        <ele>3336.2</ele>
        <time>2015-09-01T07:22:04Z</time>
      </trkpt>
      <trkpt lat="33.98791" lon="77.25114">
        <ele>3336.6</ele>
        <time>2015-09-01T07:22:21Z</time>
      </trkpt>
      <trkpt lat="33.9879" lon="77.25105">
        <ele>3337</ele>
        <time>2015-09-01T07:22:37Z</time>
      </trkpt>
      <trkpt lat="33.98792" lon="77.25092">
        <ele>3336.6</ele>
        <time>2015-09-01T07:23:05Z</time>
      </trkpt>
      <trkpt lat="33.98792" lon="77.25094">
        <ele>3336.4</ele>
        <time>2015-09-01T07:23:10Z</time>
      </trkpt>
      <trkpt lat="33.98792" lon="77.25095">
        <ele>3336.2</ele>
        <time>2015-09-01T07:23:14Z</time>
      </trkpt>
      <trkpt lat="33.98793" lon="77.25103">
        <ele>3336.4</ele>
        <time>2015-09-01T07:23:25Z</time>
      </trkpt>
      <trkpt lat="33.98793" lon="77.25106">
        <ele>3336.2</ele>
        <time>2015-09-01T07:23:27Z</time>
      </trkpt>
      <trkpt lat="33.98769" lon="77.25136">
        <ele>3336.4</ele>
        <time>2015-09-01T07:23:56Z</time>
      </trkpt>
      <trkpt lat="33.98765" lon="77.2514">
        <ele>3336.6</ele>
        <time>2015-09-01T07:24:15Z</time>
      </trkpt>
      <trkpt lat="33.98781" lon="77.25119">
        <ele>3336.8</ele>
        <time>2015-09-01T07:24:18Z</time>
      </trkpt>
      <trkpt lat="33.98786" lon="77.25118">
        <ele>3337.2</ele>
        <time>2015-09-01T07:24:23Z</time>
      </trkpt>
      <trkpt lat="33.9879" lon="77.25108">
        <ele>3336.6</ele>
        <time>2015-09-01T07:24:32Z</time>
      </trkpt>
      <trkpt lat="33.98794" lon="77.25101">
        <ele>3336.8</ele>
        <time>2015-09-01T07:24:36Z</time>
      </trkpt>
      <trkpt lat="33.98798" lon="77.25091">
        <ele>3336.8</ele>
        <time>2015-09-01T07:24:50Z</time>
      </trkpt>
      <trkpt lat="33.98794" lon="77.25098">
        <ele>3336.6</ele>
        <time>2015-09-01T07:24:54Z</time>
      </trkpt>
      <trkpt lat="33.98789" lon="77.25103">
        <ele>3336.6</ele>
        <time>2015-09-01T07:24:59Z</time>
      </trkpt>
      <trkpt lat="33.98789" lon="77.25103">
        <ele>3336.4</ele>
        <time>2015-09-01T07:25:03Z</time>
      </trkpt>
      <trkpt lat="33.9879" lon="77.25105">
        <ele>3336.6</ele>
        <time>2015-09-01T07:25:06Z</time>
      </trkpt>
      <trkpt lat="33.9879" lon="77.25104">
        <ele>3336.4</ele>
        <time>2015-09-01T07:25:08Z</time>
      </trkpt>
      <trkpt lat="33.98793" lon="77.25097">
        <ele>3336.2</ele>
        <time>2015-09-01T07:25:11Z</time>
      </trkpt>
      <trkpt lat="33.98794" lon="77.25095">
        <ele>3336.2</ele>
        <time>2015-09-01T07:25:13Z</time>
      </trkpt>
      <trkpt lat="33.98793" lon="77.25095">
        <ele>3335.8</ele>
        <time>2015-09-01T07:25:34Z</time>
      </trkpt>
      <trkpt lat="33.98791" lon="77.25092">
        <ele>3335.8</ele>
        <time>2015-09-01T07:25:38Z</time>
      </trkpt>
      <trkpt lat="33.98786" lon="77.25109">
        <ele>3335.6</ele>
        <time>2015-09-01T07:25:49Z</time>
      </trkpt>
      <trkpt lat="33.98776" lon="77.25118">
        <ele>3336.6</ele>
        <time>2015-09-01T07:26:16Z</time>
      </trkpt>
      <trkpt lat="33.98782" lon="77.25108">
        <ele>3336.4</ele>
        <time>2015-09-01T07:26:33Z</time>
      </trkpt>
      <trkpt lat="33.98781" lon="77.25108">
        <ele>3336.8</ele>
        <time>2015-09-01T07:26:58Z</time>
      </trkpt>
      <trkpt lat="33.98778" lon="77.25109">
        <ele>3336.8</ele>
        <time>2015-09-01T07:27:00Z</time>
      </trkpt>
      <trkpt lat="33.98781" lon="77.25105">
        <ele>3336.6</ele>
        <time>2015-09-01T07:27:06Z</time>
      </trkpt>
      <trkpt lat="33.98784" lon="77.251">
        <ele>3336.2</ele>
        <time>2015-09-01T07:27:31Z</time>
      </trkpt>
      <trkpt lat="33.98781" lon="77.25111">
        <ele>3336</ele>
        <time>2015-09-01T07:27:57Z</time>
      </trkpt>
      <trkpt lat="33.98783" lon="77.25109">
        <ele>3336.8</ele>
        <time>2015-09-01T07:28:27Z</time>
      </trkpt>
      <trkpt lat="33.98786" lon="77.25106">
        <ele>3336.4</ele>
        <time>2015-09-01T07:28:30Z</time>
      </trkpt>
      <trkpt lat="33.98791" lon="77.25099">
        <ele>3336</ele>
        <time>2015-09-01T07:29:03Z</time>
      </trkpt>
      <trkpt lat="33.98787" lon="77.25109">
        <ele>3336.6</ele>
        <time>2015-09-01T07:29:12Z</time>
      </trkpt>
      <trkpt lat="33.98778" lon="77.25107">
        <ele>3336.6</ele>
        <time>2015-09-01T07:29:54Z</time>
      </trkpt>
      <trkpt lat="33.9879" lon="77.2508">
        <ele>3336.6</ele>
        <time>2015-09-01T07:30:18Z</time>
      </trkpt>
      <trkpt lat="33.98789" lon="77.25082">
        <ele>3336.4</ele>
        <time>2015-09-01T07:30:22Z</time>
      </trkpt>
      <trkpt lat="33.98789" lon="77.2509">
        <ele>3336.4</ele>
        <time>2015-09-01T07:30:26Z</time>
      </trkpt>
      <trkpt lat="33.98785" lon="77.25104">
        <ele>3336.4</ele>
        <time>2015-09-01T07:30:34Z</time>
      </trkpt>
      <trkpt lat="33.98784" lon="77.25106">
        <ele>3336.4</ele>
        <time>2015-09-01T07:30:37Z</time>
      </trkpt>
      <trkpt lat="33.98777" lon="77.25107">
        <ele>3336.6</ele>
        <time>2015-09-01T07:30:45Z</time>
      </trkpt>
      <trkpt lat="33.98774" lon="77.25106">
        <ele>3336.6</ele>
        <time>2015-09-01T07:30:47Z</time>
      </trkpt>
      <trkpt lat="33.98776" lon="77.251">
        <ele>3336.6</ele>
        <time>2015-09-01T07:30:50Z</time>
      </trkpt>
      <trkpt lat="33.98772" lon="77.25094">
        <ele>3336.4</ele>
        <time>2015-09-01T07:30:56Z</time>
      </trkpt>
      <trkpt lat="33.98791" lon="77.25066">
        <ele>3335.4</ele>
        <time>2015-09-01T07:31:29Z</time>
      </trkpt>
      <trkpt lat="33.98791" lon="77.25077">
        <ele>3335</ele>
        <time>2015-09-01T07:31:38Z</time>
      </trkpt>
      <trkpt lat="33.9873" lon="77.25186">
        <ele>3336.2</ele>
        <time>2015-09-01T07:32:22Z</time>
      </trkpt>
      <trkpt lat="33.98727" lon="77.2519">
        <ele>3336.2</ele>
        <time>2015-09-01T07:32:24Z</time>
      </trkpt>
      <trkpt lat="33.98726" lon="77.25194">
        <ele>3336.6</ele>
        <time>2015-09-01T07:32:26Z</time>
      </trkpt>
      <trkpt lat="33.98725" lon="77.25203">
        <ele>3337.6</ele>
        <time>2015-09-01T07:32:36Z</time>
      </trkpt>
      <trkpt lat="33.98721" lon="77.25209">
        <ele>3338.8</ele>
        <time>2015-09-01T07:32:46Z</time>
      </trkpt>
      <trkpt lat="33.9872" lon="77.25226">
        <ele>3340.2</ele>
        <time>2015-09-01T07:33:09Z</time>
      </trkpt>
      <trkpt lat="33.98729" lon="77.25212">
        <ele>3340.6</ele>
        <time>2015-09-01T07:33:12Z</time>
      </trkpt>
      <trkpt lat="33.98732" lon="77.25209">
        <ele>3340.8</ele>
        <time>2015-09-01T07:33:14Z</time>
      </trkpt>
      <trkpt lat="33.98743" lon="77.25193">
        <ele>3342</ele>
        <time>2015-09-01T07:33:23Z</time>
      </trkpt>
      <trkpt lat="33.9875" lon="77.25173">
        <ele>3342.8</ele>
        <time>2015-09-01T07:33:32Z</time>
      </trkpt>
      <trkpt lat="33.98752" lon="77.25167">
        <ele>3343</ele>
        <time>2015-09-01T07:33:33Z</time>
      </trkpt>
      <trkpt lat="33.98757" lon="77.25155">
        <ele>3343.2</ele>
        <time>2015-09-01T07:33:36Z</time>
      </trkpt>
      <trkpt lat="33.9876" lon="77.25149">
        <ele>3343.6</ele>
        <time>2015-09-01T07:33:38Z</time>
      </trkpt>
      <trkpt lat="33.98759" lon="77.25147">
        <ele>3344</ele>
        <time>2015-09-01T07:33:40Z</time>
      </trkpt>
      <trkpt lat="33.98764" lon="77.25128">
        <ele>3344.6</ele>
        <time>2015-09-01T07:33:56Z</time>
      </trkpt>
      <trkpt lat="33.9879" lon="77.25085">
        <ele>3344.6</ele>
        <time>2015-09-01T07:34:18Z</time>
      </trkpt>
      <trkpt lat="33.98789" lon="77.25085">
        <ele>3344</ele>
        <time>2015-09-01T07:34:50Z</time>
      </trkpt>
      <trkpt lat="33.98798" lon="77.2507">
        <ele>3343.8</ele>
        <time>2015-09-01T07:34:58Z</time>
      </trkpt>
      <trkpt lat="33.98793" lon="77.25084">
        <ele>3343.8</ele>
        <time>2015-09-01T07:35:01Z</time>
      </trkpt>
      <trkpt lat="33.98787" lon="77.25095">
        <ele>3343.8</ele>
        <time>2015-09-01T07:35:04Z</time>
      </trkpt>
      <trkpt lat="33.98785" lon="77.25085">
        <ele>3343.8</ele>
        <time>2015-09-01T07:35:19Z</time>
      </trkpt>
      <trkpt lat="33.98777" lon="77.25107">
        <ele>3343.2</ele>
        <time>2015-09-01T07:35:45Z</time>
      </trkpt>
      <trkpt lat="33.98779" lon="77.25108">
        <ele>3343.8</ele>
        <time>2015-09-01T07:35:57Z</time>
      </trkpt>
      <trkpt lat="33.98779" lon="77.25113">
        <ele>3343.6</ele>
        <time>2015-09-01T07:36:00Z</time>
      </trkpt>
      <trkpt lat="33.98785" lon="77.25105">
        <ele>3343.2</ele>
        <time>2015-09-01T07:36:26Z</time>
      </trkpt>
      <trkpt lat="33.98792" lon="77.25089">
        <ele>3343.2</ele>
        <time>2015-09-01T07:36:34Z</time>
      </trkpt>
      <trkpt lat="33.98795" lon="77.25085">
        <ele>3343.4</ele>
        <time>2015-09-01T07:36:37Z</time>
      </trkpt>
      <trkpt lat="33.98791" lon="77.25086">
        <ele>3343.2</ele>
        <time>2015-09-01T07:36:40Z</time>
      </trkpt>
      <trkpt lat="33.98791" lon="77.25085">
        <ele>3342.8</ele>
        <time>2015-09-01T07:36:42Z</time>
      </trkpt>
      <trkpt lat="33.98792" lon="77.2507">
        <ele>3342.2</ele>
        <time>2015-09-01T07:37:09Z</time>
      </trkpt>
      <trkpt lat="33.98803" lon="77.25055">
        <ele>3341.8</ele>
        <time>2015-09-01T07:37:19Z</time>
      </trkpt>
      <trkpt lat="33.98803" lon="77.25055">
        <ele>3341.8</ele>
        <time>2015-09-01T07:37:20Z</time>
      </trkpt>
      <trkpt lat="33.988" lon="77.25071">
        <ele>3340.8</ele>
        <time>2015-09-01T07:37:43Z</time>
      </trkpt>
      <trkpt lat="33.98798" lon="77.25067">
        <ele>3339.8</ele>
        <time>2015-09-01T07:38:07Z</time>
      </trkpt>
      <trkpt lat="33.98794" lon="77.25083">
        <ele>3338.8</ele>
        <time>2015-09-01T07:38:33Z</time>
      </trkpt>
      <trkpt lat="33.98793" lon="77.2508">
        <ele>3337.8</ele>
        <time>2015-09-01T07:38:56Z</time>
      </trkpt>
      <trkpt lat="33.98792" lon="77.25084">
        <ele>3337.8</ele>
        <time>2015-09-01T07:38:58Z</time>
      </trkpt>
      <trkpt lat="33.98796" lon="77.25073">
        <ele>3337.2</ele>
        <time>2015-09-01T07:39:20Z</time>
      </trkpt>
      <trkpt lat="33.98795" lon="77.25078">
        <ele>3337</ele>
        <time>2015-09-01T07:39:34Z</time>
      </trkpt>
      <trkpt lat="33.98792" lon="77.25088">
        <ele>3336.8</ele>
        <time>2015-09-01T07:39:37Z</time>
      </trkpt>
      <trkpt lat="33.98778" lon="77.25111">
        <ele>3336.8</ele>
        <time>2015-09-01T07:39:52Z</time>
      </trkpt>
      <trkpt lat="33.98775" lon="77.25113">
        <ele>3336.8</ele>
        <time>2015-09-01T07:39:54Z</time>
      </trkpt>
      <trkpt lat="33.9878" lon="77.25101">
        <ele>3337.8</ele>
        <time>2015-09-01T07:40:43Z</time>
      </trkpt>
      <trkpt lat="33.98778" lon="77.25112">
        <ele>3338.2</ele>
        <time>2015-09-01T07:40:50Z</time>
      </trkpt>
      <trkpt lat="33.98777" lon="77.25121">
        <ele>3338</ele>
        <time>2015-09-01T07:40:53Z</time>
      </trkpt>
      <trkpt lat="33.98772" lon="77.25123">
        <ele>3337.8</ele>
        <time>2015-09-01T07:41:08Z</time>
      </trkpt>
      <trkpt lat="33.98784" lon="77.25106">
        <ele>3338</ele>
        <time>2015-09-01T07:41:29Z</time>
      </trkpt>
      <trkpt lat="33.98788" lon="77.25101">
        <ele>3338.4</ele>
        <time>2015-09-01T07:41:33Z</time>
      </trkpt>
      <trkpt lat="33.98785" lon="77.25095">
        <ele>3338.2</ele>
        <time>2015-09-01T07:42:13Z</time>
      </trkpt>
      <trkpt lat="33.98789" lon="77.25088">
        <ele>3338.2</ele>
        <time>2015-09-01T07:42:18Z</time>
      </trkpt>
      <trkpt lat="33.9879" lon="77.25084">
        <ele>3338.2</ele>
        <time>2015-09-01T07:42:38Z</time>
      </trkpt>
      <trkpt lat="33.9879" lon="77.25081">
        <ele>3338</ele>
        <time>2015-09-01T07:42:41Z</time>
      </trkpt>
      <trkpt lat="33.98782" lon="77.25106">
        <ele>3337.6</ele>
        <time>2015-09-01T07:43:17Z</time>
      </trkpt>
      <trkpt lat="33.98783" lon="77.25101">
        <ele>3337.6</ele>
        <time>2015-09-01T07:43:20Z</time>
      </trkpt>
      <trkpt lat="33.98779" lon="77.25112">
        <ele>3337.4</ele>
        <time>2015-09-01T07:43:55Z</time>
      </trkpt>
      <trkpt lat="33.98784" lon="77.25097">
        <ele>3337.6</ele>
        <time>2015-09-01T07:44:44Z</time>
      </trkpt>
      <trkpt lat="33.98788" lon="77.25094">
        <ele>3337.4</ele>
        <time>2015-09-01T07:45:12Z</time>
      </trkpt>
      <trkpt lat="33.98789" lon="77.2509">
        <ele>3336.6</ele>
        <time>2015-09-01T07:45:38Z</time>
      </trkpt>
      <trkpt lat="33.98785" lon="77.25097">
        <ele>3336.2</ele>
        <time>2015-09-01T07:45:43Z</time>
      </trkpt>
      <trkpt lat="33.98774" lon="77.25118">
        <ele>3336.4</ele>
        <time>2015-09-01T07:45:55Z</time>
      </trkpt>
      <trkpt lat="33.98779" lon="77.25116">
        <ele>3336.6</ele>
        <time>2015-09-01T07:46:13Z</time>
      </trkpt>
      <trkpt lat="33.98775" lon="77.25132">
        <ele>3337.6</ele>
        <time>2015-09-01T07:46:42Z</time>
      </trkpt>
      <trkpt lat="33.98773" lon="77.25132">
        <ele>3338.8</ele>
        <time>2015-09-01T07:47:09Z</time>
      </trkpt>
      <trkpt lat="33.98775" lon="77.25133">
        <ele>3339.4</ele>
        <time>2015-09-01T07:47:31Z</time>
      </trkpt>
      <trkpt lat="33.98776" lon="77.25124">
        <ele>3339.8</ele>
        <time>2015-09-01T07:47:55Z</time>
      </trkpt>
      <trkpt lat="33.98778" lon="77.25119">
        <ele>3339.8</ele>
        <time>2015-09-01T07:47:59Z</time>
      </trkpt>
      <trkpt lat="33.98778" lon="77.25117">
        <ele>3339.8</ele>
        <time>2015-09-01T07:48:01Z</time>
      </trkpt>
      <trkpt lat="33.98787" lon="77.25096">
        <ele>3340</ele>
        <time>2015-09-01T07:48:08Z</time>
      </trkpt>
      <trkpt lat="33.98785" lon="77.25101">
        <ele>3340</ele>
        <time>2015-09-01T07:48:25Z</time>
      </trkpt>
      <trkpt lat="33.98772" lon="77.25129">
        <ele>3340.2</ele>
        <time>2015-09-01T07:48:41Z</time>
      </trkpt>
      <trkpt lat="33.98773" lon="77.25132">
        <ele>3377.2</ele>
        <time>2015-09-01T07:48:49Z</time>
      </trkpt>
    </trkseg>
  </trk>
</gpx>